Provisional Data: West Branch Pine Creek near Galeton, PA


Please select a monitoring station.
Please select start date.
Please select start date.

Toggle Unit: C/F Toggle Unit: C/F
Sample Time Temperature (C) Temperature (F) Specific Conductivity (mS/cm) pH   Turbidity (NTU+) DO (mg/L)
6/22/2021 12:00:00 AM 18.54 65.372 0.053 6.97 2.46 8.34
6/22/2021 12:15:00 AM 18.45 65.21 0.053 6.99 2.39 8.35
6/22/2021 12:30:00 AM 18.38 65.084 0.053 6.99 2.5 8.37
6/22/2021 12:45:00 AM 18.31 64.958 0.053 6.98 2.43 8.39
6/22/2021 1:00:00 AM 18.23 64.814 0.053 6.99 2.4 8.41
6/22/2021 1:15:00 AM 18.16 64.688 0.053 6.99 2.47 8.42
6/22/2021 1:30:00 AM 18.08 64.544 0.053 6.99 2.48 8.44
6/22/2021 1:45:00 AM 18 64.4 0.053 7 2.43 8.46
6/22/2021 2:00:00 AM 17.91 64.238 0.053 6.99 2.46 8.46
6/22/2021 2:15:00 AM 17.83 64.094 0.053 6.99 2.42 8.48
6/22/2021 2:30:00 AM 17.74 63.932 0.053 6.99 2.45 8.5
6/22/2021 2:45:00 AM 17.66 63.788 0.053 6.99 2.43 8.52
6/22/2021 3:00:00 AM 17.59 63.662 0.053 6.99 2.49 8.53
6/22/2021 3:15:00 AM 17.53 63.554 0.053 6.99 2.41 8.55
6/22/2021 3:30:00 AM 17.47 63.446 0.053 6.98 2.43 8.56
6/22/2021 3:45:00 AM 17.41 63.338 0.053 6.98 2.39 8.57
6/22/2021 4:00:00 AM 17.35 63.23 0.053 6.99 2.45 8.59
6/22/2021 4:15:00 AM 17.29 63.122 0.053 6.98 2.37 8.6
6/22/2021 4:30:00 AM 17.23 63.014 0.053 6.96 2.37 8.61
6/22/2021 4:45:00 AM 17.17 62.906 0.053 6.98 2.4 8.61
6/22/2021 5:00:00 AM 17.1 62.78 0.053 6.99 2.43 8.63
6/22/2021 5:15:00 AM 17.03 62.654 0.053 6.99 2.53 8.64
6/22/2021 5:30:00 AM 16.96 62.528 0.053 6.97 2.48 8.66
6/22/2021 5:45:00 AM 16.9 62.42 0.053 6.98 2.51 8.67
6/22/2021 6:00:00 AM 16.83 62.294 0.053 6.98 2.42 8.69
6/22/2021 6:15:00 AM 16.77 62.186 0.053 6.99 2.48 8.72
6/22/2021 6:30:00 AM 16.71 62.078 0.053 6.99 2.43 8.75
6/22/2021 6:45:00 AM 16.65 61.97 0.053 7 2.4 8.77
6/22/2021 7:00:00 AM 16.59 61.862 0.053 7 2.47 8.8
6/22/2021 7:15:00 AM 16.53 61.754 0.053 7 2.37 8.83
6/22/2021 7:30:00 AM 16.48 61.664 0.053 7 2.32 8.87
6/22/2021 7:45:00 AM 16.42 61.556 0.053 7.02 2.36 8.89
6/22/2021 8:00:00 AM 16.38 61.484 0.053 7.02 2.42 8.93
6/22/2021 8:15:00 AM 16.33 61.394 0.053 7.03 2.42 8.97
6/22/2021 8:30:00 AM 16.3 61.34 0.053 7.04 2.45 9.02
6/22/2021 8:45:00 AM 16.27 61.286 0.052 7.05 2.5 9.06
6/22/2021 9:00:00 AM 16.24 61.232 0.052 7.07 2.41 9.12
6/22/2021 9:15:00 AM 16.24 61.232 0.052 7.09 2.42 9.19
6/22/2021 9:30:00 AM 16.24 61.232 0.052 7.1 2.43 9.23
6/22/2021 9:45:00 AM 16.22 61.196 0.052 7.13 2.34 9.27
6/22/2021 10:00:00 AM 16.22 61.196 0.052 7.13 2.35 9.29
6/22/2021 10:15:00 AM 16.23 61.214 0.052 7.14 2.37 9.29
6/22/2021 10:30:00 AM 16.24 61.232 0.052 7.14 2.32 9.31
6/22/2021 10:45:00 AM 16.26 61.268 0.052 7.15 2.33 9.31
6/22/2021 11:00:00 AM 16.24 61.232 0.052 7.16 2.33 9.32
6/22/2021 11:15:00 AM 16.23 61.214 0.052 7.17 2.29 9.31
6/22/2021 11:30:00 AM 16.22 61.196 0.052 7.18 2.38 9.33
6/22/2021 11:45:00 AM 16.24 61.232 0.051 7.19 2.37 9.35
6/22/2021 12:00:00 PM 16.22 61.196 0.051 7.18 2.41 9.36
6/22/2021 12:15:00 PM 16.2 61.16 0.051 7.19 2.4 9.38
6/22/2021 12:30:00 PM 16.2 61.16 0.051 7.19 2.33 9.39
6/22/2021 12:45:00 PM 16.22 61.196 0.051 7.2 2.33 9.41
6/22/2021 1:00:00 PM 16.21 61.178 0.051 7.21 2.36 9.39
6/22/2021 1:15:00 PM 16.18 61.124 0.051 7.2 2.32 9.39
6/22/2021 1:30:00 PM 16.17 61.106 0.051 7.21 2.37 9.38
6/22/2021 1:45:00 PM 16.18 61.124 0.051 7.2 2.38 9.4
6/22/2021 2:00:00 PM 16.18 61.124 0.051 7.22 2.31 9.4
6/22/2021 2:15:00 PM 16.16 61.088 0.051 7.22 2.39 9.4
6/22/2021 2:30:00 PM 16.11 60.998 0.051 7.22 2.4 9.39
6/22/2021 2:45:00 PM 16.09 60.962 0.051 7.23 2.36 9.41
6/22/2021 3:00:00 PM 16.11 60.998 0.051 7.24 2.41 9.42
6/22/2021 3:15:00 PM 16.15 61.07 0.051 7.24 2.31 9.44
6/22/2021 3:30:00 PM 16.25 61.25 0.051 7.24 2.34 9.45
6/22/2021 3:45:00 PM 16.29 61.322 0.051 7.25 2.3 9.44
6/22/2021 4:00:00 PM 16.29 61.322 0.051 7.25 2.42 9.44
6/22/2021 4:15:00 PM 16.34 61.412 0.051 7.26 2.34 9.41
6/22/2021 4:30:00 PM 16.35 61.43 0.051 7.25 2.28 9.38
6/22/2021 4:45:00 PM 16.35 61.43 0.051 7.24 2.25 9.35
6/22/2021 5:00:00 PM 16.36 61.448 0.051 7.24 2.37 9.34
6/22/2021 5:15:00 PM 16.4 61.52 0.051 7.24 2.31 9.34
6/22/2021 5:30:00 PM 16.4 61.52 0.051 7.24 2.29 9.34
6/22/2021 5:45:00 PM 16.39 61.502 0.051 7.25 2.28 9.34
6/22/2021 6:00:00 PM 16.38 61.484 0.051 7.23 2.36 9.33
6/22/2021 6:15:00 PM 16.34 61.412 0.051 7.23 2.35 9.3
6/22/2021 6:30:00 PM 16.33 61.394 0.051 7.22 2.33 9.3
6/22/2021 6:45:00 PM 16.3 61.34 0.051 7.21 2.25 9.28
6/22/2021 7:00:00 PM 16.26 61.268 0.051 7.2 2.28 9.27
6/22/2021 7:15:00 PM 16.2 61.16 0.051 7.19 2.37 9.23
6/22/2021 7:30:00 PM 16.15 61.07 0.051 7.16 2.3 9.21
6/22/2021 7:45:00 PM 16.09 60.962 0.051 7.16 2.38 9.19
6/22/2021 8:00:00 PM 16.02 60.836 0.051 7.15 2.36 9.19
6/22/2021 8:15:00 PM 15.91 60.638 0.051 7.13 2.29 9.16
6/22/2021 8:30:00 PM 15.78 60.404 0.052 7.11 2.4 9.14
6/22/2021 8:45:00 PM 15.66 60.188 0.052 7.1 2.25 9.13
6/22/2021 9:00:00 PM 15.53 59.954 0.052 7.09 2.29 9.13
6/22/2021 9:15:00 PM 15.4 59.72 0.052 7.08 2.31 9.14
6/22/2021 9:30:00 PM 15.27 59.486 0.052 7.06 2.34 9.15
6/22/2021 9:45:00 PM 15.13 59.234 0.052 7.05 2.35 9.15
6/22/2021 10:00:00 PM 14.99 58.982 0.052 7.04 2.37 9.17
6/22/2021 10:15:00 PM 14.86 58.748 0.052 7.04 2.3 9.19
6/22/2021 10:30:00 PM 14.72 58.496 0.052 7.04 2.43 9.22
6/22/2021 10:45:00 PM 14.59 58.262 0.052 7.04 2.39 9.25
6/22/2021 11:00:00 PM 14.47 58.046 0.053 7.02 2.35 9.27
6/22/2021 11:15:00 PM 14.34 57.812 0.053 7.01 2.34 9.29
6/22/2021 11:30:00 PM 14.22 57.596 0.053 7.02 2.36 9.31
6/22/2021 11:45:00 PM 14.11 57.398 0.053 7 2.39 9.34
6/23/2021 12:00:00 AM 14 57.2 0.053 7 2.37 9.37
6/23/2021 12:15:00 AM 14.06 57.308 0.052 7.01 2.33 9.34
6/23/2021 12:30:00 AM 13.95 57.11 0.052 6.98 2.34 9.36
6/23/2021 12:45:00 AM 13.84 56.912 0.052 7 2.3 9.38
6/23/2021 1:00:00 AM 13.74 56.732 0.052 6.99 2.39 9.41
6/23/2021 1:15:00 AM 13.63 56.534 0.052 7 2.3 9.43
6/23/2021 1:30:00 AM 13.53 56.354 0.053 6.99 2.32 9.47
6/23/2021 1:45:00 AM 13.42 56.156 0.053 6.99 2.27 9.5
6/23/2021 2:00:00 AM 13.32 55.976 0.053 7 2.29 9.51
6/23/2021 2:15:00 AM 13.22 55.796 0.053 6.98 2.27 9.53
6/23/2021 2:30:00 AM 13.12 55.616 0.053 6.98 2.26 9.56
6/23/2021 2:45:00 AM 13.02 55.436 0.053 6.98 2.41 9.59
6/23/2021 3:00:00 AM 12.92 55.256 0.053 6.98 2.32 9.62
6/23/2021 3:15:00 AM 12.82 55.076 0.053 6.99 2.36 9.64
6/23/2021 3:30:00 AM 12.72 54.896 0.053 6.99 2.43 9.66
6/23/2021 3:45:00 AM 12.63 54.734 0.053 6.97 2.23 9.68
6/23/2021 4:00:00 AM 12.53 54.554 0.053 6.99 2.31 9.71
6/23/2021 4:15:00 AM 12.44 54.392 0.053 6.98 2.29 9.73
6/23/2021 4:30:00 AM 12.35 54.23 0.053 6.99 2.26 9.75
6/23/2021 4:45:00 AM 12.27 54.086 0.053 6.98 2.37 9.78
6/23/2021 5:00:00 AM 12.19 53.942 0.053 6.99 2.35 9.81
6/23/2021 5:15:00 AM 12.1 53.78 0.053 6.99 2.42 9.82
6/23/2021 5:30:00 AM 12.02 53.636 0.053 6.99 2.3 9.85
6/23/2021 5:45:00 AM 11.93 53.474 0.053 6.98 2.32 9.87
6/23/2021 6:00:00 AM 11.85 53.33 0.053 6.96 2.3 9.9
6/23/2021 6:15:00 AM 11.78 53.204 0.053 6.98 2.3 9.94
6/23/2021 6:30:00 AM 11.71 53.078 0.053 6.99 2.26 9.99
6/23/2021 6:45:00 AM 11.65 52.97 0.053 7 2.23 10.03
6/23/2021 7:00:00 AM 11.6 52.88 0.053 7 2.31 10.06
6/23/2021 7:15:00 AM 11.56 52.808 0.053 7.01 2.27 10.1
6/23/2021 7:30:00 AM 11.54 52.772 0.053 7.02 2.23 10.14
6/23/2021 7:45:00 AM 11.52 52.736 0.053 7.03 2.28 10.17
6/23/2021 8:00:00 AM 11.53 52.754 0.053 7.02 2.21 10.19
6/23/2021 8:15:00 AM 11.55 52.79 0.052 6.95 2.26 10.22
6/23/2021 8:30:00 AM 11.61 52.898 0.052 6.97 2.2 10.23
6/23/2021 8:45:00 AM 11.7 53.06 0.052 7.01 2.2 10.24
6/23/2021 9:00:00 AM 11.81 53.258 0.052 7.02 2.19 10.24
6/23/2021 9:15:00 AM 11.94 53.492 0.052 7.05 2.22 10.23
6/23/2021 9:30:00 AM 12.1 53.78 0.052 7.04 2.15 10.23
6/23/2021 9:45:00 AM 12.26 54.068 0.052 7.07 2.22 10.22
6/23/2021 10:00:00 AM 12.45 54.41 0.052 7.08 2.29 10.21
6/23/2021 10:15:00 AM 12.63 54.734 0.052 7.1 2.21 10.17
6/23/2021 10:30:00 AM 12.8 55.04 0.052 7.09 2.17 10.15
6/23/2021 10:45:00 AM 12.96 55.328 0.052 7.11 2.15 10.13
6/23/2021 11:00:00 AM 13.11 55.598 0.052 7.13 2.19 10.11
6/23/2021 11:15:00 AM 13.3 55.94 0.052 7.13 2.19 10.1
6/23/2021 11:30:00 AM 13.6 56.48 0.052 7.15 2.29 10.08
6/23/2021 11:45:00 AM 14 57.2 0.052 7.16 2.18 10.01
6/23/2021 12:00:00 PM 14.3 57.74 0.052 7.17 2.14 9.98
6/23/2021 12:15:00 PM 14.51 58.118 0.052 7.18 2.13 9.9
6/23/2021 12:30:00 PM 14.67 58.406 0.052 7.18 2.16 9.86
6/23/2021 12:45:00 PM 14.91 58.838 0.052 7.18 2.15 9.81
6/23/2021 1:00:00 PM 15.11 59.198 0.051 7.2 2.2 9.75
6/23/2021 1:15:00 PM 15.45 59.81 0.051 7.2 2.21 9.73
6/23/2021 1:30:00 PM 15.88 60.584 0.051 7.2 2.13 9.66
6/23/2021 1:45:00 PM 16.08 60.944 0.051 7.22 2.12 9.61
6/23/2021 2:00:00 PM 16.34 61.412 0.051 7.21 2.18 9.54
6/23/2021 2:15:00 PM 16.82 62.276 0.051 7.22 2.17 9.5
6/23/2021 2:30:00 PM 17.1 62.78 0.051 7.24 2.12 9.42
6/23/2021 2:45:00 PM 17.25 63.05 0.051 7.23 2.17 9.39
6/23/2021 3:00:00 PM 17.31 63.158 0.051 7.24 2.19 9.35
6/23/2021 3:15:00 PM 17.44 63.392 0.051 7.23 2.2 9.3
6/23/2021 3:30:00 PM 17.56 63.608 0.051 7.23 2.19 9.26
6/23/2021 3:45:00 PM 17.89 64.202 0.051 7.23 2.16 9.22
6/23/2021 4:00:00 PM 18.12 64.616 0.051 7.24 2.13 9.18
6/23/2021 4:15:00 PM 18.12 64.616 0.051 7.24 2.15 9.14
6/23/2021 4:30:00 PM 18.2 64.76 0.051 7.23 2.11 9.12
6/23/2021 4:45:00 PM 18.33 64.994 0.051 7.24 2.16 9.07
6/23/2021 5:00:00 PM 18.43 65.174 0.051 7.23 2.13 9.03
6/23/2021 5:15:00 PM 18.52 65.336 0.051 7.23 2.24 9.01
6/23/2021 5:30:00 PM 18.57 65.426 0.051 7.22 2.13 8.97
6/23/2021 5:45:00 PM 18.56 65.408 0.051 7.22 2.19 8.93
6/23/2021 6:00:00 PM 18.46 65.228 0.051 7.21 2.18 8.92
6/23/2021 6:15:00 PM 18.38 65.084 0.051 7.21 2.18 8.9
6/23/2021 6:30:00 PM 18.26 64.868 0.052 7.19 2.11 8.88
6/23/2021 6:45:00 PM 18.16 64.688 0.052 7.18 2.19 8.88
6/23/2021 7:00:00 PM 18.04 64.472 0.052 7.18 2.12 8.9
6/23/2021 7:15:00 PM 17.89 64.202 0.052 7.17 2.08 8.88
6/23/2021 7:30:00 PM 17.73 63.914 0.052 7.15 2.21 8.88
6/23/2021 7:45:00 PM 17.63 63.734 0.052 7.15 2.19 8.89
6/23/2021 8:00:00 PM 17.55 63.59 0.052 7.13 2.19 8.9
6/23/2021 8:15:00 PM 17.44 63.392 0.052 7.11 2.22 8.9
6/23/2021 8:30:00 PM 17.28 63.104 0.052 7.11 2.21 8.89
6/23/2021 8:45:00 PM 17.11 62.798 0.052 7.09 2.16 8.88
6/23/2021 9:00:00 PM 16.95 62.51 0.052 7.09 2.21 8.89
6/23/2021 9:15:00 PM 16.8 62.24 0.052 7.07 2.21 8.9
6/23/2021 9:30:00 PM 16.66 61.988 0.052 7.06 2.25 8.91
6/23/2021 9:45:00 PM 16.52 61.736 0.053 7.05 2.2 8.92
6/23/2021 10:00:00 PM 16.38 61.484 0.053 7.05 2.28 8.92
6/23/2021 10:15:00 PM 16.23 61.214 0.053 7.03 2.29 8.96
6/23/2021 10:30:00 PM 16.09 60.962 0.053 7.04 2.29 8.98
6/23/2021 10:45:00 PM 15.94 60.692 0.053 7.02 2.26 9.01
6/23/2021 11:00:00 PM 15.8 60.44 0.053 7.02 2.23 9.03
6/23/2021 11:15:00 PM 15.65 60.17 0.053 7.01 2.29 9.07
6/23/2021 11:30:00 PM 15.51 59.918 0.053 7.01 2.21 9.1
6/23/2021 11:45:00 PM 15.37 59.666 0.053 7 2.29 9.13
6/24/2021 12:00:00 AM 15.23 59.414 0.053 7 2.28 9.15
6/24/2021 12:15:00 AM 15.11 59.198 0.053 7 2.26 9.18
6/24/2021 12:30:00 AM 14.99 58.982 0.053 7.01 2.29 9.21
6/24/2021 12:45:00 AM 14.87 58.766 0.053 7.01 2.23 9.24
6/24/2021 1:00:00 AM 14.75 58.55 0.053 6.99 2.28 9.27
6/24/2021 1:15:00 AM 14.63 58.334 0.053 7 2.2 9.29
6/24/2021 1:30:00 AM 14.52 58.136 0.053 6.99 2.2 9.3
6/24/2021 1:45:00 AM 14.41 57.938 0.053 7 2.23 9.33
6/24/2021 2:00:00 AM 14.3 57.74 0.053 6.98 2.2 9.36
6/24/2021 2:15:00 AM 14.19 57.542 0.053 6.99 2.26 9.39
6/24/2021 2:30:00 AM 14.09 57.362 0.053 6.99 2.24 9.41
6/24/2021 2:45:00 AM 13.99 57.182 0.053 6.98 2.27 9.43
6/24/2021 3:00:00 AM 13.88 56.984 0.053 6.98 2.27 9.45
6/24/2021 3:15:00 AM 13.78 56.804 0.053 6.99 2.22 9.48
6/24/2021 3:30:00 AM 13.68 56.624 0.053 6.99 2.28 9.51
6/24/2021 3:45:00 AM 13.58 56.444 0.053 6.98 2.22 9.53
6/24/2021 4:00:00 AM 13.48 56.264 0.053 6.97 2.23 9.56
6/24/2021 4:15:00 AM 13.38 56.084 0.053 6.97 2.24 9.58
6/24/2021 4:30:00 AM 13.29 55.922 0.053 6.96 2.27 9.59
6/24/2021 4:45:00 AM 13.19 55.742 0.054 6.96 2.19 9.62
6/24/2021 5:00:00 AM 13.1 55.58 0.054 6.97 2.18 9.64
6/24/2021 5:15:00 AM 13.01 55.418 0.054 6.97 2.23 9.67
6/24/2021 5:30:00 AM 12.92 55.256 0.054 6.96 2.24 9.7
6/24/2021 5:45:00 AM 12.83 55.094 0.054 6.96 2.3 9.72
6/24/2021 6:00:00 AM 12.74 54.932 0.054 6.98 2.21 9.75
6/24/2021 6:15:00 AM 12.67 54.806 0.054 6.97 2.18 9.78
6/24/2021 6:30:00 AM 12.6 54.68 0.053 6.96 2.21 9.81
6/24/2021 6:45:00 AM 12.54 54.572 0.053 6.98 2.17 9.85
6/24/2021 7:00:00 AM 12.5 54.5 0.053 7 2.2 9.9
6/24/2021 7:15:00 AM 12.47 54.446 0.053 7.01 2.26 9.93
6/24/2021 7:30:00 AM 12.44 54.392 0.053 7 2.1 9.97
6/24/2021 7:45:00 AM 12.43 54.374 0.053 7.02 2.2 10
6/24/2021 8:00:00 AM 12.44 54.392 0.053 7.03 2.2 10.01
6/24/2021 8:15:00 AM 12.47 54.446 0.053 7.03 2.19 10.04
6/24/2021 8:30:00 AM 12.53 54.554 0.053 7.04 2.15 10.05
6/24/2021 8:45:00 AM 12.61 54.698 0.053 7.06 2.16 10.06
6/24/2021 9:00:00 AM 12.73 54.914 0.053 7.06 2.1 10.07
6/24/2021 9:15:00 AM 12.85 55.13 0.053 7.06 2.15 10.07
6/24/2021 9:30:00 AM 13 55.4 0.053 7.08 2.08 10.05
6/24/2021 9:45:00 AM 13.18 55.724 0.053 7.08 2.12 10.03
6/24/2021 10:00:00 AM 13.36 56.048 0.053 7.1 2.18 10.02
6/24/2021 10:15:00 AM 13.56 56.408 0.053 7.1 2.1 10
6/24/2021 10:30:00 AM 13.77 56.786 0.053 7.11 2.13 9.96
6/24/2021 10:45:00 AM 14.01 57.218 0.053 7.13 2.14 9.94
6/24/2021 11:00:00 AM 14.25 57.65 0.053 7.14 2.14 9.9
6/24/2021 11:15:00 AM 14.51 58.118 0.052 7.16 2.19 9.85
6/24/2021 11:30:00 AM 14.8 58.64 0.052 7.16 2.16 9.81
6/24/2021 11:45:00 AM 15.09 59.162 0.052 7.14 2.11 9.75
6/24/2021 12:00:00 PM 15.4 59.72 0.052 7.16 2.17 9.7
6/24/2021 12:15:00 PM 15.72 60.296 0.052 7.16 2.08 9.65
6/24/2021 12:30:00 PM 16.05 60.89 0.052 7.17 2.12 9.61
6/24/2021 12:45:00 PM 16.38 61.484 0.052 7.17 2.19 9.55
6/24/2021 1:00:00 PM 16.74 62.132 0.052 7.18 2.5 9.5
6/24/2021 1:15:00 PM 17.08 62.744 0.052 7.19 2.13 9.43
6/24/2021 1:30:00 PM 17.42 63.356 0.052 7.21 2.15 9.38
6/24/2021 1:45:00 PM 17.77 63.986 0.052 7.21 2.05 9.32
6/24/2021 2:00:00 PM 18.1 64.58 0.052 7.22 2.11 9.27
6/24/2021 2:15:00 PM 18.42 65.156 0.052 7.22 2.06 9.21
6/24/2021 2:30:00 PM 18.71 65.67799 0.052 7.22 2.18 9.16
6/24/2021 2:45:00 PM 18.98 66.164 0.052 7.22 2.09 9.09
6/24/2021 3:00:00 PM 19.27 66.686 0.052 7.23 2.13 9.05
6/24/2021 3:15:00 PM 19.49 67.082 0.052 7.25 2.14 9.01
6/24/2021 3:30:00 PM 19.71 67.478 0.052 7.23 2 8.96
6/24/2021 3:45:00 PM 19.87 67.766 0.052 7.25 2.14 8.91
6/24/2021 4:00:00 PM 20.01 68.018 0.052 7.24 2.05 8.88
6/24/2021 4:15:00 PM 20.13 68.234 0.052 7.26 2.04 8.83
6/24/2021 4:30:00 PM 20.21 68.378 0.052 7.24 2.07 8.78
6/24/2021 4:45:00 PM 20.3 68.54 0.052 7.23 2.08 8.73
6/24/2021 5:00:00 PM 20.32 68.576 0.052 7.22 2.07 8.7
6/24/2021 5:15:00 PM 20.29 68.522 0.052 7.22 2.16 8.66
6/24/2021 5:30:00 PM 20.22 68.396 0.052 7.23 2.11 8.64
6/24/2021 5:45:00 PM 20.14 68.252 0.052 7.2 2.18 8.62
6/24/2021 6:00:00 PM 20.08 68.144 0.052 7.2 2.09 8.59
6/24/2021 6:15:00 PM 19.98 67.964 0.052 7.19 2.1 8.56
6/24/2021 6:30:00 PM 19.9 67.82 0.052 7.18 2.01 8.53
6/24/2021 6:45:00 PM 19.78 67.604 0.052 7.17 2.07 8.51
6/24/2021 7:00:00 PM 19.69 67.442 0.052 7.17 2.1 8.52
6/24/2021 7:15:00 PM 19.59 67.262 0.052 7.16 2.18 8.54
6/24/2021 7:30:00 PM 19.49 67.082 0.052 7.16 2.09 8.55
6/24/2021 7:45:00 PM 19.38 66.884 0.053 7.16 2.1 8.55
6/24/2021 8:00:00 PM 19.24 66.632 0.053 7.13 2.15 8.55
6/24/2021 8:15:00 PM 19.09 66.362 0.053 7.13 2.22 8.54
6/24/2021 8:30:00 PM 18.93 66.074 0.053 7.12 2.13 8.54
6/24/2021 8:45:00 PM 18.75 65.75 0.053 7.1 2.16 8.53
6/24/2021 9:00:00 PM 18.57 65.426 0.053 7.1 2.16 8.54
6/24/2021 9:15:00 PM 18.4 65.12 0.053 7.04 2.27 8.55
6/24/2021 9:30:00 PM 18.23 64.814 0.053 7.05 2.3 8.57
6/24/2021 9:45:00 PM 18.06 64.508 0.053 7.05 2.24 8.6
6/24/2021 10:00:00 PM 17.88 64.184 0.053 7.05 2.24 8.61
6/24/2021 10:15:00 PM 17.71 63.878 0.054 7.04 2.18 8.64
6/24/2021 10:30:00 PM 17.54 63.572 0.054 7.03 2.12 8.66
6/24/2021 10:45:00 PM 17.38 63.284 0.054 7.03 2.2 8.7
6/24/2021 11:00:00 PM 17.23 63.014 0.054 7.01 2.2 8.72
6/24/2021 11:15:00 PM 17.08 62.744 0.054 7.02 2.22 8.75
6/24/2021 11:30:00 PM 16.94 62.492 0.054 7.01 2.23 8.78
6/24/2021 11:45:00 PM 16.8 62.24 0.054 7.01 2.2 8.81
6/25/2021 12:00:00 AM 16.66 61.988 0.054 6.98 2.17 8.84
6/25/2021 12:15:00 AM 16.53 61.754 0.054 7.01 2.17 8.86
6/25/2021 12:30:00 AM 16.39 61.502 0.054 7 2.19 8.88
6/25/2021 12:45:00 AM 16.26 61.268 0.054 7 2.21 8.92
6/25/2021 1:00:00 AM 16.14 61.052 0.054 6.98 2.19 8.95
6/25/2021 1:15:00 AM 16.01 60.818 0.054 7 2.26 8.97
6/25/2021 1:30:00 AM 15.89 60.602 0.054 6.99 2.15 9.01
6/25/2021 1:45:00 AM 15.76 60.368 0.054 6.98 2.25 9.02
6/25/2021 2:00:00 AM 15.64 60.152 0.054 6.99 2.2 9.05
6/25/2021 2:15:00 AM 15.51 59.918 0.054 6.98 2.29 9.08
6/25/2021 2:30:00 AM 15.39 59.702 0.054 6.97 2.21 9.11
6/25/2021 2:45:00 AM 15.27 59.486 0.054 6.98 2.14 9.14
6/25/2021 3:00:00 AM 15.16 59.288 0.054 6.98 2.19 9.16
6/25/2021 3:15:00 AM 15.05 59.09 0.054 6.97 2.28 9.18
6/25/2021 3:30:00 AM 14.93 58.874 0.054 6.99 2.25 9.21
6/25/2021 3:45:00 AM 14.83 58.694 0.054 6.97 2.2 9.24
6/25/2021 4:00:00 AM 14.72 58.496 0.055 6.98 2.29 9.27
6/25/2021 4:15:00 AM 14.62 58.316 0.055 6.97 2.29 9.29
6/25/2021 4:30:00 AM 14.53 58.154 0.055 6.97 2.22 9.31
6/25/2021 4:45:00 AM 14.43 57.974 0.055 6.96 2.22 9.33
6/25/2021 5:00:00 AM 14.34 57.812 0.055 6.97 2.22 9.35
6/25/2021 5:15:00 AM 14.25 57.65 0.055 6.98 2.27 9.38
6/25/2021 5:30:00 AM 14.17 57.506 0.055 6.97 2.27 9.4
6/25/2021 5:45:00 AM 14.09 57.362 0.055 6.97 2.21 9.43
6/25/2021 6:00:00 AM 14.02 57.236 0.055 6.98 2.21 9.46
6/25/2021 6:15:00 AM 13.96 57.128 0.055 6.98 2.18 9.5
6/25/2021 6:30:00 AM 13.91 57.038 0.055 6.98 2.2 9.54
6/25/2021 6:45:00 AM 14.02 57.236 0.054 6.98 2.25 9.52
6/25/2021 7:00:00 AM 13.98 57.164 0.054 7 2.23 9.56
6/25/2021 7:15:00 AM 13.95 57.11 0.054 7.01 2.12 9.6
6/25/2021 7:30:00 AM 13.93 57.074 0.054 7.01 2.13 9.64
6/25/2021 7:45:00 AM 13.94 57.092 0.054 7.04 2.18 9.69
6/25/2021 8:00:00 AM 13.95 57.11 0.054 7.05 2.14 9.73
6/25/2021 8:15:00 AM 13.99 57.182 0.054 7.06 2.1 9.77
6/25/2021 8:30:00 AM 14.04 57.272 0.054 7.06 2.19 9.78
6/25/2021 8:45:00 AM 14.11 57.398 0.054 7.08 2.17 9.8
6/25/2021 9:00:00 AM 14.21 57.578 0.053 7.09 2.22 9.8
6/25/2021 9:15:00 AM 14.32 57.776 0.053 7.09 2.12 9.79
6/25/2021 9:30:00 AM 14.45 58.01 0.053 7.1 2.34 9.78
6/25/2021 9:45:00 AM 14.6 58.28 0.053 7.12 2.09 9.76
6/25/2021 10:00:00 AM 14.78 58.604 0.053 7.12 2.14 9.76
6/25/2021 10:15:00 AM 14.97 58.946 0.053 7.13 2.13 9.73
6/25/2021 10:30:00 AM 15.17 59.306 0.053 7.14 2.13 9.69
6/25/2021 10:45:00 AM 15.39 59.702 0.053 7.16 2.13 9.68
6/25/2021 11:00:00 AM 15.62 60.116 0.053 7.18 2.14 9.65
6/25/2021 11:15:00 AM 15.87 60.566 0.053 7.19 2.25 9.6
6/25/2021 11:30:00 AM 16.14 61.052 0.053 7.21 2.1 9.59
6/25/2021 11:45:00 AM 16.42 61.556 0.053 7.21 2.1 9.55
6/25/2021 12:00:00 PM 16.7 62.06 0.053 7.21 2.09 9.51
6/25/2021 12:15:00 PM 16.98 62.564 0.053 7.23 2.09 9.48
6/25/2021 12:30:00 PM 17.25 63.05 0.053 7.23 2.11 9.43
6/25/2021 12:45:00 PM 17.49 63.482 0.053 7.25 2.12 9.39
6/25/2021 1:00:00 PM 17.69 63.842 0.053 7.25 2.12 9.35
6/25/2021 1:15:00 PM 17.92 64.256 0.053 7.28 2.06 9.31
6/25/2021 1:30:00 PM 18.15 64.67 0.052 7.28 2.03 9.29
6/25/2021 1:45:00 PM 18.45 65.21 0.052 7.28 2.12 9.23
6/25/2021 2:00:00 PM 18.75 65.75 0.052 7.29 2.07 9.19
6/25/2021 2:15:00 PM 19 66.2 0.052 7.29 2.16 9.12
6/25/2021 2:30:00 PM 19.3 66.74 0.052 7.29 2.11 9.07
6/25/2021 2:45:00 PM 19.65 67.37 0.052 7.27 2.11 9
6/25/2021 3:00:00 PM 20 68 0.052 7.28 2.11 8.94
6/25/2021 3:15:00 PM 20.25 68.45 0.052 7.3 2.04 8.87
6/25/2021 3:30:00 PM 20.46 68.828 0.052 7.3 2.1 8.81
6/25/2021 3:45:00 PM 20.62 69.116 0.052 7.3 2.1 8.78
6/25/2021 4:00:00 PM 20.8 69.44 0.052 7.29 2.19 8.74
6/25/2021 4:15:00 PM 20.94 69.692 0.052 7.27 2.06 8.69
6/25/2021 4:30:00 PM 20.96 69.728 0.052 7.29 2.1 8.65
6/25/2021 4:45:00 PM 20.96 69.728 0.052 7.29 2.03 8.63
6/25/2021 5:00:00 PM 20.93 69.674 0.052 7.29 2.06 8.62
6/25/2021 5:15:00 PM 20.9 69.62 0.052 7.28 2.11 8.61
6/25/2021 5:30:00 PM 20.88 69.584 0.052 7.29 2.11 8.59
6/25/2021 5:45:00 PM 20.82 69.476 0.052 7.27 2.05 8.56
6/25/2021 6:00:00 PM 20.77 69.386 0.052 7.24 2.09 8.56
6/25/2021 6:15:00 PM 20.71 69.278 0.052 7.26 2.11 8.56
6/25/2021 6:30:00 PM 20.64 69.152 0.052 7.24 2.06 8.54
6/25/2021 6:45:00 PM 20.51 68.918 0.053 7.24 2.18 8.5
6/25/2021 7:00:00 PM 20.37 68.666 0.053 7.2 2.17 8.46
6/25/2021 7:15:00 PM 20.28 68.504 0.053 7.2 2.12 8.44
6/25/2021 7:30:00 PM 20.19 68.342 0.053 7.18 2.15 8.43
6/25/2021 7:45:00 PM 20.13 68.234 0.053 7.17 2.18 8.42
6/25/2021 8:00:00 PM 20.03 68.054 0.053 7.15 2.11 8.41
6/25/2021 8:15:00 PM 19.89 67.802 0.053 7.15 2.18 8.39
6/25/2021 8:30:00 PM 19.72 67.496 0.053 7.14 2.17 8.38
6/25/2021 8:45:00 PM 19.56 67.208 0.053 7.1 2.31 8.37
6/25/2021 9:00:00 PM 19.4 66.92 0.054 7.09 2.14 8.37
6/25/2021 9:15:00 PM 19.25 66.65 0.054 7.1 2.15 8.36
6/25/2021 9:30:00 PM 19.12 66.416 0.054 7.06 2.23 8.36
6/25/2021 9:45:00 PM 18.98 66.164 0.054 7.07 2.24 8.38
6/25/2021 10:00:00 PM 18.84 65.912 0.054 7.04 2.21 8.39
6/25/2021 10:15:00 PM 18.7 65.66 0.054 7.06 2.15 8.41
6/25/2021 10:30:00 PM 18.56 65.408 0.054 7.04 2.19 8.43
6/25/2021 10:45:00 PM 18.43 65.174 0.054 7.03 2.15 8.44
6/25/2021 11:00:00 PM 18.31 64.958 0.054 7.03 2.22 8.47
6/25/2021 11:15:00 PM 18.18 64.724 0.054 7.02 2.25 8.49
6/25/2021 11:30:00 PM 18.07 64.526 0.054 7.01 2.13 8.51
6/25/2021 11:45:00 PM 17.98 64.364 0.054 7.01 2.18 8.53
6/26/2021 12:00:00 AM 17.9 64.22 0.055 7.01 2.26 8.55
6/26/2021 12:15:00 AM 17.82 64.076 0.055 7.01 2.2 8.56
6/26/2021 12:30:00 AM 17.75 63.95 0.055 7 2.16 8.57
6/26/2021 12:45:00 AM 17.67 63.806 0.055 7.01 2.19 8.6
6/26/2021 1:00:00 AM 17.59 63.662 0.055 7.01 2.19 8.61
6/26/2021 1:15:00 AM 17.53 63.554 0.055 6.99 2.19 8.63
6/26/2021 1:30:00 AM 17.47 63.446 0.055 7 2.22 8.64
6/26/2021 1:45:00 AM 17.4 63.32 0.055 7 2.16 8.65
6/26/2021 2:00:00 AM 17.35 63.23 0.055 7 2.18 8.66
6/26/2021 2:15:00 AM 17.3 63.14 0.055 7.01 2.18 8.68
6/26/2021 2:30:00 AM 17.25 63.05 0.055 7 2.24 8.69
6/26/2021 2:45:00 AM 17.21 62.978 0.055 7.02 2.2 8.7
6/26/2021 3:00:00 AM 17.16 62.888 0.055 7.01 2.15 8.7
6/26/2021 3:15:00 AM 17.1 62.78 0.055 7 2.17 8.71
6/26/2021 3:30:00 AM 17.05 62.69 0.055 7 2.22 8.72
6/26/2021 3:45:00 AM 17.01 62.618 0.055 7.01 2.2 8.74
6/26/2021 4:00:00 AM 16.97 62.546 0.055 7.02 2.21 8.75
6/26/2021 4:15:00 AM 16.91 62.438 0.055 6.99 2.15 8.76
6/26/2021 4:30:00 AM 16.87 62.366 0.055 7.01 2.16 8.78
6/26/2021 4:45:00 AM 16.83 62.294 0.055 7 2.22 8.79
6/26/2021 5:00:00 AM 16.79 62.222 0.055 7.01 2.16 8.8
6/26/2021 5:15:00 AM 16.74 62.132 0.055 6.99 2.37 8.81
6/26/2021 5:30:00 AM 16.7 62.06 0.055 7.01 2.2 8.82
6/26/2021 5:45:00 AM 16.65 61.97 0.055 7.01 2.18 8.83
6/26/2021 6:00:00 AM 16.61 61.898 0.055 7.01 2.16 8.85
6/26/2021 6:15:00 AM 16.57 61.826 0.055 7 2.15 8.87
6/26/2021 6:30:00 AM 16.55 61.79 0.055 7.02 2.16 8.91
6/26/2021 6:45:00 AM 16.53 61.754 0.055 7.02 2.26 8.93
6/26/2021 7:00:00 AM 16.52 61.736 0.055 7.01 2.2 8.95
6/26/2021 7:15:00 AM 16.5 61.7 0.055 7.04 2.13 8.98
6/26/2021 7:30:00 AM 16.51 61.718 0.055 7.05 2.09 9.04
6/26/2021 7:45:00 AM 16.54 61.772 0.055 7.07 2.1 9.11
6/26/2021 8:00:00 AM 16.57 61.826 0.055 7.08 2.17 9.15
6/26/2021 8:15:00 AM 16.6 61.88 0.055 7.07 2.12 9.17
6/26/2021 8:30:00 AM 16.61 61.898 0.055 7.1 2.09 9.18
6/26/2021 8:45:00 AM 16.68 62.024 0.054 7.1 2.13 9.22
6/26/2021 9:00:00 AM 16.79 62.222 0.054 7.13 2.09 9.25
6/26/2021 9:15:00 AM 16.91 62.438 0.054 7.13 2.15 9.25
6/26/2021 9:30:00 AM 16.99 62.582 0.054 7.15 2.08 9.25
6/26/2021 9:45:00 AM 17.06 62.708 0.054 7.15 2.11 9.25
6/26/2021 10:00:00 AM 17.17 62.906 0.054 7.16 2.12 9.24
6/26/2021 10:15:00 AM 17.33 63.194 0.054 7.18 2.1 9.25
6/26/2021 10:30:00 AM 17.52 63.536 0.054 7.2 2.04 9.25
6/26/2021 10:45:00 AM 17.74 63.932 0.053 7.21 2.09 9.23
6/26/2021 11:00:00 AM 17.97 64.346 0.053 7.23 2.08 9.22
6/26/2021 11:15:00 AM 18.16 64.688 0.053 7.25 2.07 9.19
6/26/2021 11:30:00 AM 18.34 65.012 0.053 7.24 2.1 9.15
6/26/2021 11:45:00 AM 18.55 65.39 0.053 7.24 2.11 9.1
6/26/2021 12:00:00 PM 18.84 65.912 0.053 7.23 2.02 9.07
6/26/2021 12:15:00 PM 19.18 66.524 0.053 7.25 2.01 9
6/26/2021 12:30:00 PM 19.53 67.154 0.053 7.27 2.06 8.95
6/26/2021 12:45:00 PM 19.9 67.82 0.053 7.26 2.1 8.89
6/26/2021 1:00:00 PM 20.24 68.432 0.053 7.26 2.01 8.84
6/26/2021 1:15:00 PM 20.6 69.08 0.053 7.28 2.12 8.79
6/26/2021 1:30:00 PM 20.97 69.746 0.053 7.3 2.02 8.75
6/26/2021 1:45:00 PM 21.27 70.286 0.053 7.29 2.07 8.7
6/26/2021 2:00:00 PM 21.58 70.844 0.053 7.29 2.07 8.64
6/26/2021 2:15:00 PM 21.82 71.276 0.053 7.29 2.08 8.59
6/26/2021 2:30:00 PM 22.04 71.672 0.053 7.31 2.16 8.55
6/26/2021 2:45:00 PM 22.18 71.924 0.053 7.3 2.06 8.52
6/26/2021 3:00:00 PM 22.38 72.284 0.053 7.31 2.06 8.48
6/26/2021 3:15:00 PM 22.57 72.626 0.053 7.31 2.06 8.42
6/26/2021 3:30:00 PM 22.78 73.004 0.053 7.32 1.97 8.41
6/26/2021 3:45:00 PM 22.94 73.292 0.053 7.31 1.97 8.37
6/26/2021 4:00:00 PM 23.02 73.436 0.053 7.3 2.02 8.33
6/26/2021 4:15:00 PM 23.01 73.418 0.053 7.3 2.02 8.31
6/26/2021 4:30:00 PM 23.09 73.562 0.053 7.3 2.12 8.31
6/26/2021 4:45:00 PM 23.1 73.58 0.053 7.3 2.05 8.26
6/26/2021 5:00:00 PM 23.16 73.688 0.053 7.3 2.12 8.25
6/26/2021 5:15:00 PM 23.13 73.634 0.053 7.31 2.08 8.22
6/26/2021 5:30:00 PM 23.1 73.58 0.053 7.28 2.06 8.18
6/26/2021 5:45:00 PM 23.06 73.508 0.053 7.28 2.24 8.16
6/26/2021 6:00:00 PM 22.98 73.364 0.053 7.25 2.06 8.13
6/26/2021 6:15:00 PM 22.91 73.238 0.053 7.25 2.12 8.1
6/26/2021 6:30:00 PM 22.83 73.094 0.053 7.24 2.03 8.07
6/26/2021 6:45:00 PM 22.76 72.968 0.053 7.22 3.42 8.03
6/26/2021 7:00:00 PM 22.69 72.842 0.054 7.2 3.27 8
6/26/2021 7:15:00 PM 22.6 72.68 0.054 7.2 1.87 7.98
6/26/2021 7:30:00 PM 22.5 72.5 0.054 7.18 1.92 7.96
6/26/2021 7:45:00 PM 22.39 72.302 0.054 7.17 1.94 7.95
6/26/2021 8:00:00 PM 22.28 72.104 0.054 7.15 1.91 7.95
6/26/2021 8:15:00 PM 22.15 71.87 0.054 7.15 2 7.95
6/26/2021 8:30:00 PM 22.02 71.636 0.054 7.13 2.07 7.94
6/26/2021 8:45:00 PM 21.87 71.366 0.054 7.12 1.93 7.93
6/26/2021 9:00:00 PM 21.72 71.096 0.054 7.09 1.95 7.91
6/26/2021 9:15:00 PM 21.58 70.844 0.055 7.09 2.05 7.92
6/26/2021 9:30:00 PM 21.44 70.592 0.055 7.08 1.96 7.92
6/26/2021 9:45:00 PM 21.31 70.358 0.055 7.05 2.02 7.92
6/26/2021 10:00:00 PM 21.19 70.142 0.055 7.05 1.94 7.94
6/26/2021 10:15:00 PM 21.06 69.908 0.055 7.04 1.98 7.95
6/26/2021 10:30:00 PM 20.94 69.692 0.055 7.03 1.97 7.97
6/26/2021 10:45:00 PM 20.81 69.458 0.055 7.02 1.82 7.99
6/26/2021 11:00:00 PM 20.68 69.224 0.055 7.03 1.93 8.01
6/26/2021 11:15:00 PM 20.56 69.008 0.055 7.02 1.86 8.02
6/26/2021 11:30:00 PM 20.45 68.81 0.055 7.01 1.88 8.04
6/26/2021 11:45:00 PM 20.33 68.594 0.055 7.01 1.91 8.06
6/27/2021 12:00:00 AM 20.23 68.414 0.055 7.01 1.92 8.09
6/27/2021 12:15:00 AM 20.12 68.216 0.055 7.02 1.96 8.11
6/27/2021 12:30:00 AM 20.02 68.036 0.055 7.01 2.04 8.13
6/27/2021 12:45:00 AM 19.92 67.856 0.055 7.01 1.88 8.15
6/27/2021 1:00:00 AM 19.82 67.676 0.056 6.99 1.98 8.16
6/27/2021 1:15:00 AM 19.72 67.496 0.056 7 1.94 8.18
6/27/2021 1:30:00 AM 19.63 67.334 0.056 7 1.99 8.2
6/27/2021 1:45:00 AM 19.54 67.172 0.056 6.99 1.89 8.22
6/27/2021 2:00:00 AM 19.45 67.01 0.056 7.01 1.88 8.24
6/27/2021 2:15:00 AM 19.37 66.866 0.056 7 1.96 8.26
6/27/2021 2:30:00 AM 19.29 66.722 0.056 7 1.94 8.27
6/27/2021 2:45:00 AM 19.22 66.596 0.056 7 2.04 8.28
6/27/2021 3:00:00 AM 19.14 66.452 0.056 7 1.91 8.29
6/27/2021 3:15:00 AM 19.07 66.326 0.056 7 1.95 8.3
6/27/2021 3:30:00 AM 18.99 66.182 0.056 6.99 1.95 8.32
6/27/2021 3:45:00 AM 18.92 66.056 0.056 6.99 2.02 8.34
6/27/2021 4:00:00 AM 18.85 65.93 0.056 6.98 1.99 8.35
6/27/2021 4:15:00 AM 18.78 65.804 0.056 6.99 1.93 8.37
6/27/2021 4:30:00 AM 18.71 65.67799 0.056 6.99 2.06 8.37
6/27/2021 4:45:00 AM 18.63 65.534 0.056 6.99 1.95 8.38
6/27/2021 5:00:00 AM 18.56 65.408 0.056 6.98 2.05 8.4
6/27/2021 5:15:00 AM 18.48 65.264 0.056 6.98 2 8.41
6/27/2021 5:30:00 AM 18.41 65.138 0.056 6.99 1.98 8.43
6/27/2021 5:45:00 AM 18.33 64.994 0.056 6.99 2.07 8.45
6/27/2021 6:00:00 AM 18.26 64.868 0.056 6.98 1.98 8.48
6/27/2021 6:15:00 AM 18.2 64.76 0.056 7 1.92 8.52
6/27/2021 6:30:00 AM 18.15 64.67 0.056 7.01 1.98 8.56
6/27/2021 6:45:00 AM 18.1 64.58 0.056 7.01 1.91 8.62
6/27/2021 7:00:00 AM 18.07 64.526 0.056 7.02 1.95 8.67
6/27/2021 7:15:00 AM 18.04 64.472 0.056 7.03 1.96 8.71
6/27/2021 7:30:00 AM 18.02 64.436 0.056 7.03 1.94 8.74
6/27/2021 7:45:00 AM 17.99 64.382 0.056 7.03 1.88 8.77
6/27/2021 8:00:00 AM 17.99 64.382 0.056 7.02 1.93 8.79
6/27/2021 8:15:00 AM 17.99 64.382 0.056 7.06 1.85 8.82
6/27/2021 8:30:00 AM 18.02 64.436 0.055 7.07 1.92 8.85
6/27/2021 8:45:00 AM 18.1 64.58 0.055 7.09 1.93 8.86
6/27/2021 9:00:00 AM 18.16 64.688 0.055 7.09 1.92 8.87
6/27/2021 9:15:00 AM 18.29 64.922 0.055 7.11 1.88 8.89
6/27/2021 9:30:00 AM 18.42 65.156 0.055 7.13 1.88 8.91
6/27/2021 9:45:00 AM 18.52 65.336 0.055 7.13 1.89 8.9
6/27/2021 10:00:00 AM 18.66 65.588 0.055 7.16 1.91 8.91
6/27/2021 10:15:00 AM 18.8 65.84 0.055 7.16 1.92 8.88
6/27/2021 10:30:00 AM 19.01 66.218 0.055 7.17 1.94 8.85
6/27/2021 10:45:00 AM 19.23 66.614 0.055 7.18 1.89 8.82
6/27/2021 11:00:00 AM 19.4 66.92 0.055 7.2 1.9 8.8
6/27/2021 11:15:00 AM 19.57 67.226 0.055 7.2 2.06 8.77
6/27/2021 11:30:00 AM 19.79 67.622 0.055 7.2 2.13 8.74
6/27/2021 11:45:00 AM 20.08 68.144 0.054 7.21 1.94 8.7
6/27/2021 12:00:00 PM 20.39 68.702 0.054 7.22 1.95 8.67
6/27/2021 12:15:00 PM 20.68 69.224 0.054 7.22 1.95 8.63
6/27/2021 12:30:00 PM 21 69.8 0.054 7.23 1.93 8.59
6/27/2021 12:45:00 PM 21.34 70.412 0.054 7.23 1.95 8.57
6/27/2021 1:00:00 PM 21.64 70.952 0.054 7.24 1.98 8.52
6/27/2021 1:15:00 PM 21.94 71.492 0.054 7.25 2.04 8.47
6/27/2021 1:30:00 PM 22.05 71.69 0.054 7.25 1.82 8.44
6/27/2021 1:45:00 PM 22.26 72.068 0.054 7.25 1.8 8.42
6/27/2021 2:00:00 PM 22.6 72.68 0.054 7.27 1.85 8.38
6/27/2021 2:15:00 PM 22.85 73.13 0.054 7.26 1.81 8.33
6/27/2021 2:30:00 PM 22.95 73.31 0.054 7.27 1.77 8.29
6/27/2021 2:45:00 PM 22.98 73.364 0.054 7.26 1.8 8.25
6/27/2021 3:00:00 PM 23.08 73.544 0.054 7.27 1.83 8.22
6/27/2021 3:15:00 PM 23.28 73.904 0.054 7.26 1.76 8.2
6/27/2021 3:30:00 PM 23.54 74.372 0.054 7.28 1.86 8.19
6/27/2021 3:45:00 PM 23.69 74.642 0.054 7.27 1.78 8.15
6/27/2021 4:00:00 PM 23.82 74.876 0.054 7.28 1.87 8.12
6/27/2021 4:15:00 PM 23.94 75.092 0.054 7.28 1.84 8.1
6/27/2021 4:30:00 PM 24.01 75.218 0.054 7.27 1.74 8.08
6/27/2021 4:45:00 PM 23.99 75.182 0.054 7.27 1.86 8.04
6/27/2021 5:00:00 PM 24 75.2 0.054 7.26 4.15 8.02
6/27/2021 5:15:00 PM 24 75.2 0.054 7.25 1.83 8
6/27/2021 5:30:00 PM 24.03 75.254 0.054 7.26 1.75 7.98
6/27/2021 5:45:00 PM 24.09 75.362 0.054 7.23 1.8 7.96
6/27/2021 6:00:00 PM 24.07 75.326 0.054 7.23 1.81 7.92
6/27/2021 6:15:00 PM 24.01 75.218 0.054 7.21 1.88 7.86
6/27/2021 6:30:00 PM 23.95 75.11 0.054 7.21 1.75 7.81
6/27/2021 6:45:00 PM 23.89 75.002 0.055 7.17 2.22 7.76
6/27/2021 7:00:00 PM 23.83 74.894 0.055 7.17 1.83 7.73
6/27/2021 7:15:00 PM 23.78 74.804 0.055 7.14 1.81 7.71
6/27/2021 7:30:00 PM 23.69 74.642 0.055 7.15 1.81 7.71
6/27/2021 7:45:00 PM 23.61 74.498 0.055 7.12 1.88 7.71
6/27/2021 8:00:00 PM 23.5 74.3 0.055 7.11 1.77 7.7
6/27/2021 8:15:00 PM 23.37 74.066 0.055 7.1 1.77 7.7
6/27/2021 8:30:00 PM 23.22 73.796 0.055 7.1 1.83 7.69
6/27/2021 8:45:00 PM 23.04 73.472 0.055 7.07 1.89 7.69
6/27/2021 9:00:00 PM 22.85 73.13 0.056 7.07 1.88 7.7
6/27/2021 9:15:00 PM 22.67 72.806 0.056 7.05 1.87 7.7
6/27/2021 9:30:00 PM 22.51 72.518 0.056 7.05 2.17 7.71
6/27/2021 9:45:00 PM 22.36 72.248 0.056 7.02 1.96 7.73
6/27/2021 10:00:00 PM 22.21 71.978 0.056 7.03 2.48 7.75
6/27/2021 10:15:00 PM 22.07 71.726 0.056 7.02 1.91 7.77
6/27/2021 10:30:00 PM 21.92 71.456 0.056 7.02 1.84 7.78
6/27/2021 10:45:00 PM 21.78 71.204 0.056 7.01 1.86 7.8
6/27/2021 11:00:00 PM 21.64 70.952 0.056 7.01 1.83 7.83
6/27/2021 11:15:00 PM 21.5 70.7 0.056 7.01 1.84 7.86
6/27/2021 11:30:00 PM 21.36 70.448 0.056 7.01 1.9 7.89
6/27/2021 11:45:00 PM 21.22 70.196 0.056 7.01 1.9 7.9
6/28/2021 12:00:00 AM 21.08 69.944 0.056 7 1.88 7.92
6/28/2021 12:15:00 AM 20.94 69.692 0.056 6.99 1.96 7.96
6/28/2021 12:30:00 AM 20.81 69.458 0.056 7 1.98 7.98
6/28/2021 12:45:00 AM 20.68 69.224 0.056 7 1.95 8
6/28/2021 1:00:00 AM 20.56 69.008 0.056 6.98 1.85 8.02
6/28/2021 1:15:00 AM 20.45 68.81 0.056 6.98 1.87 8.04
6/28/2021 1:30:00 AM 20.34 68.612 0.056 6.98 1.95 8.06
6/28/2021 1:45:00 AM 20.23 68.414 0.056 6.99 1.86 8.09
6/28/2021 2:00:00 AM 20.12 68.216 0.056 6.99 1.93 8.1
6/28/2021 2:15:00 AM 20.02 68.036 0.056 6.99 1.96 8.13
6/28/2021 2:30:00 AM 19.92 67.856 0.056 6.97 1.97 8.14
6/28/2021 2:45:00 AM 19.82 67.676 0.056 6.99 1.9 8.16
6/28/2021 3:00:00 AM 19.73 67.514 0.056 6.98 1.96 8.19
6/28/2021 3:15:00 AM 19.63 67.334 0.057 6.98 1.88 8.2
6/28/2021 3:30:00 AM 19.53 67.154 0.057 6.98 1.86 8.22
6/28/2021 3:45:00 AM 19.43 66.974 0.057 6.98 1.98 8.24
6/28/2021 4:00:00 AM 19.34 66.812 0.057 6.98 1.93 8.26
6/28/2021 4:15:00 AM 19.24 66.632 0.057 6.98 1.87 8.27
6/28/2021 4:30:00 AM 19.15 66.47 0.057 6.96 2.02 8.28
6/28/2021 4:45:00 AM 19.06 66.308 0.057 6.97 1.93 8.31
6/28/2021 5:00:00 AM 18.98 66.164 0.057 6.98 2 8.34
6/28/2021 5:15:00 AM 18.89 66.002 0.057 6.97 1.96 8.35
6/28/2021 5:30:00 AM 18.8 65.84 0.057 6.98 2.01 8.38
6/28/2021 5:45:00 AM 18.72 65.696 0.057 6.98 1.95 8.4
6/28/2021 6:00:00 AM 18.63 65.534 0.057 6.98 1.89 8.41
6/28/2021 6:15:00 AM 18.55 65.39 0.057 6.97 1.84 8.44
6/28/2021 6:30:00 AM 18.48 65.264 0.057 6.98 1.88 8.48
6/28/2021 6:45:00 AM 18.43 65.174 0.057 6.98 1.89 8.52
6/28/2021 7:00:00 AM 18.38 65.084 0.057 6.99 1.89 8.56
6/28/2021 7:15:00 AM 18.35 65.03 0.057 7 1.86 8.59
6/28/2021 7:30:00 AM 18.33 64.994 0.057 7.01 1.8 8.63
6/28/2021 7:45:00 AM 18.32 64.976 0.057 7.02 2.13 8.66
6/28/2021 8:00:00 AM 18.31 64.958 0.057 7.01 1.88 8.69
6/28/2021 8:15:00 AM 18.34 65.012 0.057 7.03 1.84 8.72
6/28/2021 8:30:00 AM 18.38 65.084 0.056 7.04 1.84 8.74
6/28/2021 8:45:00 AM 18.45 65.21 0.056 7.06 1.91 8.76
6/28/2021 9:00:00 AM 18.55 65.39 0.056 7.05 1.89 8.77
6/28/2021 9:15:00 AM 18.67 65.606 0.056 7.09 1.82 8.77
6/28/2021 9:30:00 AM 18.81 65.858 0.056 7.09 1.87 8.77
6/28/2021 9:45:00 AM 18.99 66.182 0.056 7.11 1.87 8.77
6/28/2021 10:00:00 AM 19.19 66.542 0.056 7.13 1.85 8.77
6/28/2021 10:15:00 AM 19.42 66.956 0.056 7.14 1.91 8.77
6/28/2021 10:30:00 AM 19.66 67.388 0.056 7.15 1.83 8.76
6/28/2021 10:45:00 AM 19.91 67.838 0.056 7.16 1.88 8.74
6/28/2021 11:00:00 AM 20.17 68.306 0.055 7.19 1.88 8.71
6/28/2021 11:15:00 AM 20.48 68.864 0.055 7.18 1.86 8.69
6/28/2021 11:30:00 AM 20.78 69.404 0.055 7.19 1.82 8.66
6/28/2021 11:45:00 AM 21.07 69.926 0.055 7.22 1.82 8.6
6/28/2021 12:00:00 PM 21.39 70.502 0.055 7.23 1.84 8.57
6/28/2021 12:15:00 PM 21.72 71.096 0.055 7.23 3.79 8.52
6/28/2021 12:30:00 PM 21.88 71.384 0.055 7.22 1.82 8.49
6/28/2021 12:45:00 PM 22.27 72.086 0.055 7.23 1.85 8.44
6/28/2021 1:00:00 PM 22.65 72.77 0.055 7.24 1.82 8.39
6/28/2021 1:15:00 PM 22.9 73.22 0.055 7.25 1.79 8.33
6/28/2021 1:30:00 PM 23.16 73.688 0.055 7.26 1.87 8.28
6/28/2021 1:45:00 PM 23.39 74.102 0.055 7.24 1.77 8.26
6/28/2021 2:00:00 PM 23.78 74.804 0.055 7.25 1.8 8.21
6/28/2021 2:15:00 PM 24 75.2 0.055 7.25 1.74 8.16
6/28/2021 2:30:00 PM 24.23 75.614 0.055 7.26 1.74 8.11
6/28/2021 2:45:00 PM 24.42 75.956 0.055 7.27 1.79 8.08
6/28/2021 3:00:00 PM 24.63 76.334 0.055 7.27 1.79 8.05
6/28/2021 3:15:00 PM 24.92 76.856 0.055 7.27 1.76 8.02
6/28/2021 3:30:00 PM 25.09 77.162 0.055 7.26 1.8 7.97
6/28/2021 3:45:00 PM 25.23 77.414 0.055 7.27 1.78 7.93
6/28/2021 4:00:00 PM 25.33 77.594 0.055 7.26 1.77 7.89
6/28/2021 4:15:00 PM 25.32 77.576 0.055 7.26 1.74 7.85
6/28/2021 4:30:00 PM 25.33 77.594 0.055 7.26 1.73 7.85
6/28/2021 4:45:00 PM 25.34 77.612 0.055 7.25 1.82 7.81
6/28/2021 5:00:00 PM 25.24 77.432 0.055 7.23 1.75 7.75
6/28/2021 5:15:00 PM 25.08 77.144 0.055 7.21 1.75 7.66
6/28/2021 5:30:00 PM 24.92 76.856 0.054 7.19 2.19 7.73
6/28/2021 5:45:00 PM 24.9 76.82 0.054 7.18 1.94 7.75
6/28/2021 6:00:00 PM 24.91 76.838 0.054 7.2 2.13 7.74
6/28/2021 6:15:00 PM 24.8 76.64 0.054 7.17 2.09 7.69
6/28/2021 6:30:00 PM 24.63 76.334 0.054 7.15 2.53 7.64
6/28/2021 6:45:00 PM 24.48 76.064 0.054 7.13 2.87 7.61
6/28/2021 7:00:00 PM 24.38 75.884 0.054 7.12 2.8 7.59
6/28/2021 7:15:00 PM 24.28 75.704 0.054 7.1 2.83 7.59
6/28/2021 7:30:00 PM 24.19 75.542 0.054 7.08 2.23 7.59
6/28/2021 7:45:00 PM 24.08 75.344 0.054 7.07 2.27 7.59
6/28/2021 8:00:00 PM 23.96 75.128 0.054 7.04 2.26 7.57
6/28/2021 8:15:00 PM 23.82 74.876 0.054 7.04 2.23 7.56
6/28/2021 8:30:00 PM 23.66 74.588 0.055 7.03 2.23 7.56
6/28/2021 8:45:00 PM 23.49 74.282 0.055 7 2.17 7.57
6/28/2021 9:00:00 PM 23.33 73.994 0.055 6.98 2.17 7.58
6/28/2021 9:15:00 PM 23.19 73.742 0.056 6.99 2.17 7.58
6/28/2021 9:30:00 PM 23.06 73.508 0.056 6.99 2.1 7.6
6/28/2021 9:45:00 PM 22.95 73.31 0.056 6.98 2.05 7.62
6/28/2021 10:00:00 PM 22.84 73.112 0.056 6.99 2 7.64
6/28/2021 10:15:00 PM 22.73 72.914 0.057 6.98 2.11 7.67
6/28/2021 10:30:00 PM 22.59 72.662 0.057 6.99 2.12 7.69
6/28/2021 10:45:00 PM 22.46 72.42799 0.057 6.98 2.2 7.71
6/28/2021 11:00:00 PM 22.34 72.212 0.058 6.98 2.4 7.74
6/28/2021 11:15:00 PM 22.22 71.996 0.058 6.99 2.73 7.77
6/28/2021 11:30:00 PM 22.11 71.798 0.058 6.97 3.03 7.79
6/28/2021 11:45:00 PM 22 71.6 0.059 6.97 3.05 7.82
6/29/2021 12:00:00 AM 21.9 71.42 0.059 6.96 2.96 7.83
6/29/2021 12:15:00 AM 21.81 71.258 0.059 6.96 2.77 7.84
6/29/2021 12:30:00 AM 21.73 71.114 0.058 6.97 2.62 7.86
6/29/2021 12:45:00 AM 21.66 70.988 0.058 6.98 2.48 7.89
6/29/2021 1:00:00 AM 21.59 70.862 0.058 6.98 2.32 7.9
6/29/2021 1:15:00 AM 21.53 70.754 0.058 7 2.34 7.92
6/29/2021 1:30:00 AM 21.45 70.61 0.058 6.98 2.28 7.93
6/29/2021 1:45:00 AM 21.38 70.484 0.058 7.01 2.18 7.94
6/29/2021 2:00:00 AM 21.32 70.376 0.058 7 2.18 7.96
6/29/2021 2:15:00 AM 21.25 70.25 0.059 7 2.08 7.95
6/29/2021 2:30:00 AM 21.18 70.124 0.059 7 2.16 7.96
6/29/2021 2:45:00 AM 21.11 69.998 0.059 7 2.09 7.98
6/29/2021 3:00:00 AM 21.03 69.854 0.058 7.01 2.08 7.98
6/29/2021 3:15:00 AM 20.96 69.728 0.058 7.01 2.1 8.01
6/29/2021 3:30:00 AM 20.89 69.602 0.058 7.01 2.04 8.02
6/29/2021 3:45:00 AM 20.81 69.458 0.058 7 2.13 8.04
6/29/2021 4:00:00 AM 20.74 69.332 0.058 7 2.1 8.05
6/29/2021 4:15:00 AM 20.65 69.17 0.058 7 2.05 8.06
6/29/2021 4:30:00 AM 20.56 69.008 0.058 6.98 2.08 8.07
6/29/2021 4:45:00 AM 20.49 68.882 0.058 7 2 8.08
6/29/2021 5:00:00 AM 20.41 68.738 0.058 7 2.06 8.1
6/29/2021 5:15:00 AM 20.34 68.612 0.058 6.99 2.1 8.12
6/29/2021 5:30:00 AM 20.26 68.468 0.058 6.99 2.09 8.14
6/29/2021 5:45:00 AM 20.18 68.324 0.059 7 2.17 8.15
6/29/2021 6:00:00 AM 20.1 68.18 0.059 6.97 2.04 8.17
6/29/2021 6:15:00 AM 20.03 68.054 0.059 6.99 2.04 8.19
6/29/2021 6:30:00 AM 19.96 67.92799 0.059 6.97 2 8.23
6/29/2021 6:45:00 AM 19.91 67.838 0.059 7 2.09 8.26
6/29/2021 7:00:00 AM 19.86 67.748 0.059 6.98 2.01 8.3
6/29/2021 7:15:00 AM 19.81 67.658 0.059 7.02 2.05 8.34
6/29/2021 7:30:00 AM 19.77 67.586 0.059 7.02 1.99 8.39
6/29/2021 7:45:00 AM 19.74 67.532 0.059 7.03 2.01 8.43
6/29/2021 8:00:00 AM 19.71 67.478 0.059 7.04 2.1 8.45
6/29/2021 8:15:00 AM 19.71 67.478 0.058 7.05 2 8.48
6/29/2021 8:30:00 AM 19.71 67.478 0.058 7.06 1.94 8.49
6/29/2021 8:45:00 AM 19.75 67.55 0.058 7.05 1.99 8.51
6/29/2021 9:00:00 AM 19.8 67.64 0.058 7.07 2.02 8.52
6/29/2021 9:15:00 AM 19.89 67.802 0.058 7.05 1.96 8.53
6/29/2021 9:30:00 AM 20 68 0.058 7.08 2.04 8.54
6/29/2021 9:45:00 AM 20.12 68.216 0.058 7.09 1.99 8.54
6/29/2021 10:00:00 AM 20.28 68.504 0.058 7.08 1.95 8.53
6/29/2021 10:15:00 AM 20.47 68.846 0.058 7.11 2.02 8.52
6/29/2021 10:30:00 AM 20.68 69.224 0.058 7.12 1.91 8.52
6/29/2021 10:45:00 AM 20.89 69.602 0.058 7.15 1.92 8.5
6/29/2021 11:00:00 AM 21.13 70.034 0.057 7.15 1.92 8.46
6/29/2021 11:15:00 AM 21.35 70.43 0.057 7.17 1.95 8.46
6/29/2021 11:30:00 AM 21.59 70.862 0.057 7.18 1.92 8.43
6/29/2021 11:45:00 AM 21.89 71.402 0.057 7.19 1.89 8.4
6/29/2021 12:00:00 PM 22.18 71.924 0.057 7.19 1.89 8.38
6/29/2021 12:15:00 PM 22.41 72.338 0.057 7.21 1.93 8.33
6/29/2021 12:30:00 PM 22.77 72.986 0.057 7.21 1.9 8.3
6/29/2021 12:45:00 PM 23.15 73.67 0.057 7.21 1.89 8.24
6/29/2021 1:00:00 PM 23.49 74.282 0.057 7.22 1.91 8.21
6/29/2021 1:15:00 PM 23.84 74.912 0.057 7.24 1.8 8.16
6/29/2021 1:30:00 PM 24.17 75.506 0.057 7.24 1.83 8.13
6/29/2021 1:45:00 PM 24.51 76.118 0.057 7.25 1.88 8.08
6/29/2021 2:00:00 PM 24.85 76.73 0.057 7.26 1.84 8.04
6/29/2021 2:15:00 PM 25.09 77.162 0.057 7.28 1.82 7.99
6/29/2021 2:30:00 PM 25.28 77.504 0.057 7.26 1.99 7.96
6/29/2021 2:45:00 PM 25.39 77.702 0.057 7.28 1.79 7.91
6/29/2021 3:00:00 PM 25.49 77.882 0.057 7.26 1.88 7.85
6/29/2021 3:15:00 PM 25.56 78.008 0.057 7.26 1.92 7.81
6/29/2021 3:30:00 PM 25.75 78.35 0.057 7.26 1.86 7.78
6/29/2021 3:45:00 PM 25.96 78.728 0.057 7.26 1.82 7.76
6/29/2021 4:00:00 PM 26.11 78.998 0.057 7.26 1.95 7.73
6/29/2021 4:15:00 PM 26.25 79.25 0.057 7.27 1.94 7.7
6/29/2021 4:30:00 PM 26.25 79.25 0.057 7.25 1.87 7.66
6/29/2021 4:45:00 PM 26.33 79.394 0.057 7.26 1.97 7.64
6/29/2021 5:00:00 PM 26.34 79.412 0.057 7.24 1.81 7.62
6/29/2021 5:15:00 PM 26.36 79.448 0.057 7.25 1.77 7.59
6/29/2021 5:30:00 PM 26.34 79.412 0.057 7.23 1.78 7.55
6/29/2021 5:45:00 PM 26.3 79.34 0.057 7.23 1.76 7.52
6/29/2021 6:00:00 PM 26.23 79.214 0.057 7.21 1.72 7.48
6/29/2021 6:15:00 PM 26.15 79.07 0.057 7.2 1.72 7.45
6/29/2021 6:30:00 PM 26.08 78.944 0.057 7.19 1.79 7.42
6/29/2021 6:45:00 PM 26.01 78.818 0.057 7.18 1.74 7.4
6/29/2021 7:00:00 PM 25.93 78.674 0.057 7.17 1.8 7.38
6/29/2021 7:15:00 PM 25.83 78.494 0.057 7.14 1.76 7.37
6/29/2021 7:30:00 PM 25.72 78.296 0.057 7.14 1.81 7.36
6/29/2021 7:45:00 PM 25.6 78.08 0.058 7.13 1.82 7.36
6/29/2021 8:00:00 PM 25.47 77.846 0.058 7.12 1.75 7.35
6/29/2021 8:15:00 PM 25.34 77.612 0.058 7.11 1.77 7.35
6/29/2021 8:30:00 PM 25.19 77.342 0.058 7.09 1.82 7.35
6/29/2021 8:45:00 PM 25.03 77.054 0.058 7.09 1.82 7.34
6/29/2021 9:00:00 PM 24.85 76.73 0.058 7.06 4.14 7.35
6/29/2021 9:15:00 PM 24.67 76.406 0.058 7.06 1.94 7.36
6/29/2021 9:30:00 PM 24.51 76.118 0.058 7.06 2.1 7.38
6/29/2021 9:45:00 PM 24.35 75.83 0.059 7.04 1.91 7.39
6/29/2021 10:00:00 PM 24.2 75.56 0.059 7.03 1.95 7.41
6/29/2021 10:15:00 PM 24.06 75.308 0.059 7.03 1.92 7.42
6/29/2021 10:30:00 PM 23.92 75.056 0.059 7.03 1.84 7.46
6/29/2021 10:45:00 PM 23.79 74.82201 0.059 7.03 1.98 7.47
6/29/2021 11:00:00 PM 23.67 74.606 0.059 7.01 1.85 7.5
6/29/2021 11:15:00 PM 23.49 74.282 0.057 7.02 2.31 7.56
6/29/2021 11:30:00 PM 23.31 73.958 0.056 7.03 2.3 7.59
6/29/2021 11:45:00 PM 23.12 73.616 0.056 6.99 2.41 7.58
6/30/2021 12:00:00 AM 22.97 73.346 0.057 6.99 2.45 7.55
6/30/2021 12:15:00 AM 22.81 73.058 0.056 6.97 2.81 7.55
6/30/2021 12:30:00 AM 22.63 72.734 0.056 6.96 5.2 7.59
6/30/2021 12:45:00 AM 22.47 72.446 0.056 6.97 5.21 7.64
6/30/2021 1:00:00 AM 22.33 72.194 0.056 6.96 4.04 7.68
6/30/2021 1:15:00 AM 22.2 71.96 0.056 6.96 3.54 7.7
6/30/2021 1:30:00 AM 22.08 71.744 0.056 6.97 3.39 7.72
6/30/2021 1:45:00 AM 21.98 71.564 0.056 6.96 3.32 7.74
6/30/2021 2:00:00 AM 21.87 71.366 0.056 6.97 2.99 7.75
6/30/2021 2:15:00 AM 21.77 71.186 0.056 6.96 2.79 7.78
6/30/2021 2:30:00 AM 21.66 70.988 0.056 6.97 2.68 7.82
6/30/2021 2:45:00 AM 21.57 70.826 0.056 6.98 2.62 7.85
6/30/2021 3:00:00 AM 21.49 70.682 0.056 6.99 2.8 7.86
6/30/2021 3:15:00 AM 21.39 70.502 0.056 6.98 2.95 7.9
6/30/2021 3:30:00 AM 21.28 70.304 0.057 6.99 3.15 7.92
6/30/2021 3:45:00 AM 21.17 70.106 0.057 6.99 3.28 7.94
6/30/2021 4:00:00 AM 21.05 69.89 0.057 6.99 3.34 7.96
6/30/2021 4:15:00 AM 20.95 69.71 0.058 7 3.67 7.98
6/30/2021 4:30:00 AM 20.86 69.548 0.058 7 3.92 7.99
6/30/2021 4:45:00 AM 20.78 69.404 0.059 7.02 4.24 8.01
6/30/2021 5:00:00 AM 20.7 69.26 0.059 7.03 3.91 8.03
6/30/2021 5:15:00 AM 20.62 69.116 0.06 7.01 4.07 8.05
6/30/2021 5:30:00 AM 20.53 68.954 0.059 7.01 3.85 8.05
6/30/2021 5:45:00 AM 20.45 68.81 0.059 7.03 3.56 8.07
6/30/2021 6:00:00 AM 20.38 68.684 0.06 7.04 3.35 8.1
6/30/2021 6:15:00 AM 20.31 68.558 0.06 7.02 3.12 8.13
6/30/2021 6:30:00 AM 20.25 68.45 0.06 7.02 2.95 8.17
6/30/2021 6:45:00 AM 20.21 68.378 0.06 7.05 2.94 8.19
6/30/2021 7:00:00 AM 20.17 68.306 0.06 7.04 2.8 8.23
6/30/2021 7:15:00 AM 20.14 68.252 0.059 7.05 2.7 8.28
6/30/2021 7:30:00 AM 20.1 68.18 0.059 7.06 2.62 8.3
6/30/2021 7:45:00 AM 20.07 68.126 0.058 7.07 2.66 8.32
6/30/2021 8:00:00 AM 20.06 68.108 0.058 7.07 2.52 8.36
6/30/2021 8:15:00 AM 20.07 68.126 0.058 7.08 2.47 8.38
6/30/2021 8:30:00 AM 20.1 68.18 0.058 7.08 2.54 8.4
6/30/2021 8:45:00 AM 20.14 68.252 0.058 7.09 2.46 8.41
6/30/2021 9:00:00 AM 20.22 68.396 0.058 7.1 2.47 8.43
6/30/2021 9:15:00 AM 20.34 68.612 0.058 7.11 2.44 8.46
6/30/2021 9:30:00 AM 20.38 68.684 0.059 7.12 2.43 8.42
6/30/2021 9:45:00 AM 20.44 68.792 0.059 7.12 2.4 8.44
6/30/2021 10:00:00 AM 20.64 69.152 0.058 7.15 2.39 8.48
6/30/2021 10:15:00 AM 20.76 69.368 0.059 7.15 2.4 8.47
6/30/2021 10:30:00 AM 20.81 69.458 0.058 7.16 2.34 8.46
6/30/2021 10:45:00 AM 20.9 69.62 0.058 7.16 2.31 8.46
6/30/2021 11:00:00 AM 21.07 69.926 0.058 7.18 2.3 8.44
6/30/2021 11:15:00 AM 21.28 70.304 0.058 7.19 2.35 8.44
6/30/2021 11:30:00 AM 21.49 70.682 0.058 7.19 2.34 8.41
6/30/2021 11:45:00 AM 21.75 71.15 0.058 7.2 2.34 8.37
6/30/2021 12:00:00 PM 22.09 71.762 0.058 7.21 2.39 8.36
6/30/2021 12:15:00 PM 22.46 72.42799 0.058 7.23 2.23 8.32
6/30/2021 12:30:00 PM 22.72 72.896 0.058 7.24 2.35 8.29
6/30/2021 12:45:00 PM 22.97 73.346 0.058 7.23 2.15 8.24
6/30/2021 1:00:00 PM 23.21 73.778 0.058 7.23 2.21 8.19
6/30/2021 1:15:00 PM 23.44 74.192 0.058 7.26 2.21 8.18
6/30/2021 1:30:00 PM 23.66 74.588 0.058 7.27 2.15 8.16
6/30/2021 1:45:00 PM 23.85 74.93 0.058 7.27 2.27 8.12
6/30/2021 2:00:00 PM 24.14 75.452 0.058 7.27 2.08 8.08
6/30/2021 2:15:00 PM 24.31 75.758 0.058 7.27 2.13 8.02
6/30/2021 2:30:00 PM 24.4 75.92 0.058 7.27 2.15 7.99
6/30/2021 2:45:00 PM 24.48 76.064 0.058 7.26 2.17 7.94
6/30/2021 3:00:00 PM 24.47 76.046 0.057 7.28 2.11 7.92
6/30/2021 3:15:00 PM 24.67 76.406 0.057 7.27 2.09 7.92
6/30/2021 3:30:00 PM 25.02 77.036 0.057 7.27 2.2 7.88
6/30/2021 3:45:00 PM 25.28 77.504 0.057 7.26 2.12 7.84
6/30/2021 4:00:00 PM 25.21 77.378 0.057 7.26 2.16 7.75
6/30/2021 4:15:00 PM 25.03 77.054 0.057 7.24 2.22 7.68
6/30/2021 4:30:00 PM 24.83 76.694 0.057 7.23 2.05 7.67
6/30/2021 4:45:00 PM 24.79 76.622 0.057 7.22 2.34 7.68
6/30/2021 5:00:00 PM 24.74 76.532 0.057 7.22 2.14 7.66
6/30/2021 5:15:00 PM 24.64 76.352 0.057 7.19 2.2 7.62
6/30/2021 5:30:00 PM 24.5 76.1 0.057 7.18 2.1 7.59
6/30/2021 5:45:00 PM 24.33 75.794 0.057 7.16 2.01 7.57
6/30/2021 6:00:00 PM 24.16 75.488 0.057 7.15 2.15 7.56
6/30/2021 6:15:00 PM 23.99 75.182 0.057 7.13 2.09 7.57
6/30/2021 6:30:00 PM 23.83 74.894 0.057 7.13 2.14 7.58
6/30/2021 6:45:00 PM 23.68 74.624 0.057 7.13 2.11 7.61
6/30/2021 7:00:00 PM 23.52 74.336 0.057 7.1 2.16 7.62
6/30/2021 7:15:00 PM 23.38 74.084 0.057 7.11 2.13 7.63
6/30/2021 7:30:00 PM 23.21 73.778 0.057 7.1 2.31 7.63
6/30/2021 7:45:00 PM 23.06 73.508 0.057 7.09 3.32 7.65
6/30/2021 8:00:00 PM 22.92 73.256 0.057 7.08 2.15 7.67
6/30/2021 8:15:00 PM 22.78 73.004 0.057 7.07 2.21 7.68
6/30/2021 8:30:00 PM 22.65 72.77 0.057 7.07 2.19 7.69
6/30/2021 8:45:00 PM 22.53 72.554 0.057 7.07 2.18 7.7
6/30/2021 9:00:00 PM 22.4 72.32 0.057 7.07 2.23 7.71
6/30/2021 9:15:00 PM 22.28 72.104 0.057 7.05 2.32 7.73
6/30/2021 9:30:00 PM 22.17 71.906 0.057 7.04 2.35 7.75
6/30/2021 9:45:00 PM 22.06 71.708 0.057 7.05 2.34 7.77
6/30/2021 10:00:00 PM 21.95 71.51 0.057 7.05 2.33 7.78
6/30/2021 10:15:00 PM 21.86 71.348 0.057 7.04 2.28 7.8
6/30/2021 10:30:00 PM 21.76 71.168 0.057 7.05 2.38 7.82
6/30/2021 10:45:00 PM 21.66 70.988 0.057 7.03 2.29 7.84
6/30/2021 11:00:00 PM 21.57 70.826 0.057 7.04 2.15 7.85
6/30/2021 11:15:00 PM 21.49 70.682 0.057 7.04 2.3 7.87
6/30/2021 11:30:00 PM 21.4 70.52 0.057 7.03 2.31 7.89
6/30/2021 11:45:00 PM 21.31 70.358 0.057 7.03 2.28 7.9
7/1/2021 12:00:00 AM 21.23 70.214 0.057 7.03 2.13 7.92
7/1/2021 12:15:00 AM 21.14 70.052 0.057 7.02 2.35 7.93
7/1/2021 12:30:00 AM 21.05 69.89 0.057 7.03 2.24 7.95
7/1/2021 12:45:00 AM 20.97 69.746 0.057 7.04 2.26 7.97
7/1/2021 1:00:00 AM 20.89 69.602 0.057 7.04 2.16 7.99
7/1/2021 1:15:00 AM 20.81 69.458 0.057 7.03 2.16 8.01
7/1/2021 1:30:00 AM 20.74 69.332 0.057 7.02 2.21 8.02
7/1/2021 1:45:00 AM 20.68 69.224 0.057 7.01 2.23 8.03
7/1/2021 2:00:00 AM 20.61 69.098 0.057 7.02 2.16 8.04
7/1/2021 2:15:00 AM 20.55 68.99 0.057 7.01 2.23 8.05
7/1/2021 2:30:00 AM 20.48 68.864 0.057 7.01 2.39 8.06
7/1/2021 2:45:00 AM 20.41 68.738 0.056 7.01 2.34 8.07
7/1/2021 3:00:00 AM 20.36 68.648 0.056 7.01 2.45 8.08
7/1/2021 3:15:00 AM 20.29 68.522 0.056 7 2.41 8.09
7/1/2021 3:30:00 AM 20.23 68.414 0.056 7 2.41 8.08
7/1/2021 3:45:00 AM 20.17 68.306 0.055 6.98 2.71 8.1
7/1/2021 4:00:00 AM 20.1 68.18 0.055 6.98 3.18 8.11
7/1/2021 4:15:00 AM 20.05 68.09 0.055 6.99 3.41 8.12
7/1/2021 4:30:00 AM 19.99 67.982 0.055 6.99 3.17 8.13
7/1/2021 4:45:00 AM 19.93 67.874 0.055 6.98 3.19 8.14
7/1/2021 5:00:00 AM 19.88 67.784 0.055 6.98 3.08 8.14
7/1/2021 5:15:00 AM 19.82 67.676 0.055 6.96 3.13 8.15
7/1/2021 5:30:00 AM 19.77 67.586 0.055 6.96 3.2 8.16
7/1/2021 5:45:00 AM 19.72 67.496 0.055 6.97 3.17 8.18
7/1/2021 6:00:00 AM 19.67 67.406 0.055 6.97 3.3 8.2
7/1/2021 6:15:00 AM 19.63 67.334 0.055 6.99 3.33 8.21
7/1/2021 6:30:00 AM 19.58 67.244 0.055 6.98 3.24 8.25
7/1/2021 6:45:00 AM 19.54 67.172 0.056 6.98 3.14 8.28
7/1/2021 7:00:00 AM 19.49 67.082 0.055 6.99 3.34 8.3
7/1/2021 7:15:00 AM 19.44 66.992 0.055 6.99 3.55 8.32
7/1/2021 7:30:00 AM 19.4 66.92 0.056 7 3.59 8.35
7/1/2021 7:45:00 AM 19.36 66.848 0.056 7 3.61 8.36
7/1/2021 8:00:00 AM 19.3 66.74 0.057 7.01 3.78 8.38
7/1/2021 8:15:00 AM 19.26 66.668 0.057 7.01 3.92 8.4
7/1/2021 8:30:00 AM 19.22 66.596 0.058 7.03 3.96 8.44
7/1/2021 8:45:00 AM 19.2 66.56 0.058 7.02 3.76 8.44
7/1/2021 9:00:00 AM 19.19 66.542 0.058 7.04 3.88 8.44
7/1/2021 9:15:00 AM 19.19 66.542 0.058 7.05 3.82 8.47
7/1/2021 9:30:00 AM 19.19 66.542 0.058 7.06 3.79 8.49
7/1/2021 9:45:00 AM 19.19 66.542 0.058 7.05 3.72 8.5
7/1/2021 10:00:00 AM 19.19 66.542 0.058 7.07 3.66 8.54
7/1/2021 10:15:00 AM 19.19 66.542 0.058 7.06 3.61 8.56
7/1/2021 10:30:00 AM 19.2 66.56 0.058 7.08 3.51 8.58
7/1/2021 10:45:00 AM 19.19 66.542 0.058 7.09 3.5 8.57
7/1/2021 11:00:00 AM 19.19 66.542 0.058 7.09 3.49 8.57
7/1/2021 11:15:00 AM 19.22 66.596 0.058 7.11 3.33 8.6
7/1/2021 11:30:00 AM 19.23 66.614 0.058 7.11 3.37 8.62
7/1/2021 11:45:00 AM 19.23 66.614 0.057 7.12 3.3 8.63
7/1/2021 12:00:00 PM 19.23 66.614 0.057 7.13 3.25 8.63
7/1/2021 12:15:00 PM 19.24 66.632 0.057 7.13 3.22 8.64
7/1/2021 12:30:00 PM 19.31 66.758 0.057 7.15 3.27 8.68
7/1/2021 12:45:00 PM 19.4 66.92 0.056 7.17 3.25 8.72
7/1/2021 1:00:00 PM 19.44 66.992 0.056 7.18 3.15 8.72
7/1/2021 1:15:00 PM 19.44 66.992 0.056 7.18 3.23 8.7
7/1/2021 1:30:00 PM 19.47 67.046 0.056 7.18 3.21 8.68
7/1/2021 1:45:00 PM 19.54 67.172 0.056 7.19 3.33 8.67
7/1/2021 2:00:00 PM 19.61 67.298 0.056 7.2 3.17 8.69
7/1/2021 2:15:00 PM 19.61 67.298 0.056 7.2 3.14 8.67
7/1/2021 2:30:00 PM 19.56 67.208 0.056 7.2 3.28 8.62
7/1/2021 2:45:00 PM 19.58 67.244 0.056 7.2 3.16 8.62
7/1/2021 3:00:00 PM 19.68 67.424 0.056 7.2 3.29 8.65
7/1/2021 3:15:00 PM 19.71 67.478 0.056 7.21 3.26 8.65
7/1/2021 3:30:00 PM 19.74 67.532 0.056 7.23 3.21 8.66
7/1/2021 3:45:00 PM 19.79 67.622 0.057 7.23 3.36 8.64
7/1/2021 4:00:00 PM 19.79 67.622 0.057 7.22 3.33 8.61
7/1/2021 4:15:00 PM 19.8 67.64 0.057 7.21 3.37 8.6
7/1/2021 4:30:00 PM 19.79 67.622 0.057 7.22 3.32 8.55
7/1/2021 4:45:00 PM 19.79 67.622 0.057 7.22 3.34 8.58
7/1/2021 5:00:00 PM 19.8 67.64 0.057 7.22 3.41 8.59
7/1/2021 5:15:00 PM 19.79 67.622 0.057 7.23 3.33 8.6
7/1/2021 5:30:00 PM 19.79 67.622 0.057 7.23 3.21 8.6
7/1/2021 5:45:00 PM 19.78 67.604 0.057 7.23 3.4 8.59
7/1/2021 6:00:00 PM 19.76 67.568 0.057 7.23 3.36 8.57
7/1/2021 6:15:00 PM 19.73 67.514 0.057 7.22 3.26 8.55
7/1/2021 6:30:00 PM 19.68 67.424 0.057 7.2 3.15 8.53
7/1/2021 6:45:00 PM 19.62 67.316 0.057 7.19 3.06 8.5
7/1/2021 7:00:00 PM 19.55 67.19 0.057 7.18 3.3 8.48
7/1/2021 7:15:00 PM 19.49 67.082 0.057 7.17 3.12 8.46
7/1/2021 7:30:00 PM 19.42 66.956 0.058 7.16 3.1 8.44
7/1/2021 7:45:00 PM 19.35 66.83 0.058 7.14 3.17 8.44
7/1/2021 8:00:00 PM 19.28 66.704 0.058 7.13 3.48 8.43
7/1/2021 8:15:00 PM 19.21 66.578 0.058 7.11 3.19 8.42
7/1/2021 8:30:00 PM 19.14 66.452 0.058 7.12 3.03 8.42
7/1/2021 8:45:00 PM 19.08 66.344 0.058 7.1 3.19 8.41
7/1/2021 9:00:00 PM 19.01 66.218 0.058 7.09 3.14 8.41
7/1/2021 9:15:00 PM 18.94 66.092 0.058 7.08 3.05 8.41
7/1/2021 9:30:00 PM 18.87 65.966 0.058 7.09 3.03 8.42
7/1/2021 9:45:00 PM 18.8 65.84 0.058 7.08 3.08 8.43
7/1/2021 10:00:00 PM 18.74 65.732 0.058 7.06 3.11 8.43
7/1/2021 10:15:00 PM 18.67 65.606 0.058 7.06 3.01 8.44
7/1/2021 10:30:00 PM 18.62 65.516 0.058 7.05 2.95 8.45
7/1/2021 10:45:00 PM 18.57 65.426 0.058 7.05 2.81 8.45
7/1/2021 11:00:00 PM 18.52 65.336 0.058 7.06 2.96 8.45
7/1/2021 11:15:00 PM 18.48 65.264 0.058 7.05 2.96 8.46
7/1/2021 11:30:00 PM 18.42 65.156 0.058 7.04 2.95 8.46
7/1/2021 11:45:00 PM 18.36 65.048 0.058 7.04 2.94 8.48
7/2/2021 12:00:00 AM 18.3 64.94 0.058 7.05 2.84 8.49
7/2/2021 12:15:00 AM 18.24 64.832 0.058 7.05 2.77 8.51
7/2/2021 12:30:00 AM 18.16 64.688 0.058 7.05 2.79 8.52
7/2/2021 12:45:00 AM 18.09 64.562 0.058 7.05 2.79 8.53
7/2/2021 1:00:00 AM 18.03 64.454 0.058 7.06 3.15 8.54
7/2/2021 1:15:00 AM 17.96 64.328 0.058 7.04 2.69 8.55
7/2/2021 1:30:00 AM 17.88 64.184 0.058 7.05 2.69 8.56
7/2/2021 1:45:00 AM 17.8 64.04 0.058 7.06 2.69 8.57
7/2/2021 2:00:00 AM 17.72 63.896 0.058 7.04 2.65 8.59
7/2/2021 2:15:00 AM 17.65 63.77 0.058 7.06 2.66 8.6
7/2/2021 2:30:00 AM 17.57 63.626 0.058 7.06 2.73 8.62
7/2/2021 2:45:00 AM 17.48 63.464 0.058 7.05 2.64 8.63
7/2/2021 3:00:00 AM 17.41 63.338 0.058 7.04 2.58 8.65
7/2/2021 3:15:00 AM 17.33 63.194 0.058 7.05 2.7 8.66
7/2/2021 3:30:00 AM 17.26 63.068 0.058 7.04 2.54 8.67
7/2/2021 3:45:00 AM 17.2 62.96 0.058 7.04 2.71 8.68
7/2/2021 4:00:00 AM 17.13 62.834 0.058 7.04 2.51 8.69
7/2/2021 4:15:00 AM 17.08 62.744 0.058 7.05 2.59 8.7
7/2/2021 4:30:00 AM 17.03 62.654 0.058 7.05 2.63 8.71
7/2/2021 4:45:00 AM 16.98 62.564 0.058 7.05 2.61 8.73
7/2/2021 5:00:00 AM 16.94 62.492 0.058 7.03 2.65 8.74
7/2/2021 5:15:00 AM 16.92 62.456 0.058 7.03 2.72 8.74
7/2/2021 5:30:00 AM 16.89 62.402 0.058 7.03 2.72 8.75
7/2/2021 5:45:00 AM 16.87 62.366 0.058 7.04 2.62 8.76
7/2/2021 6:00:00 AM 16.84 62.312 0.058 7.03 2.65 8.77
7/2/2021 6:15:00 AM 16.8 62.24 0.058 7.05 2.61 8.78
7/2/2021 6:30:00 AM 16.78 62.204 0.058 7.03 2.48 8.79
7/2/2021 6:45:00 AM 16.77 62.186 0.058 7.04 2.51 8.8
7/2/2021 7:00:00 AM 16.75 62.15 0.058 7.04 2.51 8.83
7/2/2021 7:15:00 AM 16.73 62.114 0.058 7.06 2.45 8.84
7/2/2021 7:30:00 AM 16.71 62.078 0.058 7.06 2.4 8.85
7/2/2021 7:45:00 AM 16.7 62.06 0.058 7.07 2.44 8.88
7/2/2021 8:00:00 AM 16.71 62.078 0.058 7.08 2.48 8.91
7/2/2021 8:15:00 AM 16.72 62.096 0.057 7.08 2.5 8.94
7/2/2021 8:30:00 AM 16.76 62.168 0.057 7.08 2.38 8.98
7/2/2021 8:45:00 AM 16.8 62.24 0.057 7.11 2.37 9.02
7/2/2021 9:00:00 AM 16.81 62.258 0.057 7.12 2.29 9.01
7/2/2021 9:15:00 AM 16.8 62.24 0.057 7.12 2.35 9
7/2/2021 9:30:00 AM 16.8 62.24 0.057 7.12 2.39 9
7/2/2021 9:45:00 AM 16.82 62.276 0.057 7.12 2.42 9.01
7/2/2021 10:00:00 AM 16.87 62.366 0.057 7.13 2.3 9.05
7/2/2021 10:15:00 AM 16.92 62.456 0.057 7.15 2.42 9.06
7/2/2021 10:30:00 AM 16.95 62.51 0.057 7.16 2.33 9.08
7/2/2021 10:45:00 AM 17 62.6 0.057 7.16 2.35 9.1
7/2/2021 11:00:00 AM 17.06 62.708 0.057 7.18 2.32 9.1
7/2/2021 11:15:00 AM 17.19 62.942 0.057 7.19 2.45 9.13
7/2/2021 11:30:00 AM 17.36 63.248 0.057 7.19 2.34 9.12
7/2/2021 11:45:00 AM 17.56 63.608 0.057 7.22 2.39 9.09
7/2/2021 12:00:00 PM 17.65 63.77 0.057 7.22 2.29 9.08
7/2/2021 12:15:00 PM 17.92 64.256 0.056 7.24 2.24 9.05
7/2/2021 12:30:00 PM 18.29 64.922 0.056 7.22 2.26 8.99
7/2/2021 12:45:00 PM 18.57 65.426 0.056 7.26 2.33 8.96
7/2/2021 1:00:00 PM 18.71 65.67799 0.056 7.25 2.32 8.91
7/2/2021 1:15:00 PM 18.9 66.02 0.056 7.25 2.39 8.87
7/2/2021 1:30:00 PM 18.83 65.894 0.056 7.24 2.29 8.8
7/2/2021 1:45:00 PM 18.74 65.732 0.056 7.25 2.5 8.78
7/2/2021 2:00:00 PM 18.88 65.984 0.056 7.26 2.32 8.8
7/2/2021 2:15:00 PM 19.11 66.398 0.056 7.26 2.3 8.79
7/2/2021 2:30:00 PM 19.29 66.722 0.056 7.28 2.34 8.79
7/2/2021 2:45:00 PM 19.5 67.1 0.056 7.27 2.35 8.77
7/2/2021 3:00:00 PM 19.7 67.46 0.056 7.28 2.24 8.74
7/2/2021 3:15:00 PM 19.74 67.532 0.056 7.26 2.37 8.66
7/2/2021 3:30:00 PM 19.8 67.64 0.056 7.26 2.31 8.59
7/2/2021 3:45:00 PM 19.83 67.694 0.056 7.26 2.26 8.55
7/2/2021 4:00:00 PM 19.82 67.676 0.056 7.26 2.24 8.53
7/2/2021 4:15:00 PM 19.76 67.568 0.056 7.24 2.23 8.53
7/2/2021 4:30:00 PM 19.62 67.316 0.056 7.22 2.26 8.53
7/2/2021 4:45:00 PM 19.52 67.136 0.055 7.23 2.3 8.56
7/2/2021 5:00:00 PM 19.44 66.992 0.055 7.24 2.55 8.61
7/2/2021 5:15:00 PM 19.4 66.92 0.055 7.24 2.35 8.65
7/2/2021 5:30:00 PM 19.39 66.902 0.055 7.24 2.33 8.66
7/2/2021 5:45:00 PM 19.33 66.794 0.055 7.25 2.25 8.66
7/2/2021 6:00:00 PM 19.27 66.686 0.055 7.24 2.26 8.66
7/2/2021 6:15:00 PM 19.25 66.65 0.055 7.24 2.35 8.64
7/2/2021 6:30:00 PM 19.21 66.578 0.055 7.23 2.36 8.62
7/2/2021 6:45:00 PM 19.11 66.398 0.055 7.23 2.29 8.59
7/2/2021 7:00:00 PM 18.99 66.182 0.055 7.18 2.3 8.58
7/2/2021 7:15:00 PM 18.89 66.002 0.055 7.19 2.3 8.57
7/2/2021 7:30:00 PM 18.8 65.84 0.055 7.18 2.41 8.58
7/2/2021 7:45:00 PM 18.7 65.66 0.055 7.18 2.36 8.58
7/2/2021 8:00:00 PM 18.57 65.426 0.056 7.17 2.39 8.59
7/2/2021 8:15:00 PM 18.42 65.156 0.056 7.16 2.38 8.59
7/2/2021 8:30:00 PM 18.25 64.85 0.056 7.15 2.54 8.61
7/2/2021 8:45:00 PM 18.1 64.58 0.056 7.14 2.31 8.62
7/2/2021 9:00:00 PM 17.97 64.346 0.056 7.13 2.58 8.61
7/2/2021 9:15:00 PM 17.84 64.112 0.056 7.12 2.49 8.61
7/2/2021 9:30:00 PM 17.71 63.878 0.056 7.11 2.58 8.62
7/2/2021 9:45:00 PM 17.6 63.68 0.056 7.11 2.54 8.64
7/2/2021 10:00:00 PM 17.48 63.464 0.056 7.09 2.48 8.66
7/2/2021 10:15:00 PM 17.34 63.212 0.056 7.09 2.33 8.68
7/2/2021 10:30:00 PM 17.21 62.978 0.057 7.09 2.43 8.69
7/2/2021 10:45:00 PM 17.08 62.744 0.057 7.07 2.39 8.72
7/2/2021 11:00:00 PM 16.97 62.546 0.057 7.08 2.37 8.74
7/2/2021 11:15:00 PM 16.88 62.384 0.057 7.09 2.29 8.76
7/2/2021 11:30:00 PM 16.78 62.204 0.057 7.07 2.37 8.79
7/2/2021 11:45:00 PM 16.68 62.024 0.057 7.07 2.27 8.81
7/3/2021 12:00:00 AM 16.6 61.88 0.057 7.07 2.32 8.82
7/3/2021 12:15:00 AM 16.53 61.754 0.057 7.07 2.23 8.83
7/3/2021 12:30:00 AM 16.48 61.664 0.057 7.04 2.26 8.84
7/3/2021 12:45:00 AM 16.42 61.556 0.057 7.06 2.27 8.85
7/3/2021 1:00:00 AM 16.35 61.43 0.057 7.06 2.3 8.87
7/3/2021 1:15:00 AM 16.27 61.286 0.057 7.06 2.28 8.88
7/3/2021 1:30:00 AM 16.21 61.178 0.057 7.05 2.13 8.9
7/3/2021 1:45:00 AM 16.14 61.052 0.057 7.04 2.26 8.92
7/3/2021 2:00:00 AM 16.08 60.944 0.057 7.04 2.19 8.93
7/3/2021 2:15:00 AM 16.02 60.836 0.057 7.04 2.26 8.95
7/3/2021 2:30:00 AM 15.96 60.728 0.056 7.04 2.29 8.96
7/3/2021 2:45:00 AM 15.9 60.62 0.056 7.03 2.27 8.97
7/3/2021 3:00:00 AM 15.85 60.53 0.056 7.03 2.31 8.97
7/3/2021 3:15:00 AM 15.8 60.44 0.057 7.04 2.49 8.98
7/3/2021 3:30:00 AM 15.76 60.368 0.057 7.04 2.52 8.99
7/3/2021 3:45:00 AM 15.71 60.278 0.057 7.03 2.42 9
7/3/2021 4:00:00 AM 15.67 60.206 0.057 7.04 2.39 9.02
7/3/2021 4:15:00 AM 15.63 60.134 0.057 7.03 2.42 9.03
7/3/2021 4:30:00 AM 15.59 60.062 0.057 7.04 2.33 9.04
7/3/2021 4:45:00 AM 15.56 60.008 0.057 7.04 2.35 9.05
7/3/2021 5:00:00 AM 15.52 59.936 0.057 7.05 2.41 9.06
7/3/2021 5:15:00 AM 15.49 59.882 0.057 7.04 2.54 9.07
7/3/2021 5:30:00 AM 15.45 59.81 0.057 7.05 2.38 9.08
7/3/2021 5:45:00 AM 15.42 59.756 0.057 7.03 2.37 9.09
7/3/2021 6:00:00 AM 15.38 59.684 0.057 7.04 2.39 9.1
7/3/2021 6:15:00 AM 15.36 59.648 0.057 7.03 2.37 9.13
7/3/2021 6:30:00 AM 15.33 59.594 0.057 7.05 2.34 9.15
7/3/2021 6:45:00 AM 15.32 59.576 0.057 7.05 2.55 9.17
7/3/2021 7:00:00 AM 15.3 59.54 0.057 7.05 2.65 9.19
7/3/2021 7:15:00 AM 15.3 59.54 0.056 7.06 2.66 9.23
7/3/2021 7:30:00 AM 15.3 59.54 0.056 7.07 2.76 9.27
7/3/2021 7:45:00 AM 15.3 59.54 0.056 7.08 2.65 9.28
7/3/2021 8:00:00 AM 15.3 59.54 0.056 7.09 2.57 9.29
7/3/2021 8:15:00 AM 15.3 59.54 0.056 7.08 2.66 9.29
7/3/2021 8:30:00 AM 15.33 59.594 0.056 7.09 2.54 9.32
7/3/2021 8:45:00 AM 15.36 59.648 0.056 7.11 2.53 9.35
7/3/2021 9:00:00 AM 15.37 59.666 0.056 7.12 2.58 9.34
7/3/2021 9:15:00 AM 15.42 59.756 0.056 7.12 2.57 9.37
7/3/2021 9:30:00 AM 15.45 59.81 0.056 7.15 2.58 9.37
7/3/2021 9:45:00 AM 15.46 59.828 0.056 7.13 2.56 9.35
7/3/2021 10:00:00 AM 15.47 59.846 0.056 7.14 2.58 9.36
7/3/2021 10:15:00 AM 15.54 59.972 0.056 7.15 2.64 9.38
7/3/2021 10:30:00 AM 15.58 60.044 0.056 7.16 2.38 9.38
7/3/2021 10:45:00 AM 15.6 60.08 0.056 7.17 2.26 9.38
7/3/2021 11:00:00 AM 15.67 60.206 0.056 7.17 2.08 9.41
7/3/2021 11:15:00 AM 15.76 60.368 0.055 7.17 2.15 9.39
7/3/2021 11:30:00 AM 15.86 60.548 0.055 7.2 2.14 9.41
7/3/2021 11:45:00 AM 16 60.8 0.055 7.22 2.14 9.41
7/3/2021 12:00:00 PM 16.25 61.25 0.055 7.24 2.23 9.4
7/3/2021 12:15:00 PM 16.51 61.718 0.055 7.24 2.28 9.36
7/3/2021 12:30:00 PM 16.62 61.916 0.055 7.22 2.21 9.32
7/3/2021 12:45:00 PM 16.75 62.15 0.055 7.24 2.41 9.31
7/3/2021 1:00:00 PM 16.97 62.546 0.055 7.24 2.36 9.27
7/3/2021 1:15:00 PM 17.04 62.672 0.055 7.26 2.31 9.22
7/3/2021 1:30:00 PM 17.08 62.744 0.055 7.24 2.25 9.19
7/3/2021 1:45:00 PM 17.19 62.942 0.055 7.25 2.23 9.17
7/3/2021 2:00:00 PM 17.45 63.41 0.055 7.26 2.18 9.16
7/3/2021 2:15:00 PM 17.64 63.752 0.055 7.26 2.28 9.15
7/3/2021 2:30:00 PM 17.7 63.86 0.055 7.28 2.19 9.13
7/3/2021 2:45:00 PM 17.87 64.166 0.055 7.29 2.15 9.12
7/3/2021 3:00:00 PM 18.08 64.544 0.055 7.3 2.18 9.11
7/3/2021 3:15:00 PM 18.24 64.832 0.055 7.29 2.33 9.08
7/3/2021 3:30:00 PM 18.28 64.904 0.055 7.32 2.2 9.04
7/3/2021 3:45:00 PM 18.31 64.958 0.055 7.3 2.2 9.01
7/3/2021 4:00:00 PM 18.43 65.174 0.055 7.28 2.28 8.98
7/3/2021 4:15:00 PM 18.61 65.498 0.055 7.29 2.38 8.95
7/3/2021 4:30:00 PM 18.73 65.714 0.055 7.28 2.4 8.93
7/3/2021 4:45:00 PM 18.73 65.714 0.055 7.28 2.41 8.9
7/3/2021 5:00:00 PM 18.83 65.894 0.055 7.29 2.37 8.89
7/3/2021 5:15:00 PM 18.85 65.93 0.055 7.28 2.47 8.84
7/3/2021 5:30:00 PM 18.82 65.876 0.055 7.26 2.61 8.8
7/3/2021 5:45:00 PM 18.8 65.84 0.055 7.26 3.44 8.74
7/3/2021 6:00:00 PM 18.74 65.732 0.055 7.24 2.68 8.71
7/3/2021 6:15:00 PM 18.69 65.642 0.055 7.22 2.39 8.68
7/3/2021 6:30:00 PM 18.61 65.498 0.055 7.21 2.28 8.67
7/3/2021 6:45:00 PM 18.52 65.336 0.055 7.2 2.4 8.66
7/3/2021 7:00:00 PM 18.44 65.192 0.055 7.19 2.37 8.68
7/3/2021 7:15:00 PM 18.36 65.048 0.055 7.21 2.65 8.68
7/3/2021 7:30:00 PM 18.29 64.922 0.055 7.2 2.5 8.69
7/3/2021 7:45:00 PM 18.22 64.796 0.055 7.18 2.59 8.68
7/3/2021 8:00:00 PM 18.17 64.706 0.055 7.17 2.58 8.67
7/3/2021 8:15:00 PM 18.11 64.598 0.055 7.16 2.48 8.66
7/3/2021 8:30:00 PM 18.03 64.454 0.055 7.14 2.53 8.65
7/3/2021 8:45:00 PM 17.95 64.31 0.055 7.14 2.46 8.64
7/3/2021 9:00:00 PM 17.87 64.166 0.055 7.11 2.39 8.63
7/3/2021 9:15:00 PM 17.8 64.04 0.055 7.11 2.36 8.63
7/3/2021 9:30:00 PM 17.73 63.914 0.055 7.11 2.48 8.63
7/3/2021 9:45:00 PM 17.66 63.788 0.055 7.1 2.36 8.63
7/3/2021 10:00:00 PM 17.6 63.68 0.055 7.08 2.38 8.65
7/3/2021 10:15:00 PM 17.53 63.554 0.055 7.08 2.25 8.65
7/3/2021 10:30:00 PM 17.45 63.41 0.055 7.07 2.36 8.66
7/3/2021 10:45:00 PM 17.38 63.284 0.055 7.07 2.36 8.68
7/3/2021 11:00:00 PM 17.31 63.158 0.055 7.08 2.34 8.7
7/3/2021 11:15:00 PM 17.24 63.032 0.055 7.07 2.38 8.7
7/3/2021 11:30:00 PM 17.18 62.924 0.055 7.06 2.47 8.71
7/3/2021 11:45:00 PM 17.09 62.762 0.055 7.07 2.72 8.72
7/4/2021 12:00:00 AM 17.01 62.618 0.055 7.07 2.75 8.74
7/4/2021 12:15:00 AM 16.92 62.456 0.055 7.06 2.77 8.76
7/4/2021 12:30:00 AM 16.84 62.312 0.055 7.05 2.68 8.79
7/4/2021 12:45:00 AM 16.76 62.168 0.055 7.06 2.59 8.81
7/4/2021 1:00:00 AM 16.69 62.042 0.055 7.05 2.48 8.82
7/4/2021 1:15:00 AM 16.62 61.916 0.055 7.05 2.53 8.84
7/4/2021 1:30:00 AM 16.55 61.79 0.056 7.04 2.5 8.85
7/4/2021 1:45:00 AM 16.49 61.682 0.056 7.05 2.53 8.86
7/4/2021 2:00:00 AM 16.43 61.574 0.056 7.05 2.59 8.88
7/4/2021 2:15:00 AM 16.37 61.466 0.055 7.04 2.65 8.89
7/4/2021 2:30:00 AM 16.31 61.358 0.056 7.04 2.85 8.91
7/4/2021 2:45:00 AM 16.26 61.268 0.056 7.04 3.08 8.92
7/4/2021 3:00:00 AM 16.21 61.178 0.056 7.05 3.22 8.94
7/4/2021 3:15:00 AM 16.16 61.088 0.056 7.04 3.11 8.95
7/4/2021 3:30:00 AM 16.1 60.98 0.056 7.05 2.94 8.95
7/4/2021 3:45:00 AM 16.04 60.872 0.056 7.03 2.72 8.97
7/4/2021 4:00:00 AM 15.99 60.782 0.057 7.04 2.69 8.99
7/4/2021 4:15:00 AM 15.93 60.674 0.057 7.03 2.61 8.99
7/4/2021 4:30:00 AM 15.88 60.584 0.057 7.04 2.59 9
7/4/2021 4:45:00 AM 15.83 60.494 0.057 7.03 2.71 9.01
7/4/2021 5:00:00 AM 15.78 60.404 0.058 7.03 2.66 9.01
7/4/2021 5:15:00 AM 15.75 60.35 0.057 7.03 2.61 9.02
7/4/2021 5:30:00 AM 15.7 60.26 0.057 7.04 2.54 9.03
7/4/2021 5:45:00 AM 15.66 60.188 0.057 7.02 2.62 9.04
7/4/2021 6:00:00 AM 15.62 60.116 0.058 7.04 2.5 9.06
7/4/2021 6:15:00 AM 15.58 60.044 0.058 7.03 2.52 9.09
7/4/2021 6:30:00 AM 15.53 59.954 0.058 7.04 2.44 9.1
7/4/2021 6:45:00 AM 15.5 59.9 0.058 7.04 2.41 9.12
7/4/2021 7:00:00 AM 15.46 59.828 0.058 7.05 2.4 9.14
7/4/2021 7:15:00 AM 15.43 59.774 0.058 7.05 2.44 9.16
7/4/2021 7:30:00 AM 15.4 59.72 0.058 7.05 2.41 9.2
7/4/2021 7:45:00 AM 15.39 59.702 0.058 7.07 2.38 9.24
7/4/2021 8:00:00 AM 15.39 59.702 0.058 7.08 2.55 9.29
7/4/2021 8:15:00 AM 15.4 59.72 0.057 7.08 2.53 9.33
7/4/2021 8:30:00 AM 15.41 59.738 0.057 7.09 2.53 9.36
7/4/2021 8:45:00 AM 15.4 59.72 0.057 7.1 2.44 9.38
7/4/2021 9:00:00 AM 15.48 59.864 0.057 7.13 2.41 9.41
7/4/2021 9:15:00 AM 15.6 60.08 0.057 7.13 2.45 9.41
7/4/2021 9:30:00 AM 15.71 60.278 0.056 7.14 2.4 9.38
7/4/2021 9:45:00 AM 15.78 60.404 0.056 7.14 2.4 9.36
7/4/2021 10:00:00 AM 15.87 60.566 0.056 7.15 2.32 9.36
7/4/2021 10:15:00 AM 16.01 60.818 0.056 7.16 2.37 9.34
7/4/2021 10:30:00 AM 16.19 61.142 0.056 7.15 2.33 9.31
7/4/2021 10:45:00 AM 16.41 61.538 0.056 7.16 2.23 9.28
7/4/2021 11:00:00 AM 16.62 61.916 0.056 7.18 2.36 9.26
7/4/2021 11:15:00 AM 16.8 62.24 0.056 7.18 2.17 9.24
7/4/2021 11:30:00 AM 17.04 62.672 0.056 7.19 2.22 9.2
7/4/2021 11:45:00 AM 17.34 63.212 0.056 7.21 2.24 9.17
7/4/2021 12:00:00 PM 17.55 63.59 0.055 7.22 2.42 9.14
7/4/2021 12:15:00 PM 17.84 64.112 0.055 7.23 2.48 9.09
7/4/2021 12:30:00 PM 18.17 64.706 0.055 7.23 2.37 9.07
7/4/2021 12:45:00 PM 18.49 65.282 0.055 7.24 2.45 9.02
7/4/2021 1:00:00 PM 18.78 65.804 0.055 7.25 2.51 8.99
7/4/2021 1:15:00 PM 18.94 66.092 0.055 7.25 2.46 8.95
7/4/2021 1:30:00 PM 19 66.2 0.055 7.25 2.38 8.92
7/4/2021 1:45:00 PM 19.21 66.578 0.055 7.27 2.4 8.9
7/4/2021 2:00:00 PM 19.4 66.92 0.055 7.25 2.29 8.85
7/4/2021 2:15:00 PM 19.52 67.136 0.055 7.25 2.37 8.82
7/4/2021 2:30:00 PM 19.64 67.352 0.055 7.25 2.33 8.76
7/4/2021 2:45:00 PM 19.84 67.712 0.055 7.26 2.41 8.75
7/4/2021 3:00:00 PM 20.14 68.252 0.055 7.27 2.15 8.73
7/4/2021 3:15:00 PM 20.4 68.72 0.055 7.26 2.24 8.69
7/4/2021 3:30:00 PM 20.66 69.188 0.055 7.27 2.31 8.66
7/4/2021 3:45:00 PM 20.84 69.512 0.055 7.29 2.27 8.65
7/4/2021 4:00:00 PM 20.97 69.746 0.055 7.29 2.22 8.63
7/4/2021 4:15:00 PM 21.07 69.926 0.055 7.29 2.21 8.57
7/4/2021 4:30:00 PM 21.11 69.998 0.055 7.29 2.19 8.53
7/4/2021 4:45:00 PM 21.07 69.926 0.055 7.27 2.46 8.49
7/4/2021 5:00:00 PM 21.14 70.052 0.055 7.28 2.51 8.48
7/4/2021 5:15:00 PM 21.17 70.106 0.055 7.27 2.37 8.47
7/4/2021 5:30:00 PM 21.15 70.07 0.055 7.27 2.32 8.45
7/4/2021 5:45:00 PM 21.12 70.016 0.055 7.27 2.36 8.44
7/4/2021 6:00:00 PM 21.06 69.908 0.055 7.26 2.49 8.42
7/4/2021 6:15:00 PM 20.97 69.746 0.055 7.25 2.25 8.41
7/4/2021 6:30:00 PM 20.89 69.602 0.055 7.24 2.28 8.4
7/4/2021 6:45:00 PM 20.8 69.44 0.055 7.23 2.33 8.39
7/4/2021 7:00:00 PM 20.69 69.242 0.055 7.24 2.37 8.37
7/4/2021 7:15:00 PM 20.56 69.008 0.055 7.2 2.37 8.36
7/4/2021 7:30:00 PM 20.42 68.756 0.055 7.18 2.37 8.35
7/4/2021 7:45:00 PM 20.27 68.486 0.056 7.19 2.24 8.36
7/4/2021 8:00:00 PM 20.12 68.216 0.056 7.19 2.26 8.36
7/4/2021 8:15:00 PM 19.96 67.92799 0.056 7.16 2.21 8.37
7/4/2021 8:30:00 PM 19.78 67.604 0.056 7.15 2.26 8.36
7/4/2021 8:45:00 PM 19.6 67.28 0.056 7.15 2.17 8.37
7/4/2021 9:00:00 PM 19.45 67.01 0.056 7.12 2.29 8.38
7/4/2021 9:15:00 PM 19.31 66.758 0.056 7.13 2.29 8.39
7/4/2021 9:30:00 PM 19.17 66.506 0.056 7.12 2.26 8.39
7/4/2021 9:45:00 PM 19.03 66.254 0.056 7.1 2.26 8.4
7/4/2021 10:00:00 PM 18.89 66.002 0.056 7.09 2.3 8.42
7/4/2021 10:15:00 PM 18.75 65.75 0.057 7.09 2.2 8.45
7/4/2021 10:30:00 PM 18.61 65.498 0.057 7.07 2.2 8.46
7/4/2021 10:45:00 PM 18.47 65.246 0.057 7.07 2.18 8.48
7/4/2021 11:00:00 PM 18.33 64.994 0.057 7.07 2.32 8.51
7/4/2021 11:15:00 PM 18.2 64.76 0.057 7.07 2.08 8.53
7/4/2021 11:30:00 PM 18.08 64.544 0.057 7.06 2.07 8.56
7/4/2021 11:45:00 PM 17.96 64.328 0.057 7.04 2.09 8.59
7/5/2021 12:00:00 AM 17.86 64.148 0.057 7.05 2.17 8.6
7/5/2021 12:15:00 AM 17.75 63.95 0.057 7.05 2.12 8.62
7/5/2021 12:30:00 AM 17.65 63.77 0.057 7.05 2.09 8.65
7/5/2021 12:45:00 AM 17.55 63.59 0.057 7.06 2.11 8.67
7/5/2021 1:00:00 AM 17.45 63.41 0.057 7.04 2.18 8.69
7/5/2021 1:15:00 AM 17.35 63.23 0.057 7.05 2.16 8.71
7/5/2021 1:30:00 AM 17.26 63.068 0.057 7.04 2.15 8.73
7/5/2021 1:45:00 AM 17.16 62.888 0.057 7.02 2.05 8.74
7/5/2021 2:00:00 AM 17.07 62.726 0.057 7.04 2.11 8.76
7/5/2021 2:15:00 AM 16.98 62.564 0.057 7.04 2.14 8.79
7/5/2021 2:30:00 AM 16.9 62.42 0.057 7.04 2.19 8.8
7/5/2021 2:45:00 AM 16.82 62.276 0.057 7.02 2.09 8.81
7/5/2021 3:00:00 AM 16.76 62.168 0.057 7.03 2.07 8.84
7/5/2021 3:15:00 AM 16.7 62.06 0.057 7.03 2.02 8.85
7/5/2021 3:30:00 AM 16.64 61.952 0.057 7.03 2.08 8.87
7/5/2021 3:45:00 AM 16.58 61.844 0.058 7.04 2.14 8.88
7/5/2021 4:00:00 AM 16.53 61.754 0.058 7.04 2.09 8.88
7/5/2021 4:15:00 AM 16.48 61.664 0.058 7.04 2.14 8.89
7/5/2021 4:30:00 AM 16.42 61.556 0.058 7.05 2.13 8.9
7/5/2021 4:45:00 AM 16.37 61.466 0.058 7.05 2.13 8.91
7/5/2021 5:00:00 AM 16.31 61.358 0.058 7.02 2.22 8.93
7/5/2021 5:15:00 AM 16.26 61.268 0.058 7.03 2.19 8.94
7/5/2021 5:30:00 AM 16.21 61.178 0.058 7.04 2.18 8.95
7/5/2021 5:45:00 AM 16.14 61.052 0.058 7.05 2.18 8.97
7/5/2021 6:00:00 AM 16.09 60.962 0.058 7.05 2.11 8.98
7/5/2021 6:15:00 AM 16.03 60.854 0.058 7.05 2.06 9.01
7/5/2021 6:30:00 AM 15.98 60.764 0.057 7.04 2.08 9.03
7/5/2021 6:45:00 AM 15.93 60.674 0.057 7.05 2.19 9.06
7/5/2021 7:00:00 AM 15.88 60.584 0.057 7.04 2.09 9.1
7/5/2021 7:15:00 AM 15.85 60.53 0.057 7.05 2.11 9.13
7/5/2021 7:30:00 AM 15.81 60.458 0.057 7.06 2.09 9.17
7/5/2021 7:45:00 AM 15.79 60.422 0.057 7.08 1.96 9.22
7/5/2021 8:00:00 AM 15.78 60.404 0.057 7.1 2.05 9.26
7/5/2021 8:15:00 AM 15.78 60.404 0.057 7.11 2.05 9.29
7/5/2021 8:30:00 AM 15.79 60.422 0.057 7.11 2.03 9.31
7/5/2021 8:45:00 AM 15.8 60.44 0.057 7.12 1.96 9.33
7/5/2021 9:00:00 AM 15.86 60.548 0.057 7.11 2.04 9.35
7/5/2021 9:15:00 AM 15.95 60.71 0.057 7.13 2.01 9.36
7/5/2021 9:30:00 AM 16.07 60.926 0.057 7.15 2.07 9.37
7/5/2021 9:45:00 AM 16.21 61.178 0.057 7.15 1.98 9.37
7/5/2021 10:00:00 AM 16.36 61.448 0.056 7.16 1.99 9.35
7/5/2021 10:15:00 AM 16.53 61.754 0.056 7.16 2.03 9.34
7/5/2021 10:30:00 AM 16.72 62.096 0.056 7.19 1.93 9.33
7/5/2021 10:45:00 AM 16.92 62.456 0.056 7.2 2.03 9.3
7/5/2021 11:00:00 AM 17.14 62.852 0.056 7.21 2 9.27
7/5/2021 11:15:00 AM 17.38 63.284 0.056 7.22 1.97 9.26
7/5/2021 11:30:00 AM 17.63 63.734 0.056 7.24 2.04 9.23
7/5/2021 11:45:00 AM 17.88 64.184 0.056 7.25 2.05 9.19
7/5/2021 12:00:00 PM 18.15 64.67 0.056 7.25 2.03 9.16
7/5/2021 12:15:00 PM 18.43 65.174 0.056 7.28 1.99 9.11
7/5/2021 12:30:00 PM 18.72 65.696 0.056 7.28 2.05 9.08
7/5/2021 12:45:00 PM 19.01 66.218 0.056 7.28 2.02 9.04
7/5/2021 1:00:00 PM 19.3 66.74 0.056 7.27 1.96 8.99
7/5/2021 1:15:00 PM 19.62 67.316 0.056 7.3 2.02 8.95
7/5/2021 1:30:00 PM 19.91 67.838 0.056 7.3 2.01 8.9
7/5/2021 1:45:00 PM 20.22 68.396 0.056 7.33 1.97 8.87
7/5/2021 2:00:00 PM 20.52 68.936 0.056 7.33 1.93 8.81
7/5/2021 2:15:00 PM 20.8 69.44 0.056 7.32 1.97 8.78
7/5/2021 2:30:00 PM 21.06 69.908 0.056 7.34 1.97 8.72
7/5/2021 2:45:00 PM 21.31 70.358 0.056 7.35 1.99 8.69
7/5/2021 3:00:00 PM 21.56 70.808 0.055 7.34 2.04 8.64
7/5/2021 3:15:00 PM 21.76 71.168 0.055 7.35 1.96 8.59
7/5/2021 3:30:00 PM 21.95 71.51 0.055 7.35 1.97 8.57
7/5/2021 3:45:00 PM 22.13 71.834 0.055 7.36 1.99 8.53
7/5/2021 4:00:00 PM 22.26 72.068 0.055 7.35 2.01 8.49
7/5/2021 4:15:00 PM 22.33 72.194 0.055 7.34 2.01 8.45
7/5/2021 4:30:00 PM 22.43 72.374 0.055 7.35 2.02 8.42
7/5/2021 4:45:00 PM 22.49 72.482 0.055 7.36 2.11 8.39
7/5/2021 5:00:00 PM 22.55 72.59 0.055 7.34 2.13 8.35
7/5/2021 5:15:00 PM 22.56 72.608 0.055 7.33 1.95 8.32
7/5/2021 5:30:00 PM 22.58 72.644 0.055 7.34 2.01 8.3
7/5/2021 5:45:00 PM 22.56 72.608 0.055 7.31 2.02 8.27
7/5/2021 6:00:00 PM 22.51 72.518 0.056 7.3 1.97 8.24
7/5/2021 6:15:00 PM 22.43 72.374 0.056 7.31 2.07 8.21
7/5/2021 6:30:00 PM 22.36 72.248 0.056 7.3 2 8.2
7/5/2021 6:45:00 PM 22.29 72.122 0.056 7.28 2.04 8.18
7/5/2021 7:00:00 PM 22.22 71.996 0.056 7.26 1.98 8.16
7/5/2021 7:15:00 PM 22.14 71.852 0.056 7.25 2.09 8.15
7/5/2021 7:30:00 PM 22.03 71.654 0.056 7.22 2.01 8.14
7/5/2021 7:45:00 PM 21.92 71.456 0.056 7.23 1.98 8.13
7/5/2021 8:00:00 PM 21.79 71.222 0.056 7.2 2.08 8.11
7/5/2021 8:15:00 PM 21.64 70.952 0.056 7.18 2.08 8.1
7/5/2021 8:30:00 PM 21.49 70.682 0.056 7.16 1.97 8.09
7/5/2021 8:45:00 PM 21.33 70.394 0.057 7.14 2.12 8.08
7/5/2021 9:00:00 PM 21.19 70.142 0.057 7.14 2.05 8.07
7/5/2021 9:15:00 PM 21.04 69.872 0.057 7.1 2.15 8.07
7/5/2021 9:30:00 PM 20.91 69.638 0.057 7.1 2.29 8.08
7/5/2021 9:45:00 PM 20.79 69.422 0.057 7.07 2.19 8.09
7/5/2021 10:00:00 PM 20.65 69.17 0.057 7.08 2.14 8.1
7/5/2021 10:15:00 PM 20.54 68.972 0.057 7.06 2.15 8.11
7/5/2021 10:30:00 PM 20.42 68.756 0.057 7.07 2.13 8.13
7/5/2021 10:45:00 PM 20.31 68.558 0.057 7.07 2.05 8.15
7/5/2021 11:00:00 PM 20.19 68.342 0.057 7.06 2.09 8.16
7/5/2021 11:15:00 PM 20.08 68.144 0.057 7.03 2.06 8.19
7/5/2021 11:30:00 PM 19.97 67.946 0.058 7.03 2 8.21
7/5/2021 11:45:00 PM 19.87 67.766 0.058 7.05 2.15 8.22
7/6/2021 12:00:00 AM 19.77 67.586 0.058 7.05 2.08 8.23
7/6/2021 12:15:00 AM 19.67 67.406 0.058 7.03 1.98 8.25
7/6/2021 12:30:00 AM 19.59 67.262 0.058 7.03 2.05 8.27
7/6/2021 12:45:00 AM 19.5 67.1 0.058 7.03 2.03 8.29
7/6/2021 1:00:00 AM 19.42 66.956 0.058 7.01 2.15 8.31
7/6/2021 1:15:00 AM 19.34 66.812 0.058 7.03 2.05 8.32
7/6/2021 1:30:00 AM 19.27 66.686 0.058 7.03 2.06 8.33
7/6/2021 1:45:00 AM 19.2 66.56 0.058 7.02 2.04 8.34
7/6/2021 2:00:00 AM 19.13 66.434 0.058 7.01 2.06 8.35
7/6/2021 2:15:00 AM 19.07 66.326 0.058 7.03 2.05 8.36
7/6/2021 2:30:00 AM 19.01 66.218 0.058 7.03 2.03 8.38
7/6/2021 2:45:00 AM 18.94 66.092 0.058 7.02 2.04 8.39
7/6/2021 3:00:00 AM 18.89 66.002 0.058 7.03 2.08 8.4
7/6/2021 3:15:00 AM 18.83 65.894 0.058 7.02 2.01 8.41
7/6/2021 3:30:00 AM 18.78 65.804 0.058 7.01 2.03 8.43
7/6/2021 3:45:00 AM 18.71 65.67799 0.058 7.03 2.07 8.44
7/6/2021 4:00:00 AM 18.66 65.588 0.058 7.03 1.95 8.44
7/6/2021 4:15:00 AM 18.6 65.48 0.058 7.02 2.05 8.46
7/6/2021 4:30:00 AM 18.55 65.39 0.058 7.01 2.02 8.46
7/6/2021 4:45:00 AM 18.5 65.3 0.058 7.02 2.19 8.47
7/6/2021 5:00:00 AM 18.44 65.192 0.058 7.02 2.06 8.48
7/6/2021 5:15:00 AM 18.38 65.084 0.058 7.02 2.2 8.49
7/6/2021 5:30:00 AM 18.32 64.976 0.058 7.01 2.2 8.5
7/6/2021 5:45:00 AM 18.26 64.868 0.058 7.02 2.17 8.52
7/6/2021 6:00:00 AM 18.2 64.76 0.058 7.01 2.17 8.54
7/6/2021 6:15:00 AM 18.14 64.652 0.058 7.02 2.1 8.56
7/6/2021 6:30:00 AM 18.1 64.58 0.058 7.02 2.13 8.59
7/6/2021 6:45:00 AM 18.05 64.49 0.058 7.03 2.08 8.63
7/6/2021 7:00:00 AM 18.02 64.436 0.058 7.04 2.1 8.68
7/6/2021 7:15:00 AM 17.99 64.382 0.058 7.05 2.04 8.72
7/6/2021 7:30:00 AM 17.97 64.346 0.058 7.05 1.96 8.75
7/6/2021 7:45:00 AM 17.95 64.31 0.058 7.06 2 8.8
7/6/2021 8:00:00 AM 17.96 64.328 0.058 7.07 1.99 8.84
7/6/2021 8:15:00 AM 18 64.4 0.058 7.09 2.06 8.88
7/6/2021 8:30:00 AM 18.05 64.49 0.058 7.11 2.06 8.91
7/6/2021 8:45:00 AM 18.12 64.616 0.058 7.13 1.89 8.94
7/6/2021 9:00:00 AM 18.23 64.814 0.057 7.15 2.01 8.95
7/6/2021 9:15:00 AM 18.33 64.994 0.057 7.16 1.99 8.95
7/6/2021 9:30:00 AM 18.45 65.21 0.057 7.17 1.97 8.94
7/6/2021 9:45:00 AM 18.55 65.39 0.057 7.18 2 8.94
7/6/2021 10:00:00 AM 18.65 65.57 0.057 7.21 1.94 8.93
7/6/2021 10:15:00 AM 18.8 65.84 0.057 7.22 1.91 8.93
7/6/2021 10:30:00 AM 18.96 66.128 0.057 7.23 1.86 8.92
7/6/2021 10:45:00 AM 19.1 66.38 0.057 7.24 1.97 8.9
7/6/2021 11:00:00 AM 19.27 66.686 0.057 7.26 1.94 8.9
7/6/2021 11:15:00 AM 19.45 67.01 0.057 7.27 1.99 8.89
7/6/2021 11:30:00 AM 19.64 67.352 0.057 7.28 1.95 8.86
7/6/2021 11:45:00 AM 19.83 67.694 0.057 7.29 1.95 8.83
7/6/2021 12:00:00 PM 20.01 68.018 0.057 7.31 1.94 8.82
7/6/2021 12:15:00 PM 20.29 68.522 0.057 7.3 1.98 8.78
7/6/2021 12:30:00 PM 20.62 69.116 0.057 7.32 1.91 8.75
7/6/2021 12:45:00 PM 20.84 69.512 0.056 7.31 1.99 8.71
7/6/2021 1:00:00 PM 21.06 69.908 0.056 7.33 1.99 8.67
7/6/2021 1:15:00 PM 21.37 70.466 0.056 7.35 1.93 8.65
7/6/2021 1:30:00 PM 21.6 70.88 0.056 7.34 1.95 8.61
7/6/2021 1:45:00 PM 21.59 70.862 0.056 7.33 2.29 8.51
7/6/2021 2:00:00 PM 21.42 70.556 0.056 7.32 2.01 8.4
7/6/2021 2:15:00 PM 21.27 70.286 0.056 7.26 2.01 8.31
7/6/2021 2:30:00 PM 21.23 70.214 0.056 7.23 2.18 8.26
7/6/2021 2:45:00 PM 21.23 70.214 0.056 7.22 2.07 8.29
7/6/2021 3:00:00 PM 21.27 70.286 0.056 7.26 2.04 8.39
7/6/2021 3:15:00 PM 21.38 70.484 0.056 7.27 2.15 8.46
7/6/2021 3:30:00 PM 21.6 70.88 0.056 7.28 2.2 8.49
7/6/2021 3:45:00 PM 21.77 71.186 0.056 7.31 2.2 8.48
7/6/2021 4:00:00 PM 21.83 71.294 0.056 7.28 2.19 8.45
7/6/2021 4:15:00 PM 21.86 71.348 0.056 7.31 2.1 8.43
7/6/2021 4:30:00 PM 21.9 71.42 0.056 7.3 2.14 8.4
7/6/2021 4:45:00 PM 21.94 71.492 0.056 7.29 2.16 8.36
7/6/2021 5:00:00 PM 21.96 71.528 0.056 7.29 2.14 8.34
7/6/2021 5:15:00 PM 21.97 71.546 0.056 7.28 2.09 8.33
7/6/2021 5:30:00 PM 21.96 71.528 0.056 7.27 2.07 8.34
7/6/2021 5:45:00 PM 21.95 71.51 0.056 7.29 2.12 8.36
7/6/2021 6:00:00 PM 21.92 71.456 0.056 7.27 2.07 8.36
7/6/2021 6:15:00 PM 21.85 71.33 0.056 7.28 2.06 8.33
7/6/2021 6:30:00 PM 21.81 71.258 0.056 7.26 2.03 8.32
7/6/2021 6:45:00 PM 21.76 71.168 0.056 7.27 2.11 8.29
7/6/2021 7:00:00 PM 21.72 71.096 0.056 7.23 2.07 8.24
7/6/2021 7:15:00 PM 21.68 71.024 0.056 7.22 2.12 8.19
7/6/2021 7:30:00 PM 21.63 70.934 0.056 7.2 2.08 8.18
7/6/2021 7:45:00 PM 21.57 70.826 0.056 7.19 2.13 8.17
7/6/2021 8:00:00 PM 21.48 70.664 0.057 7.18 2.12 8.17
7/6/2021 8:15:00 PM 21.39 70.502 0.057 7.16 2.3 8.16
7/6/2021 8:30:00 PM 21.29 70.32201 0.057 7.15 2.01 8.14
7/6/2021 8:45:00 PM 21.17 70.106 0.057 7.12 2.08 8.11
7/6/2021 9:00:00 PM 21.08 69.944 0.057 7.11 2.11 8.1
7/6/2021 9:15:00 PM 20.98 69.764 0.057 7.11 2.15 8.09
7/6/2021 9:30:00 PM 20.88 69.584 0.058 7.08 2.24 8.08
7/6/2021 9:45:00 PM 20.79 69.422 0.058 7.08 2.17 8.1
7/6/2021 10:00:00 PM 20.68 69.224 0.058 7.09 2.23 8.11
7/6/2021 10:15:00 PM 20.57 69.026 0.058 7.07 2.15 8.11
7/6/2021 10:30:00 PM 20.46 68.828 0.058 7.06 2.25 8.12
7/6/2021 10:45:00 PM 20.36 68.648 0.058 7.07 2.04 8.14
7/6/2021 11:00:00 PM 20.25 68.45 0.058 7.06 2.04 8.16
7/6/2021 11:15:00 PM 20.15 68.27 0.058 7.04 2.17 8.17
7/6/2021 11:30:00 PM 20.06 68.108 0.058 7.05 2.04 8.19
7/6/2021 11:45:00 PM 19.97 67.946 0.058 7.04 2.03 8.2
7/7/2021 12:00:00 AM 19.87 67.766 0.058 7.05 2.1 8.22
7/7/2021 12:15:00 AM 19.79 67.622 0.059 7.04 2.03 8.23
7/7/2021 12:30:00 AM 19.7 67.46 0.059 7.05 2.01 8.25
7/7/2021 12:45:00 AM 19.61 67.298 0.059 7.04 2.08 8.27
7/7/2021 1:00:00 AM 19.52 67.136 0.059 7.04 2.03 8.28
7/7/2021 1:15:00 AM 19.44 66.992 0.059 7.01 2.01 8.3
7/7/2021 1:30:00 AM 19.35 66.83 0.059 7.02 2.02 8.32
7/7/2021 1:45:00 AM 19.28 66.704 0.059 7.03 2.1 8.33
7/7/2021 2:00:00 AM 19.22 66.596 0.059 7.02 2.1 8.33
7/7/2021 2:15:00 AM 19.15 66.47 0.059 7.04 2.01 8.34
7/7/2021 2:30:00 AM 19.08 66.344 0.059 7.04 2.03 8.36
7/7/2021 2:45:00 AM 19.03 66.254 0.059 7.03 2.08 8.37
7/7/2021 3:00:00 AM 18.97 66.146 0.059 7.03 2.04 8.39
7/7/2021 3:15:00 AM 18.91 66.038 0.059 7.03 1.99 8.4
7/7/2021 3:30:00 AM 18.86 65.948 0.059 7.03 1.99 8.41
7/7/2021 3:45:00 AM 18.83 65.894 0.059 7.03 1.98 8.42
7/7/2021 4:00:00 AM 18.78 65.804 0.059 7.03 2.05 8.41
7/7/2021 4:15:00 AM 18.73 65.714 0.059 7.03 2.06 8.42
7/7/2021 4:30:00 AM 18.68 65.624 0.059 7.03 2.02 8.42
7/7/2021 4:45:00 AM 18.63 65.534 0.059 7.03 2.09 8.45
7/7/2021 5:00:00 AM 18.59 65.462 0.059 7.01 2.23 8.45
7/7/2021 5:15:00 AM 18.54 65.372 0.059 7.03 2.38 8.45
7/7/2021 5:30:00 AM 18.49 65.282 0.059 7.03 2.23 8.47
7/7/2021 5:45:00 AM 18.44 65.192 0.059 7.03 2.23 8.49
7/7/2021 6:00:00 AM 18.39 65.102 0.059 7.02 2.12 8.49
7/7/2021 6:15:00 AM 18.34 65.012 0.059 7.03 2.09 8.52
7/7/2021 6:30:00 AM 18.29 64.922 0.059 7.03 2.23 8.55
7/7/2021 6:45:00 AM 18.25 64.85 0.059 7.03 2.15 8.58
7/7/2021 7:00:00 AM 18.22 64.796 0.059 7.04 2.07 8.62
7/7/2021 7:15:00 AM 18.2 64.76 0.059 7.05 2.06 8.66
7/7/2021 7:30:00 AM 18.18 64.724 0.059 7.08 1.95 8.7
7/7/2021 7:45:00 AM 18.16 64.688 0.059 7.07 1.98 8.74
7/7/2021 8:00:00 AM 18.16 64.688 0.058 7.08 1.99 8.77
7/7/2021 8:15:00 AM 18.17 64.706 0.058 7.1 1.97 8.81
7/7/2021 8:30:00 AM 18.21 64.778 0.058 7.11 2.03 8.84
7/7/2021 8:45:00 AM 18.26 64.868 0.058 7.13 1.94 8.86
7/7/2021 9:00:00 AM 18.34 65.012 0.058 7.13 1.92 8.88
7/7/2021 9:15:00 AM 18.43 65.174 0.058 7.16 1.95 8.89
7/7/2021 9:30:00 AM 18.53 65.354 0.058 7.17 1.97 8.9
7/7/2021 9:45:00 AM 18.66 65.588 0.058 7.18 1.9 8.91
7/7/2021 10:00:00 AM 18.82 65.876 0.057 7.19 1.96 8.91
7/7/2021 10:15:00 AM 18.99 66.182 0.057 7.21 1.95 8.92
7/7/2021 10:30:00 AM 19.17 66.506 0.057 7.23 1.92 8.9
7/7/2021 10:45:00 AM 19.37 66.866 0.057 7.25 2.03 8.9
7/7/2021 11:00:00 AM 19.57 67.226 0.057 7.26 1.85 8.87
7/7/2021 11:15:00 AM 19.75 67.55 0.057 7.27 2.22 8.84
7/7/2021 11:30:00 AM 19.98 67.964 0.057 7.29 1.98 8.83
7/7/2021 11:45:00 AM 20.25 68.45 0.057 7.3 1.95 8.8
7/7/2021 12:00:00 PM 20.53 68.954 0.057 7.31 1.97 8.76
7/7/2021 12:15:00 PM 20.8 69.44 0.057 7.32 1.9 8.73
7/7/2021 12:30:00 PM 21.06 69.908 0.057 7.32 1.85 8.69
7/7/2021 12:45:00 PM 21.27 70.286 0.057 7.32 1.99 8.66
7/7/2021 1:00:00 PM 21.5 70.7 0.057 7.34 1.91 8.62
7/7/2021 1:15:00 PM 21.76 71.168 0.057 7.35 1.98 8.59
7/7/2021 1:30:00 PM 21.97 71.546 0.057 7.35 1.99 8.57
7/7/2021 1:45:00 PM 22.1 71.78 0.057 7.36 1.96 8.52
7/7/2021 2:00:00 PM 22.17 71.906 0.057 7.34 1.85 8.49
7/7/2021 2:15:00 PM 22.33 72.194 0.056 7.37 1.9 8.48
7/7/2021 2:30:00 PM 22.53 72.554 0.056 7.37 1.99 8.45
7/7/2021 2:45:00 PM 22.75 72.95 0.056 7.39 1.88 8.45
7/7/2021 3:00:00 PM 22.93 73.274 0.056 7.39 1.88 8.42
7/7/2021 3:15:00 PM 23.2 73.76 0.056 7.39 2.2 8.39
7/7/2021 3:30:00 PM 23.33 73.994 0.056 7.39 2.18 8.35
7/7/2021 3:45:00 PM 23.37 74.066 0.056 7.38 1.87 8.27
7/7/2021 4:00:00 PM 23.47 74.246 0.056 7.38 1.97 8.24
7/7/2021 4:15:00 PM 23.51 74.318 0.056 7.36 1.98 8.19
7/7/2021 4:30:00 PM 23.6 74.48 0.056 7.37 1.93 8.2
7/7/2021 4:45:00 PM 23.7 74.66 0.056 7.36 1.88 8.18
7/7/2021 5:00:00 PM 23.65 74.57 0.056 7.36 1.86 8.13
7/7/2021 5:15:00 PM 23.68 74.624 0.056 7.35 1.86 8.13
7/7/2021 5:30:00 PM 23.65 74.57 0.056 7.35 2.03 8.11
7/7/2021 5:45:00 PM 23.63 74.534 0.056 7.34 2.02 8.1
7/7/2021 6:00:00 PM 23.57 74.426 0.056 7.33 1.91 8.08
7/7/2021 6:15:00 PM 23.52 74.336 0.056 7.33 1.98 8.05
7/7/2021 6:30:00 PM 23.48 74.264 0.056 7.29 1.96 8.03
7/7/2021 6:45:00 PM 23.43 74.174 0.056 7.28 2 7.99
7/7/2021 7:00:00 PM 23.36 74.048 0.057 7.26 2 7.93
7/7/2021 7:15:00 PM 23.27 73.886 0.057 7.24 2.23 7.9
7/7/2021 7:30:00 PM 23.18 73.724 0.057 7.23 1.96 7.88
7/7/2021 7:45:00 PM 23.07 73.526 0.057 7.19 2.24 7.87
7/7/2021 8:00:00 PM 22.94 73.292 0.057 7.22 2.36 7.87
7/7/2021 8:15:00 PM 22.69 72.842 0.057 7.2 2.26 7.84
7/7/2021 8:30:00 PM 22.49 72.482 0.057 7.2 2.28 7.83
7/7/2021 8:45:00 PM 22.31 72.158 0.057 7.16 2.16 7.82
7/7/2021 9:00:00 PM 22.15 71.87 0.058 7.14 2.15 7.84
7/7/2021 9:15:00 PM 21.99 71.582 0.057 7.13 2.2 7.86
7/7/2021 9:30:00 PM 21.84 71.312 0.057 7.14 2.18 7.89
7/7/2021 9:45:00 PM 21.69 71.042 0.057 7.14 2.24 7.89
7/7/2021 10:00:00 PM 21.55 70.79 0.057 7.12 2.15 7.89
7/7/2021 10:15:00 PM 21.42 70.556 0.057 7.11 2.05 7.91
7/7/2021 10:30:00 PM 21.31 70.358 0.057 7.1 2.36 7.93
7/7/2021 10:45:00 PM 21.19 70.142 0.057 7.08 2.7 7.95
7/7/2021 11:00:00 PM 21.07 69.926 0.057 7.08 2.85 7.97
7/7/2021 11:15:00 PM 20.96 69.728 0.057 7.08 2.54 7.99
7/7/2021 11:30:00 PM 20.85 69.53 0.057 7.09 2.4 8.01
7/7/2021 11:45:00 PM 20.74 69.332 0.057 7.08 2.42 8.03
7/8/2021 12:00:00 AM 20.64 69.152 0.057 7.09 2.46 8.05
7/8/2021 12:15:00 AM 20.55 68.99 0.057 7.09 2.33 8.08
7/8/2021 12:30:00 AM 20.44 68.792 0.057 7.08 2.09 8.08
7/8/2021 12:45:00 AM 20.36 68.648 0.057 7.08 2.16 8.11
7/8/2021 1:00:00 AM 20.28 68.504 0.057 7.09 2.18 8.13
7/8/2021 1:15:00 AM 20.21 68.378 0.057 7.08 2.57 8.14
7/8/2021 1:30:00 AM 20.13 68.234 0.057 7.07 2.33 8.16
7/8/2021 1:45:00 AM 20.05 68.09 0.057 7.07 2.31 8.17
7/8/2021 2:00:00 AM 19.98 67.964 0.057 7.07 2.17 8.19
7/8/2021 2:15:00 AM 19.92 67.856 0.057 7.07 2.53 8.21
7/8/2021 2:30:00 AM 19.85 67.73 0.057 7.07 2.49 8.21
7/8/2021 2:45:00 AM 19.79 67.622 0.057 7.07 2.36 8.22
7/8/2021 3:00:00 AM 19.73 67.514 0.057 7.08 2.18 8.23
7/8/2021 3:15:00 AM 19.66 67.388 0.057 7.07 2.17 8.24
7/8/2021 3:30:00 AM 19.6 67.28 0.057 7.07 2.19 8.27
7/8/2021 3:45:00 AM 19.54 67.172 0.058 7.06 2.18 8.27
7/8/2021 4:00:00 AM 19.48 67.064 0.057 7.06 2.1 8.28
7/8/2021 4:15:00 AM 19.42 66.956 0.057 7.06 2.17 8.3
7/8/2021 4:30:00 AM 19.36 66.848 0.057 7.05 2.2 8.31
7/8/2021 4:45:00 AM 19.29 66.722 0.057 7.06 2.23 8.32
7/8/2021 5:00:00 AM 19.21 66.578 0.057 7.06 2.8 8.32
7/8/2021 5:15:00 AM 19.15 66.47 0.057 7.06 2.75 8.33
7/8/2021 5:30:00 AM 19.1 66.38 0.057 7.05 2.63 8.34
7/8/2021 5:45:00 AM 19.03 66.254 0.057 7.04 2.52 8.35
7/8/2021 6:00:00 AM 18.98 66.164 0.057 7.06 2.5 8.38
7/8/2021 6:15:00 AM 18.94 66.092 0.057 7.05 2.21 8.4
7/8/2021 6:30:00 AM 18.9 66.02 0.057 7.06 2.32 8.41
7/8/2021 6:45:00 AM 18.86 65.948 0.057 7.07 2.23 8.44
7/8/2021 7:00:00 AM 18.83 65.894 0.057 7.06 2.2 8.47
7/8/2021 7:15:00 AM 18.81 65.858 0.057 7.07 2.75 8.51
7/8/2021 7:30:00 AM 18.79 65.82201 0.057 7.07 2.33 8.54
7/8/2021 7:45:00 AM 18.78 65.804 0.057 7.09 2.44 8.56
7/8/2021 8:00:00 AM 18.77 65.786 0.057 7.09 2.21 8.56
7/8/2021 8:15:00 AM 18.76 65.768 0.057 7.08 2.06 8.57
7/8/2021 8:30:00 AM 18.75 65.75 0.057 7.09 2.03 8.6
7/8/2021 8:45:00 AM 18.77 65.786 0.057 7.1 2.02 8.64
7/8/2021 9:00:00 AM 18.77 65.786 0.057 7.11 2.43 8.66
7/8/2021 9:15:00 AM 18.77 65.786 0.057 7.12 2.19 8.66
7/8/2021 9:30:00 AM 18.78 65.804 0.057 7.11 2.09 8.69
7/8/2021 9:45:00 AM 18.81 65.858 0.057 7.14 2.33 8.73
7/8/2021 10:00:00 AM 18.83 65.894 0.057 7.13 2.24 8.73
7/8/2021 10:15:00 AM 18.85 65.93 0.057 7.15 2.27 8.75
7/8/2021 10:30:00 AM 18.95 66.11 0.057 7.18 2.07 8.83
7/8/2021 10:45:00 AM 19.06 66.308 0.057 7.2 2.03 8.86
7/8/2021 11:00:00 AM 19.19 66.542 0.056 7.23 2.04 8.89
7/8/2021 11:15:00 AM 19.37 66.866 0.056 7.24 2.1 8.93
7/8/2021 11:30:00 AM 19.48 67.064 0.056 7.28 2.1 8.92
7/8/2021 11:45:00 AM 19.6 67.28 0.056 7.28 2.02 8.91
7/8/2021 12:00:00 PM 19.79 67.622 0.056 7.3 2.03 8.88
7/8/2021 12:15:00 PM 20.03 68.054 0.056 7.31 2.08 8.88
7/8/2021 12:30:00 PM 20.2 68.36 0.056 7.33 2.07 8.86
7/8/2021 12:45:00 PM 20.27 68.486 0.056 7.33 1.97 8.81
7/8/2021 1:00:00 PM 20.33 68.594 0.056 7.34 2.04 8.77
7/8/2021 1:15:00 PM 20.4 68.72 0.056 7.31 1.99 8.7
7/8/2021 1:30:00 PM 20.47 68.846 0.056 7.32 1.96 8.68
7/8/2021 1:45:00 PM 20.53 68.954 0.056 7.32 1.96 8.68
7/8/2021 2:00:00 PM 20.58 69.044 0.056 7.34 2.1 8.71
7/8/2021 2:15:00 PM 20.62 69.116 0.056 7.35 2.04 8.72
7/8/2021 2:30:00 PM 20.61 69.098 0.056 7.37 2.03 8.69
7/8/2021 2:45:00 PM 20.6 69.08 0.056 7.35 1.99 8.68
7/8/2021 3:00:00 PM 20.64 69.152 0.056 7.37 1.94 8.69
7/8/2021 3:15:00 PM 20.69 69.242 0.056 7.37 1.98 8.67
7/8/2021 3:30:00 PM 20.76 69.368 0.056 7.38 2.12 8.68
7/8/2021 3:45:00 PM 20.75 69.35 0.056 7.37 1.95 8.63
7/8/2021 4:00:00 PM 20.76 69.368 0.056 7.36 2 8.64
7/8/2021 4:15:00 PM 20.79 69.422 0.056 7.37 2.01 8.64
7/8/2021 4:30:00 PM 20.78 69.404 0.056 7.34 1.95 8.62
7/8/2021 4:45:00 PM 20.8 69.44 0.056 7.37 1.97 8.62
7/8/2021 5:00:00 PM 20.81 69.458 0.056 7.37 1.99 8.59
7/8/2021 5:15:00 PM 20.83 69.494 0.056 7.36 1.91 8.61
7/8/2021 5:30:00 PM 20.81 69.458 0.056 7.35 1.98 8.55
7/8/2021 5:45:00 PM 20.75 69.35 0.056 7.32 1.9 8.48
7/8/2021 6:00:00 PM 20.7 69.26 0.056 7.29 2.02 8.44
7/8/2021 6:15:00 PM 20.67 69.206 0.056 7.29 1.89 8.45
7/8/2021 6:30:00 PM 20.64 69.152 0.056 7.28 2.11 8.43
7/8/2021 6:45:00 PM 20.59 69.062 0.056 7.26 1.97 8.39
7/8/2021 7:00:00 PM 20.53 68.954 0.056 7.25 2.06 8.37
7/8/2021 7:15:00 PM 20.46 68.828 0.055 7.22 2.05 8.34
7/8/2021 7:30:00 PM 20.39 68.702 0.055 7.2 2.17 8.33
7/8/2021 7:45:00 PM 20.34 68.612 0.055 7.2 2.06 8.31
7/8/2021 8:00:00 PM 20.28 68.504 0.055 7.18 2.09 8.31
7/8/2021 8:15:00 PM 20.22 68.396 0.056 7.16 2.18 8.29
7/8/2021 8:30:00 PM 20.16 68.288 0.056 7.16 2.44 8.27
7/8/2021 8:45:00 PM 20.08 68.144 0.056 7.13 2.58 8.26
7/8/2021 9:00:00 PM 20.01 68.018 0.056 7.13 2.53 8.25
7/8/2021 9:15:00 PM 19.94 67.892 0.056 7.1 2.5 8.24
7/8/2021 9:30:00 PM 19.88 67.784 0.056 7.09 2.39 8.22
7/8/2021 9:45:00 PM 19.81 67.658 0.056 7.08 2.38 8.22
7/8/2021 10:00:00 PM 19.74 67.532 0.056 7.08 2.27 8.23
7/8/2021 10:15:00 PM 19.68 67.424 0.056 7.07 2.47 8.24
7/8/2021 10:30:00 PM 19.62 67.316 0.057 7.06 2.55 8.26
7/8/2021 10:45:00 PM 19.56 67.208 0.057 7.04 2.34 8.28
7/8/2021 11:00:00 PM 19.5 67.1 0.057 7.06 2.38 8.29
7/8/2021 11:15:00 PM 19.45 67.01 0.057 7.06 2.37 8.3
7/8/2021 11:30:00 PM 19.39 66.902 0.057 7.05 2.29 8.31
7/8/2021 11:45:00 PM 19.33 66.794 0.058 7.05 2.42 8.31
7/9/2021 12:00:00 AM 19.26 66.668 0.059 7.07 2.89 8.33
7/9/2021 12:15:00 AM 19.15 66.47 0.06 7.07 3.68 8.33
7/9/2021 12:30:00 AM 19.04 66.272 0.062 7.08 4.63 8.36
7/9/2021 12:45:00 AM 18.93 66.074 0.063 7.09 5.49 8.39
7/9/2021 1:00:00 AM 18.84 65.912 0.064 7.1 6.66 8.41
7/9/2021 1:15:00 AM 18.77 65.786 0.065 7.1 7.11 8.42
7/9/2021 1:30:00 AM 18.71 65.67799 0.067 7.1 7.86 8.42
7/9/2021 1:45:00 AM 18.66 65.588 0.067 7.1 8.13 8.43
7/9/2021 2:00:00 AM 18.62 65.516 0.067 7.11 7.92 8.43
7/9/2021 2:15:00 AM 18.58 65.444 0.067 7.1 8.16 8.43
7/9/2021 2:30:00 AM 18.55 65.39 0.066 7.1 7.96 8.43
7/9/2021 2:45:00 AM 18.5 65.3 0.066 7.1 7.94 8.43
7/9/2021 3:00:00 AM 18.46 65.228 0.065 7.1 7.76 8.44
7/9/2021 3:15:00 AM 18.41 65.138 0.064 7.09 7.57 8.45
7/9/2021 3:30:00 AM 18.37 65.066 0.064 7.1 6.99 8.45
7/9/2021 3:45:00 AM 18.34 65.012 0.063 7.08 6.49 8.46
7/9/2021 4:00:00 AM 18.3 64.94 0.063 7.08 5.92 8.48
7/9/2021 4:15:00 AM 18.26 64.868 0.062 7.09 5.38 8.48
7/9/2021 4:30:00 AM 18.23 64.814 0.062 7.09 4.96 8.5
7/9/2021 4:45:00 AM 18.21 64.778 0.062 7.09 4.67 8.5
7/9/2021 5:00:00 AM 18.18 64.724 0.061 7.09 4.25 8.51
7/9/2021 5:15:00 AM 18.16 64.688 0.061 7.09 4.03 8.51
7/9/2021 5:30:00 AM 18.14 64.652 0.061 7.09 4.04 8.52
7/9/2021 5:45:00 AM 18.12 64.616 0.061 7.09 3.84 8.53
7/9/2021 6:00:00 AM 18.1 64.58 0.061 7.09 3.61 8.53
7/9/2021 6:15:00 AM 18.07 64.526 0.06 7.08 3.44 8.53
7/9/2021 6:30:00 AM 18.06 64.508 0.06 7.09 3.44 8.56
7/9/2021 6:45:00 AM 18.04 64.472 0.06 7.09 3.23 8.58
7/9/2021 7:00:00 AM 18.03 64.454 0.06 7.1 3.21 8.61
7/9/2021 7:15:00 AM 18.02 64.436 0.06 7.1 3.09 8.63
7/9/2021 7:30:00 AM 18.02 64.436 0.06 7.1 2.98 8.67
7/9/2021 7:45:00 AM 18.05 64.49 0.06 7.12 2.9 8.75
7/9/2021 8:00:00 AM 18.09 64.562 0.06 7.14 2.85 8.81
7/9/2021 8:15:00 AM 18.13 64.634 0.059 7.15 2.69 8.86
7/9/2021 8:30:00 AM 18.19 64.742 0.059 7.17 2.68 8.89
7/9/2021 8:45:00 AM 18.25 64.85 0.059 7.2 2.53 8.92
7/9/2021 9:00:00 AM 18.37 65.066 0.059 7.2 2.5 8.96
7/9/2021 9:15:00 AM 18.47 65.246 0.059 7.23 2.42 8.95
7/9/2021 9:30:00 AM 18.57 65.426 0.059 7.24 2.45 8.94
7/9/2021 9:45:00 AM 18.69 65.642 0.058 7.27 2.48 8.97
7/9/2021 10:00:00 AM 18.77 65.786 0.058 7.29 2.4 8.95
7/9/2021 10:15:00 AM 18.84 65.912 0.058 7.29 2.3 8.93
7/9/2021 10:30:00 AM 18.88 65.984 0.058 7.27 2.31 8.91
7/9/2021 10:45:00 AM 18.93 66.074 0.058 7.29 2.28 8.91
7/9/2021 11:00:00 AM 18.97 66.146 0.058 7.29 2.32 8.91
7/9/2021 11:15:00 AM 19.08 66.344 0.058 7.3 2.32 8.9
7/9/2021 11:30:00 AM 19.12 66.416 0.058 7.29 2.19 8.85
7/9/2021 11:45:00 AM 19.19 66.542 0.058 7.3 2.24 8.88
7/9/2021 12:00:00 PM 19.33 66.794 0.058 7.32 2.25 8.9
7/9/2021 12:15:00 PM 19.44 66.992 0.058 7.34 2.2 8.88
7/9/2021 12:30:00 PM 19.55 67.19 0.058 7.34 2.21 8.88
7/9/2021 12:45:00 PM 19.78 67.604 0.058 7.37 2.24 8.87
7/9/2021 1:00:00 PM 19.9 67.82 0.058 7.35 2.19 8.79
7/9/2021 1:15:00 PM 19.84 67.712 0.058 7.34 2.14 8.74
7/9/2021 1:30:00 PM 19.84 67.712 0.058 7.34 2.14 8.73
7/9/2021 1:45:00 PM 19.99 67.982 0.058 7.34 2.16 8.75
7/9/2021 2:00:00 PM 20.45 68.81 0.058 7.37 2.07 8.73
7/9/2021 2:15:00 PM 20.79 69.422 0.058 7.36 2.09 8.66
7/9/2021 2:30:00 PM 20.68 69.224 0.058 7.35 2.11 8.57
7/9/2021 2:45:00 PM 20.52 68.936 0.058 7.35 2.2 8.58
7/9/2021 3:00:00 PM 20.69 69.242 0.057 7.35 2.09 8.64
7/9/2021 3:15:00 PM 21.03 69.854 0.057 7.38 2.17 8.64
7/9/2021 3:30:00 PM 21.2 70.16 0.057 7.39 2.13 8.62
7/9/2021 3:45:00 PM 21.29 70.32201 0.057 7.4 2.2 8.61
7/9/2021 4:00:00 PM 21.46 70.628 0.057 7.4 2.17 8.61
7/9/2021 4:15:00 PM 21.5 70.7 0.057 7.39 2.17 8.57
7/9/2021 4:30:00 PM 21.54 70.772 0.057 7.39 2.16 8.54
7/9/2021 4:45:00 PM 21.69 71.042 0.057 7.4 2.2 8.53
7/9/2021 5:00:00 PM 21.79 71.222 0.057 7.41 2.09 8.48
7/9/2021 5:15:00 PM 21.83 71.294 0.057 7.4 2.2 8.45
7/9/2021 5:30:00 PM 21.88 71.384 0.057 7.4 2.27 8.45
7/9/2021 5:45:00 PM 21.9 71.42 0.057 7.39 2.25 8.42
7/9/2021 6:00:00 PM 21.9 71.42 0.057 7.38 2.16 8.38
7/9/2021 6:15:00 PM 21.86 71.348 0.057 7.38 2.15 8.33
7/9/2021 6:30:00 PM 21.82 71.276 0.057 7.35 2.22 8.31
7/9/2021 6:45:00 PM 21.76 71.168 0.057 7.35 2.18 8.29
7/9/2021 7:00:00 PM 21.68 71.024 0.057 7.34 2.14 8.28
7/9/2021 7:15:00 PM 21.59 70.862 0.057 7.32 2.23 8.28
7/9/2021 7:30:00 PM 21.5 70.7 0.057 7.3 2.12 8.26
7/9/2021 7:45:00 PM 21.4 70.52 0.057 7.29 2.29 8.26
7/9/2021 8:00:00 PM 21.28 70.304 0.058 7.27 2.24 8.24
7/9/2021 8:15:00 PM 21.16 70.088 0.058 7.28 2.25 8.21
7/9/2021 8:30:00 PM 21.05 69.89 0.058 7.24 2.16 8.18
7/9/2021 8:45:00 PM 20.92 69.656 0.058 7.23 2.33 8.16
7/9/2021 9:00:00 PM 20.78 69.404 0.058 7.22 2.47 8.15
7/9/2021 9:15:00 PM 20.64 69.152 0.058 7.2 2.49 8.15
7/9/2021 9:30:00 PM 20.5 68.9 0.058 7.17 2.48 8.14
7/9/2021 9:45:00 PM 20.36 68.648 0.059 7.18 2.34 8.15
7/9/2021 10:00:00 PM 20.22 68.396 0.059 7.15 2.36 8.17
7/9/2021 10:15:00 PM 20.1 68.18 0.059 7.15 2.34 8.19
7/9/2021 10:30:00 PM 19.96 67.92799 0.059 7.15 2.27 8.21
7/9/2021 10:45:00 PM 19.84 67.712 0.059 7.14 2.32 8.22
7/9/2021 11:00:00 PM 19.71 67.478 0.059 7.13 2.18 8.24
7/9/2021 11:15:00 PM 19.58 67.244 0.059 7.13 2.24 8.27
7/9/2021 11:30:00 PM 19.45 67.01 0.059 7.12 2.19 8.29
7/9/2021 11:45:00 PM 19.32 66.776 0.06 7.12 2.18 8.32
7/10/2021 12:00:00 AM 19.21 66.578 0.06 7.14 2.23 8.33
7/10/2021 12:15:00 AM 19.09 66.362 0.06 7.12 2.33 8.35
7/10/2021 12:30:00 AM 18.98 66.164 0.06 7.1 2.24 8.37
7/10/2021 12:45:00 AM 18.87 65.966 0.06 7.11 2.18 8.39
7/10/2021 1:00:00 AM 18.78 65.804 0.06 7.1 2.4 8.41
7/10/2021 1:15:00 AM 18.69 65.642 0.06 7.1 2.28 8.43
7/10/2021 1:30:00 AM 18.6 65.48 0.06 7.1 2.2 8.45
7/10/2021 1:45:00 AM 18.51 65.318 0.06 7.1 2.29 8.45
7/10/2021 2:00:00 AM 18.44 65.192 0.06 7.11 2.32 8.47
7/10/2021 2:15:00 AM 18.37 65.066 0.06 7.1 2.19 8.48
7/10/2021 2:30:00 AM 18.31 64.958 0.06 7.09 2.27 8.49
7/10/2021 2:45:00 AM 18.25 64.85 0.06 7.09 2.3 8.51
7/10/2021 3:00:00 AM 18.19 64.742 0.06 7.09 2.23 8.52
7/10/2021 3:15:00 AM 18.13 64.634 0.06 7.09 2.23 8.54
7/10/2021 3:30:00 AM 18.06 64.508 0.06 7.1 2.34 8.54
7/10/2021 3:45:00 AM 18 64.4 0.06 7.07 2.15 8.56
7/10/2021 4:00:00 AM 17.93 64.274 0.06 7.09 2.21 8.57
7/10/2021 4:15:00 AM 17.87 64.166 0.06 7.09 2.25 8.59
7/10/2021 4:30:00 AM 17.79 64.022 0.06 7.08 2.19 8.59
7/10/2021 4:45:00 AM 17.71 63.878 0.06 7.09 2.31 8.61
7/10/2021 5:00:00 AM 17.64 63.752 0.06 7.07 2.26 8.63
7/10/2021 5:15:00 AM 17.56 63.608 0.06 7.08 2.42 8.63
7/10/2021 5:30:00 AM 17.48 63.464 0.06 7.06 2.43 8.65
7/10/2021 5:45:00 AM 17.4 63.32 0.06 7.08 2.36 8.68
7/10/2021 6:00:00 AM 17.33 63.194 0.06 7.07 2.26 8.71
7/10/2021 6:15:00 AM 17.27 63.086 0.06 7.07 2.46 8.72
7/10/2021 6:30:00 AM 17.22 62.996 0.06 7.09 2.38 8.75
7/10/2021 6:45:00 AM 17.16 62.888 0.06 7.08 2.27 8.79
7/10/2021 7:00:00 AM 17.1 62.78 0.06 7.08 2.21 8.83
7/10/2021 7:15:00 AM 17.07 62.726 0.06 7.11 2.22 8.86
7/10/2021 7:30:00 AM 17.07 62.726 0.059 7.12 2.18 8.93
7/10/2021 7:45:00 AM 17.06 62.708 0.059 7.13 2.1 8.97
7/10/2021 8:00:00 AM 17.06 62.708 0.059 7.14 2.12 9
7/10/2021 8:15:00 AM 17.07 62.726 0.059 7.16 2.04 9.05
7/10/2021 8:30:00 AM 17.09 62.762 0.059 7.16 2 9.08
7/10/2021 8:45:00 AM 17.1 62.78 0.059 7.19 2.11 9.1
7/10/2021 9:00:00 AM 17.14 62.852 0.059 7.21 2.15 9.13
7/10/2021 9:15:00 AM 17.23 63.014 0.059 7.2 2.03 9.14
7/10/2021 9:30:00 AM 17.35 63.23 0.058 7.2 2.1 9.15
7/10/2021 9:45:00 AM 17.44 63.392 0.058 7.21 2.05 9.14
7/10/2021 10:00:00 AM 17.5 63.5 0.058 7.23 2.02 9.13
7/10/2021 10:15:00 AM 17.58 63.644 0.058 7.25 2.09 9.13
7/10/2021 10:30:00 AM 17.8 64.04 0.058 7.24 2.03 9.14
7/10/2021 10:45:00 AM 17.96 64.328 0.058 7.28 2.07 9.15
7/10/2021 11:00:00 AM 18.11 64.598 0.058 7.29 2.07 9.16
7/10/2021 11:15:00 AM 18.2 64.76 0.058 7.31 2.04 9.17
7/10/2021 11:30:00 AM 18.27 64.886 0.058 7.34 2.07 9.19
7/10/2021 11:45:00 AM 18.37 65.066 0.057 7.33 2.05 9.2
7/10/2021 12:00:00 PM 18.57 65.426 0.057 7.36 2.15 9.18
7/10/2021 12:15:00 PM 18.8 65.84 0.057 7.36 2.28 9.18
7/10/2021 12:30:00 PM 19.01 66.218 0.057 7.38 2.13 9.16
7/10/2021 12:45:00 PM 19.14 66.452 0.057 7.4 2.15 9.11
7/10/2021 1:00:00 PM 19.37 66.866 0.057 7.41 2.11 9.08
7/10/2021 1:15:00 PM 19.59 67.262 0.057 7.42 2.02 9.04
7/10/2021 1:30:00 PM 19.76 67.568 0.057 7.41 2.03 8.98
7/10/2021 1:45:00 PM 19.78 67.604 0.057 7.43 2.02 8.98
7/10/2021 2:00:00 PM 19.87 67.766 0.057 7.44 1.96 8.97
7/10/2021 2:15:00 PM 19.93 67.874 0.057 7.44 1.93 8.95
7/10/2021 2:30:00 PM 20.08 68.144 0.057 7.45 2 8.95
7/10/2021 2:45:00 PM 20.14 68.252 0.057 7.45 2.01 8.92
7/10/2021 3:00:00 PM 20.06 68.108 0.057 7.44 2.03 8.9
7/10/2021 3:15:00 PM 20.03 68.054 0.057 7.44 2.01 8.87
7/10/2021 3:30:00 PM 20.06 68.108 0.057 7.44 2.09 8.88
7/10/2021 3:45:00 PM 20.07 68.126 0.057 7.44 1.99 8.86
7/10/2021 4:00:00 PM 20.07 68.126 0.057 7.43 2.06 8.84
7/10/2021 4:15:00 PM 20.06 68.108 0.057 7.42 1.98 8.84
7/10/2021 4:30:00 PM 20.07 68.126 0.057 7.43 2.03 8.83
7/10/2021 4:45:00 PM 20.07 68.126 0.057 7.42 2.19 8.81
7/10/2021 5:00:00 PM 20.04 68.07201 0.057 7.4 2.1 8.8
7/10/2021 5:15:00 PM 20.01 68.018 0.057 7.4 1.98 8.78
7/10/2021 5:30:00 PM 19.98 67.964 0.057 7.37 2.14 8.75
7/10/2021 5:45:00 PM 19.94 67.892 0.057 7.37 2.08 8.71
7/10/2021 6:00:00 PM 19.9 67.82 0.057 7.34 2.1 8.67
7/10/2021 6:15:00 PM 19.85 67.73 0.057 7.34 2.02 8.65
7/10/2021 6:30:00 PM 19.84 67.712 0.057 7.33 2.06 8.66
7/10/2021 6:45:00 PM 19.81 67.658 0.057 7.32 2.05 8.67
7/10/2021 7:00:00 PM 19.76 67.568 0.057 7.32 2.07 8.67
7/10/2021 7:15:00 PM 19.7 67.46 0.057 7.31 2.14 8.66
7/10/2021 7:30:00 PM 19.64 67.352 0.057 7.29 2.08 8.65
7/10/2021 7:45:00 PM 19.59 67.262 0.057 7.29 2.08 8.63
7/10/2021 8:00:00 PM 19.53 67.154 0.057 7.27 2.03 8.6
7/10/2021 8:15:00 PM 19.46 67.028 0.057 7.25 2.18 8.57
7/10/2021 8:30:00 PM 19.37 66.866 0.058 7.24 2.09 8.53
7/10/2021 8:45:00 PM 19.28 66.704 0.058 7.23 2.09 8.5
7/10/2021 9:00:00 PM 19.18 66.524 0.058 7.21 2.15 8.47
7/10/2021 9:15:00 PM 19.09 66.362 0.058 7.18 2.23 8.45
7/10/2021 9:30:00 PM 18.98 66.164 0.058 7.18 2.28 8.46
7/10/2021 9:45:00 PM 18.89 66.002 0.058 7.16 2.22 8.46
7/10/2021 10:00:00 PM 18.78 65.804 0.058 7.17 2.33 8.47
7/10/2021 10:15:00 PM 18.68 65.624 0.058 7.16 2.18 8.48
7/10/2021 10:30:00 PM 18.58 65.444 0.058 7.14 2.16 8.48
7/10/2021 10:45:00 PM 18.48 65.264 0.059 7.13 2.12 8.49
7/10/2021 11:00:00 PM 18.37 65.066 0.059 7.13 2.17 8.51
7/10/2021 11:15:00 PM 18.27 64.886 0.059 7.1 2.18 8.53
7/10/2021 11:30:00 PM 18.16 64.688 0.059 7.12 2.2 8.56
7/10/2021 11:45:00 PM 18.05 64.49 0.059 7.1 2.16 8.57
7/11/2021 12:00:00 AM 17.95 64.31 0.059 7.1 2.09 8.58
7/11/2021 12:15:00 AM 17.86 64.148 0.059 7.08 2.07 8.6
7/11/2021 12:30:00 AM 17.79 64.022 0.059 7.1 2.07 8.61
7/11/2021 12:45:00 AM 17.73 63.914 0.059 7.08 2.22 8.63
7/11/2021 1:00:00 AM 17.67 63.806 0.059 7.09 2.2 8.64
7/11/2021 1:15:00 AM 17.6 63.68 0.059 7.08 2.33 8.65
7/11/2021 1:30:00 AM 17.54 63.572 0.059 7.08 2.07 8.67
7/11/2021 1:45:00 AM 17.49 63.482 0.059 7.07 2.09 8.69
7/11/2021 2:00:00 AM 17.44 63.392 0.059 7.09 2.2 8.69
7/11/2021 2:15:00 AM 17.39 63.302 0.059 7.08 2.15 8.71
7/11/2021 2:30:00 AM 17.34 63.212 0.059 7.1 2.16 8.71
7/11/2021 2:45:00 AM 17.3 63.14 0.059 7.08 2.11 8.72
7/11/2021 3:00:00 AM 17.26 63.068 0.059 7.09 2.03 8.73
7/11/2021 3:15:00 AM 17.21 62.978 0.059 7.08 2.1 8.74
7/11/2021 3:30:00 AM 17.17 62.906 0.059 7.08 2.03 8.74
7/11/2021 3:45:00 AM 17.13 62.834 0.059 7.08 2.02 8.74
7/11/2021 4:00:00 AM 17.09 62.762 0.059 7.08 2.05 8.75
7/11/2021 4:15:00 AM 17.05 62.69 0.059 7.07 2.1 8.76
7/11/2021 4:30:00 AM 17.01 62.618 0.059 7.08 2.11 8.78
7/11/2021 4:45:00 AM 16.97 62.546 0.059 7.08 2.01 8.79
7/11/2021 5:00:00 AM 16.94 62.492 0.059 7.09 2.11 8.8
7/11/2021 5:15:00 AM 16.9 62.42 0.059 7.07 2.12 8.81
7/11/2021 5:30:00 AM 16.86 62.348 0.059 7.1 2.08 8.82
7/11/2021 5:45:00 AM 16.82 62.276 0.059 7.07 2.16 8.82
7/11/2021 6:00:00 AM 16.78 62.204 0.059 7.07 2.12 8.83
7/11/2021 6:15:00 AM 16.75 62.15 0.059 7.08 2.06 8.85
7/11/2021 6:30:00 AM 16.72 62.096 0.059 7.08 2.1 8.87
7/11/2021 6:45:00 AM 16.69 62.042 0.059 7.09 2.39 8.89
7/11/2021 7:00:00 AM 16.66 61.988 0.059 7.09 2.05 8.91
7/11/2021 7:15:00 AM 16.64 61.952 0.059 7.1 2.04 8.95
7/11/2021 7:30:00 AM 16.62 61.916 0.059 7.11 2.38 8.98
7/11/2021 7:45:00 AM 16.61 61.898 0.059 7.12 1.99 9.03
7/11/2021 8:00:00 AM 16.61 61.898 0.059 7.13 2.08 9.06
7/11/2021 8:15:00 AM 16.6 61.88 0.059 7.15 1.98 9.08
7/11/2021 8:30:00 AM 16.6 61.88 0.059 7.14 1.97 9.1
7/11/2021 8:45:00 AM 16.61 61.898 0.059 7.15 1.99 9.14
7/11/2021 9:00:00 AM 16.62 61.916 0.059 7.16 1.96 9.14
7/11/2021 9:15:00 AM 16.62 61.916 0.059 7.17 1.96 9.16
7/11/2021 9:30:00 AM 16.65 61.97 0.059 7.17 1.97 9.19
7/11/2021 9:45:00 AM 16.67 62.006 0.059 7.19 1.91 9.19
7/11/2021 10:00:00 AM 16.7 62.06 0.058 7.19 1.97 9.23
7/11/2021 10:15:00 AM 16.74 62.132 0.058 7.21 1.91 9.25
7/11/2021 10:30:00 AM 16.85 62.33 0.058 7.21 2.01 9.31
7/11/2021 10:45:00 AM 16.93 62.474 0.058 7.23 1.95 9.31
7/11/2021 11:00:00 AM 16.98 62.564 0.058 7.23 1.92 9.3
7/11/2021 11:15:00 AM 17.04 62.672 0.058 7.24 2.03 9.31
7/11/2021 11:30:00 AM 17.1 62.78 0.058 7.25 1.96 9.3
7/11/2021 11:45:00 AM 17.21 62.978 0.058 7.27 1.99 9.32
7/11/2021 12:00:00 PM 17.3 63.14 0.058 7.29 1.97 9.3
7/11/2021 12:15:00 PM 17.38 63.284 0.057 7.3 1.92 9.3
7/11/2021 12:30:00 PM 17.47 63.446 0.057 7.31 1.98 9.29
7/11/2021 12:45:00 PM 17.52 63.536 0.057 7.3 1.98 9.26
7/11/2021 1:00:00 PM 17.53 63.554 0.057 7.3 1.99 9.2
7/11/2021 1:15:00 PM 17.54 63.572 0.057 7.29 1.99 9.15
7/11/2021 1:30:00 PM 17.57 63.626 0.057 7.26 1.93 9.12
7/11/2021 1:45:00 PM 17.61 63.698 0.058 7.27 1.91 9.09
7/11/2021 2:00:00 PM 17.63 63.734 0.058 7.26 1.93 9.06
7/11/2021 2:15:00 PM 17.64 63.752 0.058 7.25 1.9 9.04
7/11/2021 2:30:00 PM 17.64 63.752 0.058 7.24 2.01 9.02
7/11/2021 2:45:00 PM 17.64 63.752 0.058 7.25 1.99 9.04
7/11/2021 3:00:00 PM 17.64 63.752 0.058 7.25 2 9.04
7/11/2021 3:15:00 PM 17.65 63.77 0.058 7.26 2 9.05
7/11/2021 3:30:00 PM 17.65 63.77 0.058 7.26 2 9.05
7/11/2021 3:45:00 PM 17.66 63.788 0.058 7.26 1.99 9.06
7/11/2021 4:00:00 PM 17.66 63.788 0.058 7.26 1.97 9.06
7/11/2021 4:15:00 PM 17.67 63.806 0.058 7.27 1.97 9.07
7/11/2021 4:30:00 PM 17.68 63.824 0.058 7.28 1.93 9.08
7/11/2021 4:45:00 PM 17.67 63.806 0.058 7.26 1.96 9.06
7/11/2021 5:00:00 PM 17.66 63.788 0.058 7.27 2.01 9.04
7/11/2021 5:15:00 PM 17.65 63.77 0.058 7.27 2.02 9.02
7/11/2021 5:30:00 PM 17.63 63.734 0.057 7.25 2 9
7/11/2021 5:45:00 PM 17.62 63.716 0.057 7.24 2.03 8.96
7/11/2021 6:00:00 PM 17.7 63.86 0.053 7.2 3 8.95
7/11/2021 6:15:00 PM 17.68 63.824 0.053 7.18 3.73 8.87
7/11/2021 6:30:00 PM 17.64 63.752 0.053 7.15 5.93 8.82
7/11/2021 6:45:00 PM 17.62 63.716 0.052 7.1 30.02 8.78
7/11/2021 7:00:00 PM 17.55 63.59 0.051 7.07 39.85 8.75
7/11/2021 7:15:00 PM 17.51 63.518 0.049 7.04 44.84 8.74
7/11/2021 7:30:00 PM 17.44 63.392 0.05 6.99 29.71 8.75
7/11/2021 7:45:00 PM 17.35 63.23 0.049 6.99 23.84 8.75
7/11/2021 8:00:00 PM 17.27 63.086 0.05 7 25.25 8.78
7/11/2021 8:15:00 PM 17.12 62.816 0.049 6.95 32.52 8.79
7/11/2021 8:30:00 PM 16.96 62.528 0.047 6.93 40.04 8.81
7/11/2021 8:45:00 PM 16.89 62.402 0.046 6.87 47.09 8.81
7/11/2021 9:00:00 PM 16.85 62.33 0.046 6.84 50.92 8.81
7/11/2021 9:15:00 PM 16.78 62.204 0.045 6.82 44.85 8.83
7/11/2021 9:30:00 PM 16.7 62.06 0.044 6.8 39.65 8.86
7/11/2021 9:45:00 PM 16.65 61.97 0.044 6.83 38.87 8.88
7/11/2021 10:00:00 PM 16.61 61.898 0.044 6.79 34.45 8.87
7/11/2021 10:15:00 PM 16.59 61.862 0.044 6.74 35.38 8.87
7/11/2021 10:30:00 PM 16.59 61.862 0.045 6.76 30.22 8.89
7/11/2021 10:45:00 PM 16.58 61.844 0.046 6.76 28.88 8.9
7/11/2021 11:00:00 PM 16.57 61.826 0.046 6.76 29.66 8.91
7/11/2021 11:15:00 PM 16.58 61.844 0.046 6.77 26.98 8.92
7/11/2021 11:30:00 PM 16.59 61.862 0.046 6.76 26.19 8.92
7/11/2021 11:45:00 PM 16.6 61.88 0.046 6.77 25.4 8.92
7/12/2021 12:00:00 AM 16.59 61.862 0.046 6.8 21.04 8.92
7/12/2021 12:15:00 AM 16.56 61.808 0.047 6.79 22.57 8.92
7/12/2021 12:30:00 AM 16.54 61.772 0.047 6.8 21.31 8.93
7/12/2021 12:45:00 AM 16.51 61.718 0.047 6.81 20.28 8.94
7/12/2021 1:00:00 AM 16.49 61.682 0.048 6.79 19.16 8.94
7/12/2021 1:15:00 AM 16.47 61.646 0.048 6.79 17.68 8.94
7/12/2021 1:30:00 AM 16.46 61.628 0.048 6.79 17.06 8.95
7/12/2021 1:45:00 AM 16.45 61.61 0.048 6.79 15.74 8.95
7/12/2021 2:00:00 AM 16.45 61.61 0.048 6.8 14.28 8.95
7/12/2021 2:15:00 AM 16.45 61.61 0.048 6.8 13.7 8.95
7/12/2021 2:30:00 AM 16.45 61.61 0.048 6.8 13.25 8.95
7/12/2021 2:45:00 AM 16.45 61.61 0.048 6.8 12.51 8.96
7/12/2021 3:00:00 AM 16.45 61.61 0.048 6.81 11.67 8.96
7/12/2021 3:15:00 AM 16.45 61.61 0.048 6.8 11.01 8.97
7/12/2021 3:30:00 AM 16.44 61.592 0.048 6.82 10.86 8.97
7/12/2021 3:45:00 AM 16.43 61.574 0.048 6.82 10.04 8.97
7/12/2021 4:00:00 AM 16.42 61.556 0.048 6.82 9.85 8.97
7/12/2021 4:15:00 AM 16.4 61.52 0.049 6.82 9.24 8.97
7/12/2021 4:30:00 AM 16.39 61.502 0.049 6.83 9.29 8.98
7/12/2021 4:45:00 AM 16.37 61.466 0.049 6.83 8.77 8.98
7/12/2021 5:00:00 AM 16.34 61.412 0.049 6.82 8.65 8.99
7/12/2021 5:15:00 AM 16.31 61.358 0.049 6.82 8.21 8.99
7/12/2021 5:30:00 AM 16.29 61.322 0.049 6.82 8.16 9.01
7/12/2021 5:45:00 AM 16.27 61.286 0.049 6.82 8.26 9
7/12/2021 6:00:00 AM 16.24 61.232 0.049 6.81 7.99 9.02
7/12/2021 6:15:00 AM 16.22 61.196 0.05 6.82 7.63 9.02
7/12/2021 6:30:00 AM 16.19 61.142 0.05 6.81 7.51 9.04
7/12/2021 6:45:00 AM 16.17 61.106 0.05 6.81 7.12 9.05
7/12/2021 7:00:00 AM 16.16 61.088 0.05 6.82 7.05 9.08
7/12/2021 7:15:00 AM 16.16 61.088 0.05 6.82 6.71 9.11
7/12/2021 7:30:00 AM 16.16 61.088 0.05 6.83 6.43 9.14
7/12/2021 7:45:00 AM 16.16 61.088 0.05 6.83 6.21 9.17
7/12/2021 8:00:00 AM 16.16 61.088 0.05 6.86 6.12 9.18
7/12/2021 8:15:00 AM 16.16 61.088 0.05 6.84 5.81 9.2
7/12/2021 8:30:00 AM 16.16 61.088 0.05 6.88 5.65 9.2
7/12/2021 8:45:00 AM 16.17 61.106 0.05 6.88 5.62 9.21
7/12/2021 9:00:00 AM 16.21 61.178 0.05 6.88 5.58 9.25
7/12/2021 9:15:00 AM 16.24 61.232 0.05 6.91 5.22 9.29
7/12/2021 9:30:00 AM 16.28 61.304 0.05 6.9 5.27 9.3
7/12/2021 9:45:00 AM 16.39 61.502 0.05 6.93 5.28 9.32
7/12/2021 10:00:00 AM 16.47 61.646 0.05 6.94 5.21 9.33
7/12/2021 10:15:00 AM 16.59 61.862 0.05 6.96 5.04 9.34
7/12/2021 10:30:00 AM 16.75 62.15 0.05 6.99 5.06 9.34
7/12/2021 10:45:00 AM 16.92 62.456 0.05 7 5.25 9.33
7/12/2021 11:00:00 AM 17.11 62.798 0.05 7.01 5.28 9.32
7/12/2021 11:15:00 AM 17.25 63.05 0.05 7.04 5.35 9.32
7/12/2021 11:30:00 AM 17.32 63.176 0.05 7.05 5.05 9.31
7/12/2021 11:45:00 AM 17.54 63.572 0.05 7.07 5.11 9.29
7/12/2021 12:00:00 PM 17.7 63.86 0.05 7.07 5.18 9.26
7/12/2021 12:15:00 PM 17.83 64.094 0.05 7.09 5.13 9.25
7/12/2021 12:30:00 PM 18 64.4 0.05 7.09 5.06 9.23
7/12/2021 12:45:00 PM 18.06 64.508 0.05 7.11 5.12 9.23
7/12/2021 1:00:00 PM 18.15 64.67 0.05 7.11 4.92 9.23
7/12/2021 1:15:00 PM 18.2 64.76 0.05 7.14 4.92 9.21
7/12/2021 1:30:00 PM 18.32 64.976 0.05 7.13 4.94 9.2
7/12/2021 1:45:00 PM 18.35 65.03 0.05 7.13 4.89 9.16
7/12/2021 2:00:00 PM 18.36 65.048 0.05 7.12 4.72 9.14
7/12/2021 2:15:00 PM 18.42 65.156 0.05 7.14 4.83 9.14
7/12/2021 2:30:00 PM 18.6 65.48 0.05 7.16 4.83 9.14
7/12/2021 2:45:00 PM 18.64 65.552 0.05 7.15 4.88 9.14
7/12/2021 3:00:00 PM 18.75 65.75 0.05 7.16 4.7 9.12
7/12/2021 3:15:00 PM 18.81 65.858 0.05 7.16 4.85 9.09
7/12/2021 3:30:00 PM 18.96 66.128 0.05 7.16 4.7 9.07
7/12/2021 3:45:00 PM 18.98 66.164 0.05 7.17 4.66 9.06
7/12/2021 4:00:00 PM 19.05 66.29 0.05 7.16 4.7 9.03
7/12/2021 4:15:00 PM 19.17 66.506 0.05 7.16 4.43 9.02
7/12/2021 4:30:00 PM 19.13 66.434 0.05 7.16 4.64 8.96
7/12/2021 4:45:00 PM 19.12 66.416 0.05 7.13 4.5 8.91
7/12/2021 5:00:00 PM 19.07 66.326 0.05 7.12 4.47 8.84
7/12/2021 5:15:00 PM 18.96 66.128 0.05 7.1 4.45 8.8
7/12/2021 5:30:00 PM 18.82 65.876 0.05 7.08 4.65 8.78
7/12/2021 5:45:00 PM 18.79 65.82201 0.05 7.08 4.38 8.82
7/12/2021 6:00:00 PM 18.77 65.786 0.05 7.08 4.54 8.85
7/12/2021 6:15:00 PM 18.7 65.66 0.05 7.07 4.71 8.83
7/12/2021 6:30:00 PM 18.65 65.57 0.05 7.07 4.95 8.82
7/12/2021 6:45:00 PM 18.58 65.444 0.05 7.06 5.04 8.81
7/12/2021 7:00:00 PM 18.51 65.318 0.05 7.04 4.8 8.79
7/12/2021 7:15:00 PM 18.45 65.21 0.05 7.02 4.79 8.8
7/12/2021 7:30:00 PM 18.4 65.12 0.051 7.01 4.63 8.79
7/12/2021 7:45:00 PM 18.34 65.012 0.051 7.01 4.58 8.79
7/12/2021 8:00:00 PM 18.28 64.904 0.051 7 4.82 8.79
7/12/2021 8:15:00 PM 18.22 64.796 0.052 6.99 5.08 8.79
7/12/2021 8:30:00 PM 18.15 64.67 0.052 6.97 5.27 8.77
7/12/2021 8:45:00 PM 18.03 64.454 0.053 6.97 5.77 8.78
7/12/2021 9:00:00 PM 17.88 64.184 0.053 6.96 6.52 8.77
7/12/2021 9:15:00 PM 17.79 64.022 0.054 6.95 7.31 8.77
7/12/2021 9:30:00 PM 17.74 63.932 0.054 6.93 8 8.76
7/12/2021 9:45:00 PM 17.71 63.878 0.055 6.92 8.47 8.77
7/12/2021 10:00:00 PM 17.68 63.824 0.055 6.9 8.41 8.76
7/12/2021 10:15:00 PM 17.65 63.77 0.055 6.89 8.23 8.77
7/12/2021 10:30:00 PM 17.61 63.698 0.055 6.9 8.85 8.78
7/12/2021 10:45:00 PM 17.57 63.626 0.054 6.9 8.67 8.8
7/12/2021 11:00:00 PM 17.53 63.554 0.054 6.88 8.33 8.8
7/12/2021 11:15:00 PM 17.48 63.464 0.054 6.88 7.64 8.82
7/12/2021 11:30:00 PM 17.43 63.374 0.053 6.89 7.25 8.82
7/12/2021 11:45:00 PM 17.37 63.266 0.053 6.87 7.11 8.82
7/13/2021 12:00:00 AM 17.33 63.194 0.053 6.87 7.09 8.84
7/13/2021 12:15:00 AM 17.28 63.104 0.053 6.87 6.94 8.84
7/13/2021 12:30:00 AM 17.23 63.014 0.052 6.86 6.88 8.86
7/13/2021 12:45:00 AM 17.18 62.924 0.052 6.85 6.9 8.86
7/13/2021 1:00:00 AM 17.12 62.816 0.053 6.85 7.02 8.87
7/13/2021 1:15:00 AM 17.06 62.708 0.053 6.86 7.44 8.9
7/13/2021 1:30:00 AM 17.01 62.618 0.053 6.86 7.74 8.9
7/13/2021 1:45:00 AM 16.95 62.51 0.053 6.85 7.49 8.91
7/13/2021 2:00:00 AM 16.88 62.384 0.053 6.85 7.72 8.92
7/13/2021 2:15:00 AM 16.82 62.276 0.054 6.86 7.54 8.94
7/13/2021 2:30:00 AM 16.79 62.222 0.054 6.85 7.3 8.94
7/13/2021 2:45:00 AM 16.76 62.168 0.054 6.85 7.12 8.95
7/13/2021 3:00:00 AM 16.73 62.114 0.054 6.84 6.99 8.96
7/13/2021 3:15:00 AM 16.69 62.042 0.054 6.84 6.99 8.97
7/13/2021 3:30:00 AM 16.66 61.988 0.054 6.83 6.85 8.97
7/13/2021 3:45:00 AM 16.62 61.916 0.054 6.85 6.74 8.98
7/13/2021 4:00:00 AM 16.58 61.844 0.054 6.84 6.57 8.99
7/13/2021 4:15:00 AM 16.54 61.772 0.054 6.84 6.43 8.99
7/13/2021 4:30:00 AM 16.48 61.664 0.053 6.84 6.25 9
7/13/2021 4:45:00 AM 16.43 61.574 0.053 6.84 6.08 9.01
7/13/2021 5:00:00 AM 16.38 61.484 0.053 6.85 5.81 9.02
7/13/2021 5:15:00 AM 16.34 61.412 0.053 6.83 5.9 9.04
7/13/2021 5:30:00 AM 16.29 61.322 0.053 6.84 6.03 9.05
7/13/2021 5:45:00 AM 16.25 61.25 0.053 6.83 5.72 9.06
7/13/2021 6:00:00 AM 16.2 61.16 0.053 6.83 5.72 9.08
7/13/2021 6:15:00 AM 16.16 61.088 0.053 6.84 5.68 9.09
7/13/2021 6:30:00 AM 16.12 61.016 0.053 6.83 5.42 9.1
7/13/2021 6:45:00 AM 16.08 60.944 0.053 6.82 5.26 9.14
7/13/2021 7:00:00 AM 16.05 60.89 0.053 6.84 5.53 9.17
7/13/2021 7:15:00 AM 16.04 60.872 0.053 6.85 5.17 9.22
7/13/2021 7:30:00 AM 16.04 60.872 0.053 6.85 5.07 9.27
7/13/2021 7:45:00 AM 16.05 60.89 0.053 6.87 5.04 9.32
7/13/2021 8:00:00 AM 16.05 60.89 0.053 6.88 4.95 9.35
7/13/2021 8:15:00 AM 16.06 60.908 0.052 6.89 4.93 9.33
7/13/2021 8:30:00 AM 16.05 60.89 0.052 6.89 4.81 9.31
7/13/2021 8:45:00 AM 16.04 60.872 0.052 6.92 4.74 9.31
7/13/2021 9:00:00 AM 16.05 60.89 0.052 6.93 4.73 9.33
7/13/2021 9:15:00 AM 16.05 60.89 0.052 6.95 4.77 9.35
7/13/2021 9:30:00 AM 16.06 60.908 0.052 6.95 4.59 9.39
7/13/2021 9:45:00 AM 16.11 60.998 0.052 6.97 4.59 9.43
7/13/2021 10:00:00 AM 16.15 61.07 0.052 6.99 4.51 9.46
7/13/2021 10:15:00 AM 16.22 61.196 0.052 7 4.56 9.47
7/13/2021 10:30:00 AM 16.32 61.376 0.052 7.02 4.74 9.49
7/13/2021 10:45:00 AM 16.44 61.592 0.052 7.04 4.57 9.49
7/13/2021 11:00:00 AM 16.59 61.862 0.052 7.07 4.62 9.5
7/13/2021 11:15:00 AM 16.74 62.132 0.051 7.08 4.64 9.5
7/13/2021 11:30:00 AM 16.93 62.474 0.051 7.08 4.55 9.47
7/13/2021 11:45:00 AM 17.05 62.69 0.051 7.1 4.56 9.43
7/13/2021 12:00:00 PM 17.14 62.852 0.051 7.1 4.5 9.4
7/13/2021 12:15:00 PM 17.24 63.032 0.051 7.13 4.5 9.38
7/13/2021 12:30:00 PM 17.34 63.212 0.051 7.11 4.52 9.37
7/13/2021 12:45:00 PM 17.59 63.662 0.051 7.13 4.42 9.35
7/13/2021 1:00:00 PM 17.75 63.95 0.051 7.12 4.55 9.32
7/13/2021 1:15:00 PM 18.02 64.436 0.051 7.15 4.49 9.3
7/13/2021 1:30:00 PM 18.08 64.544 0.051 7.15 4.63 9.26
7/13/2021 1:45:00 PM 18.08 64.544 0.051 7.15 4.64 9.25
7/13/2021 2:00:00 PM 18.21 64.778 0.051 7.16 4.52 9.26
7/13/2021 2:15:00 PM 18.26 64.868 0.051 7.18 4.55 9.24
7/13/2021 2:30:00 PM 18.28 64.904 0.051 7.17 4.62 9.21
7/13/2021 2:45:00 PM 18.36 65.048 0.051 7.17 4.46 9.17
7/13/2021 3:00:00 PM 18.31 64.958 0.05 7.17 4.54 9.15
7/13/2021 3:15:00 PM 18.33 64.994 0.05 7.18 4.53 9.18
7/13/2021 3:30:00 PM 18.38 65.084 0.05 7.18 4.56 9.18
7/13/2021 3:45:00 PM 18.4 65.12 0.05 7.18 4.39 9.16
7/13/2021 4:00:00 PM 18.47 65.246 0.05 7.17 4.69 9.14
7/13/2021 4:15:00 PM 18.58 65.444 0.05 7.19 4.51 9.15
7/13/2021 4:30:00 PM 18.74 65.732 0.05 7.2 4.52 9.13
7/13/2021 4:45:00 PM 18.75 65.75 0.05 7.19 4.43 9.09
7/13/2021 5:00:00 PM 18.8 65.84 0.05 7.17 4.59 9.05
7/13/2021 5:15:00 PM 18.84 65.912 0.05 7.18 4.48 9
7/13/2021 5:30:00 PM 18.82 65.876 0.05 7.17 4.56 8.99
7/13/2021 5:45:00 PM 18.82 65.876 0.05 7.17 4.42 8.99
7/13/2021 6:00:00 PM 18.8 65.84 0.05 7.16 4.45 8.94
7/13/2021 6:15:00 PM 18.82 65.876 0.05 7.13 4.47 8.92
7/13/2021 6:30:00 PM 18.84 65.912 0.05 7.14 4.49 8.93
7/13/2021 6:45:00 PM 18.81 65.858 0.05 7.12 4.6 8.88
7/13/2021 7:00:00 PM 18.74 65.732 0.051 7.09 4.51 8.82
7/13/2021 7:15:00 PM 18.65 65.57 0.051 7.08 4.66 8.78
7/13/2021 7:30:00 PM 18.54 65.372 0.051 7.07 4.71 8.73
7/13/2021 7:45:00 PM 18.45 65.21 0.051 7.06 4.67 8.73
7/13/2021 8:00:00 PM 18.33 64.994 0.051 7.03 4.72 8.72
7/13/2021 8:15:00 PM 18.21 64.778 0.051 7.03 4.67 8.74
7/13/2021 8:30:00 PM 18.09 64.562 0.051 7.02 4.73 8.73
7/13/2021 8:45:00 PM 17.97 64.346 0.05 7.01 4.98 8.75
7/13/2021 9:00:00 PM 17.87 64.166 0.05 6.99 5.07 8.77
7/13/2021 9:15:00 PM 17.77 63.986 0.05 6.97 5.39 8.78
7/13/2021 9:30:00 PM 17.69 63.842 0.05 6.99 5.33 8.79
7/13/2021 9:45:00 PM 17.59 63.662 0.05 6.98 5.75 8.8
7/13/2021 10:00:00 PM 17.48 63.464 0.05 6.98 5.76 8.83
7/13/2021 10:15:00 PM 17.38 63.284 0.051 6.96 6.02 8.85
7/13/2021 10:30:00 PM 17.29 63.122 0.051 6.95 6.14 8.86
7/13/2021 10:45:00 PM 17.22 62.996 0.051 6.95 6.36 8.87
7/13/2021 11:00:00 PM 17.15 62.87 0.051 6.95 6.45 8.88
7/13/2021 11:15:00 PM 17.08 62.744 0.052 6.94 6.95 8.89
7/13/2021 11:30:00 PM 17.01 62.618 0.052 6.93 7.01 8.92
7/13/2021 11:45:00 PM 16.95 62.51 0.052 6.93 6.94 8.93
7/14/2021 12:00:00 AM 16.9 62.42 0.052 6.92 7.07 8.93
7/14/2021 12:15:00 AM 16.84 62.312 0.052 6.93 6.99 8.95
7/14/2021 12:30:00 AM 16.79 62.222 0.052 6.93 6.92 8.97
7/14/2021 12:45:00 AM 16.72 62.096 0.052 6.91 6.92 8.99
7/14/2021 1:00:00 AM 16.66 61.988 0.051 6.92 6.98 8.99
7/14/2021 1:15:00 AM 16.58 61.844 0.051 6.91 6.81 9.01
7/14/2021 1:30:00 AM 16.51 61.718 0.051 6.91 6.66 9.02
7/14/2021 1:45:00 AM 16.44 61.592 0.051 6.89 6.5 9.03
7/14/2021 2:00:00 AM 16.37 61.466 0.051 6.9 6.31 9.05
7/14/2021 2:15:00 AM 16.3 61.34 0.05 6.9 6.45 9.07
7/14/2021 2:30:00 AM 16.26 61.268 0.05 6.89 6.26 9.07
7/14/2021 2:45:00 AM 16.21 61.178 0.05 6.89 6.17 9.09
7/14/2021 3:00:00 AM 16.15 61.07 0.05 6.89 6.13 9.1
7/14/2021 3:15:00 AM 16.12 61.016 0.05 6.89 6.22 9.11
7/14/2021 3:30:00 AM 16.08 60.944 0.05 6.88 6.19 9.12
7/14/2021 3:45:00 AM 16.04 60.872 0.05 6.88 6.04 9.13
7/14/2021 4:00:00 AM 16.01 60.818 0.05 6.88 6.1 9.13
7/14/2021 4:15:00 AM 15.97 60.746 0.05 6.86 6.01 9.14
7/14/2021 4:30:00 AM 15.93 60.674 0.05 6.87 5.97 9.15
7/14/2021 4:45:00 AM 15.89 60.602 0.05 6.87 5.84 9.16
7/14/2021 5:00:00 AM 15.84 60.512 0.05 6.87 6.15 9.17
7/14/2021 5:15:00 AM 15.8 60.44 0.05 6.86 5.99 9.17
7/14/2021 5:30:00 AM 15.76 60.368 0.05 6.85 5.89 9.17
7/14/2021 5:45:00 AM 15.71 60.278 0.05 6.86 5.86 9.19
7/14/2021 6:00:00 AM 15.67 60.206 0.05 6.84 5.92 9.2
7/14/2021 6:15:00 AM 15.63 60.134 0.05 6.84 5.75 9.22
7/14/2021 6:30:00 AM 15.6 60.08 0.05 6.86 5.52 9.22
7/14/2021 6:45:00 AM 15.57 60.026 0.05 6.85 5.56 9.25
7/14/2021 7:00:00 AM 15.55 59.99 0.05 6.85 5.46 9.26
7/14/2021 7:15:00 AM 15.53 59.954 0.05 6.85 5.48 9.28
7/14/2021 7:30:00 AM 15.52 59.936 0.05 6.86 5.35 9.32
7/14/2021 7:45:00 AM 15.51 59.918 0.05 6.87 5.19 9.35
7/14/2021 8:00:00 AM 15.5 59.9 0.05 6.86 5.13 9.37
7/14/2021 8:15:00 AM 15.49 59.882 0.05 6.89 5.11 9.37
7/14/2021 8:30:00 AM 15.48 59.864 0.05 6.89 4.86 9.39
7/14/2021 8:45:00 AM 15.47 59.846 0.05 6.9 4.98 9.39
7/14/2021 9:00:00 AM 15.46 59.828 0.049 6.9 4.86 9.4
7/14/2021 9:15:00 AM 15.45 59.81 0.049 6.91 4.79 9.43
7/14/2021 9:30:00 AM 15.44 59.792 0.049 6.92 4.89 9.44
7/14/2021 9:45:00 AM 15.45 59.81 0.049 6.92 5.01 9.46
7/14/2021 10:00:00 AM 15.45 59.81 0.049 6.93 4.79 9.47
7/14/2021 10:15:00 AM 15.48 59.864 0.049 6.95 4.8 9.51
7/14/2021 10:30:00 AM 15.53 59.954 0.049 6.97 4.96 9.54
7/14/2021 10:45:00 AM 15.57 60.026 0.049 6.98 4.78 9.56
7/14/2021 11:00:00 AM 15.62 60.116 0.049 7 4.77 9.57
7/14/2021 11:15:00 AM 15.66 60.188 0.049 7.01 4.81 9.55
7/14/2021 11:30:00 AM 15.77 60.386 0.049 7.02 4.78 9.57
7/14/2021 11:45:00 AM 15.9 60.62 0.049 7.04 4.82 9.59
7/14/2021 12:00:00 PM 16.11 60.998 0.049 7.06 4.86 9.6
7/14/2021 12:15:00 PM 16.24 61.232 0.049 7.07 4.97 9.55
7/14/2021 12:30:00 PM 16.42 61.556 0.049 7.08 4.83 9.54
7/14/2021 12:45:00 PM 16.53 61.754 0.048 7.08 4.94 9.52
7/14/2021 1:00:00 PM 16.79 62.222 0.048 7.09 4.95 9.5
7/14/2021 1:15:00 PM 16.93 62.474 0.048 7.12 4.96 9.47
7/14/2021 1:30:00 PM 17.1 62.78 0.048 7.12 4.89 9.45
7/14/2021 1:45:00 PM 17.25 63.05 0.048 7.13 4.98 9.44
7/14/2021 2:00:00 PM 17.42 63.356 0.048 7.14 4.86 9.42
7/14/2021 2:15:00 PM 17.57 63.626 0.048 7.14 5.23 9.39
7/14/2021 2:30:00 PM 17.71 63.878 0.048 7.14 5.07 9.36
7/14/2021 2:45:00 PM 17.82 64.076 0.048 7.15 5.2 9.32
7/14/2021 3:00:00 PM 17.77 63.986 0.048 7.15 6.05 9.24
7/14/2021 3:15:00 PM 17.82 64.076 0.048 7.15 5.33 9.25
7/14/2021 3:30:00 PM 17.83 64.094 0.048 7.16 5.12 9.26
7/14/2021 3:45:00 PM 17.8 64.04 0.048 7.14 5.21 9.25
7/14/2021 4:00:00 PM 17.91 64.238 0.048 7.15 5.27 9.26
7/14/2021 4:15:00 PM 17.97 64.346 0.048 7.16 5.57 9.26
7/14/2021 4:30:00 PM 18.05 64.49 0.048 7.16 5.36 9.24
7/14/2021 4:45:00 PM 18.04 64.472 0.048 7.14 6.4 9.17
7/14/2021 5:00:00 PM 17.98 64.364 0.048 7.13 7.51 9.12
7/14/2021 5:15:00 PM 17.93 64.274 0.048 7.12 6.57 9.11
7/14/2021 5:30:00 PM 17.9 64.22 0.049 7.11 7.22 9.11
7/14/2021 5:45:00 PM 17.92 64.256 0.049 7.11 7.18 9.12
7/14/2021 6:00:00 PM 17.92 64.256 0.049 7.11 6.61 9.11
7/14/2021 6:15:00 PM 17.9 64.22 0.049 7.1 6.21 9.1
7/14/2021 6:30:00 PM 17.89 64.202 0.049 7.1 6.04 9.08
7/14/2021 6:45:00 PM 17.87 64.166 0.049 7.09 5.92 9.06
7/14/2021 7:00:00 PM 17.82 64.076 0.049 7.08 5.78 9.04
7/14/2021 7:15:00 PM 17.76 63.968 0.049 7.06 5.73 9.01
7/14/2021 7:30:00 PM 17.68 63.824 0.049 7.05 5.87 9
7/14/2021 7:45:00 PM 17.62 63.716 0.048 7.04 5.45 8.98
7/14/2021 8:00:00 PM 17.56 63.608 0.048 7.01 5.52 8.97
7/14/2021 8:15:00 PM 17.49 63.482 0.048 7.01 5.69 8.97
7/14/2021 8:30:00 PM 17.42 63.356 0.048 6.99 5.61 8.96
7/14/2021 8:45:00 PM 17.34 63.212 0.048 6.98 5.54 8.95
7/14/2021 9:00:00 PM 17.26 63.068 0.048 6.97 5.74 8.94
7/14/2021 9:15:00 PM 17.17 62.906 0.048 6.96 5.6 8.93
7/14/2021 9:30:00 PM 17.07 62.726 0.048 6.94 5.76 8.95
7/14/2021 9:45:00 PM 16.96 62.528 0.048 6.94 5.81 8.97
7/14/2021 10:00:00 PM 16.84 62.312 0.048 6.93 5.91 8.99
7/14/2021 10:15:00 PM 16.74 62.132 0.048 6.93 5.61 9.01
7/14/2021 10:30:00 PM 16.63 61.934 0.048 6.92 5.73 9.03
7/14/2021 10:45:00 PM 16.54 61.772 0.048 6.91 5.87 9.04
7/14/2021 11:00:00 PM 16.45 61.61 0.048 6.9 5.81 9.05
7/14/2021 11:15:00 PM 16.35 61.43 0.048 6.9 5.47 9.08
7/14/2021 11:30:00 PM 16.27 61.286 0.048 6.88 5.62 9.1
7/14/2021 11:45:00 PM 16.19 61.142 0.048 6.88 5.62 9.12
7/15/2021 12:00:00 AM 16.12 61.016 0.048 6.88 5.62 9.13
7/15/2021 12:15:00 AM 16.05 60.89 0.048 6.88 5.54 9.15
7/15/2021 12:30:00 AM 15.98 60.764 0.048 6.88 5.47 9.17
7/15/2021 12:45:00 AM 15.9 60.62 0.048 6.88 5.79 9.18
7/15/2021 1:00:00 AM 15.84 60.512 0.048 6.89 5.31 9.19
7/15/2021 1:15:00 AM 15.77 60.386 0.048 6.87 5.44 9.2
7/15/2021 1:30:00 AM 15.7 60.26 0.048 6.88 5.24 9.22
7/15/2021 1:45:00 AM 15.65 60.17 0.048 6.86 5.25 9.24
7/15/2021 2:00:00 AM 15.6 60.08 0.048 6.87 5.24 9.24
7/15/2021 2:15:00 AM 15.55 59.99 0.048 6.87 5.06 9.26
7/15/2021 2:30:00 AM 15.49 59.882 0.048 6.88 5.24 9.28
7/15/2021 2:45:00 AM 15.44 59.792 0.048 6.88 5.08 9.29
7/15/2021 3:00:00 AM 15.38 59.684 0.048 6.87 5.22 9.3
7/15/2021 3:15:00 AM 15.34 59.612 0.048 6.87 5.12 9.31
7/15/2021 3:30:00 AM 15.29 59.522 0.048 6.87 5.18 9.31
7/15/2021 3:45:00 AM 15.23 59.414 0.048 6.87 5.09 9.33
7/15/2021 4:00:00 AM 15.18 59.324 0.048 6.87 5 9.34
7/15/2021 4:15:00 AM 15.13 59.234 0.048 6.72 5.22 9.34
7/15/2021 4:30:00 AM 15.08 59.144 0.048 6.75 5.06 9.35
7/15/2021 4:45:00 AM 15.03 59.054 0.048 6.78 5.01 9.36
7/15/2021 5:00:00 AM 14.99 58.982 0.048 6.77 5.06 9.37
7/15/2021 5:15:00 AM 14.95 58.91 0.048 6.8 5.23 9.38
7/15/2021 5:30:00 AM 14.9 58.82 0.048 6.79 5.08 9.4
7/15/2021 5:45:00 AM 14.86 58.748 0.048 6.8 5.12 9.4
7/15/2021 6:00:00 AM 14.83 58.694 0.048 6.79 5.08 9.41
7/15/2021 6:15:00 AM 14.78 58.604 0.048 6.8 5.06 9.43
7/15/2021 6:30:00 AM 14.75 58.55 0.048 6.78 5.04 9.45
7/15/2021 6:45:00 AM 14.72 58.496 0.048 6.81 5 9.47
7/15/2021 7:00:00 AM 14.69 58.442 0.048 6.83 4.86 9.5
7/15/2021 7:15:00 AM 14.67 58.406 0.048 6.83 4.87 9.52
7/15/2021 7:30:00 AM 14.65 58.37 0.048 6.84 4.77 9.55
7/15/2021 7:45:00 AM 14.63 58.334 0.048 6.86 4.78 9.6
7/15/2021 8:00:00 AM 14.62 58.316 0.048 6.88 4.48 9.64
7/15/2021 8:15:00 AM 14.61 58.298 0.048 6.89 4.6 9.65
7/15/2021 8:30:00 AM 14.61 58.298 0.048 6.91 4.64 9.69
7/15/2021 8:45:00 AM 14.63 58.334 0.048 6.92 4.39 9.7
7/15/2021 9:00:00 AM 14.67 58.406 0.048 6.94 4.28 9.72
7/15/2021 9:15:00 AM 14.69 58.442 0.048 6.95 4.36 9.73
7/15/2021 9:30:00 AM 14.73 58.514 0.048 6.96 4.35 9.73
7/15/2021 9:45:00 AM 14.8 58.64 0.048 6.97 4.16 9.74
7/15/2021 10:00:00 AM 14.89 58.802 0.048 6.98 4.08 9.74
7/15/2021 10:15:00 AM 14.99 58.982 0.048 6.98 4.29 9.73
7/15/2021 10:30:00 AM 15.11 59.198 0.048 7.01 4.03 9.73
7/15/2021 10:45:00 AM 15.24 59.432 0.048 7.03 4.21 9.73
7/15/2021 11:00:00 AM 15.38 59.684 0.048 7.04 4.07 9.73
7/15/2021 11:15:00 AM 15.5 59.9 0.048 7.05 4.13 9.72
7/15/2021 11:30:00 AM 15.6 60.08 0.047 7.06 4.06 9.7
7/15/2021 11:45:00 AM 15.75 60.35 0.047 7.08 4.09 9.68
7/15/2021 12:00:00 PM 15.93 60.674 0.047 7.1 4.09 9.66
7/15/2021 12:15:00 PM 16.13 61.034 0.047 7.12 4.01 9.64
7/15/2021 12:30:00 PM 16.31 61.358 0.047 7.12 4.15 9.6
7/15/2021 12:45:00 PM 16.44 61.592 0.047 7.11 4.2 9.57
7/15/2021 1:00:00 PM 16.6 61.88 0.047 7.14 4.11 9.55
7/15/2021 1:15:00 PM 16.6 61.88 0.047 7.14 3.97 9.52
7/15/2021 1:30:00 PM 16.72 62.096 0.047 7.13 4.12 9.5
7/15/2021 1:45:00 PM 16.88 62.384 0.047 7.15 4.06 9.49
7/15/2021 2:00:00 PM 16.97 62.546 0.047 7.15 4.14 9.47
7/15/2021 2:15:00 PM 17.06 62.708 0.047 7.15 3.99 9.44
7/15/2021 2:30:00 PM 17.23 63.014 0.047 7.15 4.26 9.43
7/15/2021 2:45:00 PM 17.36 63.248 0.047 7.19 4.13 9.43
7/15/2021 3:00:00 PM 17.56 63.608 0.047 7.18 4.17 9.4
7/15/2021 3:15:00 PM 17.72 63.896 0.047 7.18 4.08 9.37
7/15/2021 3:30:00 PM 17.75 63.95 0.047 7.19 4.12 9.33
7/15/2021 3:45:00 PM 17.8 64.04 0.047 7.19 4.33 9.31
7/15/2021 4:00:00 PM 17.87 64.166 0.047 7.19 4.33 9.29
7/15/2021 4:15:00 PM 17.92 64.256 0.047 7.19 4.15 9.28
7/15/2021 4:30:00 PM 18 64.4 0.047 7.2 4.14 9.26
7/15/2021 4:45:00 PM 18.05 64.49 0.047 7.19 4.18 9.25
7/15/2021 5:00:00 PM 18.04 64.472 0.047 7.19 4.07 9.22
7/15/2021 5:15:00 PM 18.09 64.562 0.047 7.18 4.25 9.21
7/15/2021 5:30:00 PM 18.09 64.562 0.047 7.17 4.16 9.16
7/15/2021 5:45:00 PM 18.08 64.544 0.047 7.16 4.28 9.12
7/15/2021 6:00:00 PM 18.05 64.49 0.047 7.15 4.31 9.11
7/15/2021 6:15:00 PM 18.02 64.436 0.047 7.14 4.17 9.11
7/15/2021 6:30:00 PM 18 64.4 0.047 7.13 4.24 9.1
7/15/2021 6:45:00 PM 17.97 64.346 0.047 7.13 4.21 9.07
7/15/2021 7:00:00 PM 17.9 64.22 0.047 7.12 4.23 9.06
7/15/2021 7:15:00 PM 17.83 64.094 0.047 7.1 4.16 9.03
7/15/2021 7:30:00 PM 17.76 63.968 0.047 7.09 4.23 9.01
7/15/2021 7:45:00 PM 17.68 63.824 0.047 7.07 4.25 8.99
7/15/2021 8:00:00 PM 17.59 63.662 0.048 7.06 4.2 8.98
7/15/2021 8:15:00 PM 17.51 63.518 0.048 7.03 4.33 8.97
7/15/2021 8:30:00 PM 17.42 63.356 0.048 7.02 4.38 8.95
7/15/2021 8:45:00 PM 17.34 63.212 0.048 6.99 4.4 8.93
7/15/2021 9:00:00 PM 17.25 63.05 0.048 6.99 4.42 8.92
7/15/2021 9:15:00 PM 17.16 62.888 0.048 6.97 4.34 8.91
7/15/2021 9:30:00 PM 17.06 62.708 0.048 6.97 4.46 8.92
7/15/2021 9:45:00 PM 16.96 62.528 0.048 6.94 4.54 8.93
7/15/2021 10:00:00 PM 16.86 62.348 0.048 6.94 4.55 8.95
7/15/2021 10:15:00 PM 16.77 62.186 0.048 6.92 4.46 8.97
7/15/2021 10:30:00 PM 16.68 62.024 0.048 6.92 4.41 8.98
7/15/2021 10:45:00 PM 16.59 61.862 0.048 6.89 4.25 8.99
7/15/2021 11:00:00 PM 16.5 61.7 0.048 6.91 4.48 9
7/15/2021 11:15:00 PM 16.41 61.538 0.048 6.9 4.36 9.01
7/15/2021 11:30:00 PM 16.32 61.376 0.048 6.89 4.26 9.04
7/15/2021 11:45:00 PM 16.23 61.214 0.048 6.89 4.25 9.06
7/16/2021 12:00:00 AM 16.15 61.07 0.048 6.89 4.32 9.07
7/16/2021 12:15:00 AM 16.06 60.908 0.048 6.89 4.22 9.1
7/16/2021 12:30:00 AM 15.98 60.764 0.048 6.89 4.23 9.11
7/16/2021 12:45:00 AM 15.89 60.602 0.048 6.89 4.24 9.13
7/16/2021 1:00:00 AM 15.81 60.458 0.048 6.88 4.23 9.14
7/16/2021 1:15:00 AM 15.74 60.332 0.048 6.88 4.07 9.15
7/16/2021 1:30:00 AM 15.66 60.188 0.048 6.87 4.19 9.17
7/16/2021 1:45:00 AM 15.61 60.098 0.048 6.87 4.1 9.18
7/16/2021 2:00:00 AM 15.53 59.954 0.048 6.86 4.12 9.2
7/16/2021 2:15:00 AM 15.47 59.846 0.048 6.87 4.22 9.22
7/16/2021 2:30:00 AM 15.41 59.738 0.048 6.87 4.21 9.24
7/16/2021 2:45:00 AM 15.35 59.63 0.048 6.87 4.08 9.25
7/16/2021 3:00:00 AM 15.29 59.522 0.048 6.86 4.21 9.26
7/16/2021 3:15:00 AM 15.23 59.414 0.048 6.86 4.1 9.27
7/16/2021 3:30:00 AM 15.17 59.306 0.048 6.87 4.06 9.29
7/16/2021 3:45:00 AM 15.1 59.18 0.048 6.87 4 9.3
7/16/2021 4:00:00 AM 15.05 59.09 0.048 6.85 4.03 9.3
7/16/2021 4:15:00 AM 14.99 58.982 0.048 6.85 3.99 9.32
7/16/2021 4:30:00 AM 14.94 58.892 0.048 6.86 4.08 9.33
7/16/2021 4:45:00 AM 14.89 58.802 0.048 6.85 3.97 9.34
7/16/2021 5:00:00 AM 14.84 58.712 0.048 6.84 4.09 9.35
7/16/2021 5:15:00 AM 14.8 58.64 0.048 6.85 4.11 9.37
7/16/2021 5:30:00 AM 14.75 58.55 0.048 6.84 3.94 9.38
7/16/2021 5:45:00 AM 14.7 58.46 0.048 6.85 4.11 9.39
7/16/2021 6:00:00 AM 14.67 58.406 0.048 6.84 3.97 9.41
7/16/2021 6:15:00 AM 14.65 58.37 0.048 6.83 4.09 9.42
7/16/2021 6:30:00 AM 14.62 58.316 0.048 6.85 4.01 9.44
7/16/2021 6:45:00 AM 14.6 58.28 0.048 6.85 4.19 9.46
7/16/2021 7:00:00 AM 14.58 58.244 0.048 6.86 4.02 9.5
7/16/2021 7:15:00 AM 14.56 58.208 0.048 6.86 3.98 9.54
7/16/2021 7:30:00 AM 14.57 58.226 0.048 6.88 3.89 9.58
7/16/2021 7:45:00 AM 14.59 58.262 0.048 6.89 3.83 9.62
7/16/2021 8:00:00 AM 14.62 58.316 0.048 6.9 3.82 9.65
7/16/2021 8:15:00 AM 14.64 58.352 0.048 6.91 3.78 9.66
7/16/2021 8:30:00 AM 14.65 58.37 0.048 6.93 3.73 9.66
7/16/2021 8:45:00 AM 14.68 58.424 0.048 6.93 3.67 9.68
7/16/2021 9:00:00 AM 14.73 58.514 0.048 6.95 3.57 9.72
7/16/2021 9:15:00 AM 14.8 58.64 0.048 6.98 3.63 9.73
7/16/2021 9:30:00 AM 14.88 58.784 0.048 6.99 3.5 9.74
7/16/2021 9:45:00 AM 15 59 0.048 7.01 3.51 9.74
7/16/2021 10:00:00 AM 15.12 59.216 0.048 7.04 3.46 9.75
7/16/2021 10:15:00 AM 15.23 59.414 0.048 7.05 3.6 9.76
7/16/2021 10:30:00 AM 15.28 59.504 0.048 7.06 3.46 9.75
7/16/2021 10:45:00 AM 15.44 59.792 0.048 7.07 3.54 9.74
7/16/2021 11:00:00 AM 15.56